<?xml version="1.0" encoding="UTF-8" standalone="no" ?>
<gpx xmlns="http://www.topografix.com/GPX/1/1" xmlns:xsi="http://www.w3.org/2001/XMLSchema-instance" xsi:schemaLocation="http://www.topografix.com/GPX/1/1 http://www.topografix.com/GPX/1/1/gpx.xsd" version="1.1" creator="VisuGPX - https://www.visugpx.com">
  <metadata>
    <name>Maulevrier-circuit jaune</name>
    <desc><![CDATA[Circuit Jaune de  Maulévrier en découverte.]]></desc>
  </metadata>
  <trk>
    <name><![CDATA[Move]]></name>
    <trkseg>
      <trkpt lat="47.00757" lon="-0.74762">
        <ele>135</ele>
        <time>2016-09-14T13:41:35.008Z</time>
      </trkpt>
      <trkpt lat="47.00757" lon="-0.74761">
        <ele>135</ele>
        <time>2016-09-14T13:41:36.008Z</time>
      </trkpt>
      <trkpt lat="47.00758" lon="-0.74755">
        <ele>133</ele>
        <time>2016-09-14T13:41:47.008Z</time>
      </trkpt>
      <trkpt lat="47.0076" lon="-0.7475">
        <ele>133</ele>
        <time>2016-09-14T13:41:50.008Z</time>
      </trkpt>
      <trkpt lat="47.00762" lon="-0.74744">
        <ele>133</ele>
        <time>2016-09-14T13:41:55.008Z</time>
      </trkpt>
      <trkpt lat="47.00762" lon="-0.74738">
        <ele>133</ele>
        <time>2016-09-14T13:41:59.008Z</time>
      </trkpt>
      <trkpt lat="47.00762" lon="-0.74732">
        <ele>133</ele>
        <time>2016-09-14T13:42:03.008Z</time>
      </trkpt>
      <trkpt lat="47.00762" lon="-0.74726">
        <ele>133</ele>
        <time>2016-09-14T13:42:07.008Z</time>
      </trkpt>
      <trkpt lat="47.00762" lon="-0.74721">
        <ele>133</ele>
        <time>2016-09-14T13:42:12.008Z</time>
      </trkpt>
      <trkpt lat="47.00758" lon="-0.74705">
        <ele>133</ele>
        <time>2016-09-14T13:42:21.008Z</time>
      </trkpt>
      <trkpt lat="47.00757" lon="-0.74689">
        <ele>133</ele>
        <time>2016-09-14T13:42:31.008Z</time>
      </trkpt>
      <trkpt lat="47.00758" lon="-0.74683">
        <ele>133</ele>
        <time>2016-09-14T13:42:36.008Z</time>
      </trkpt>
      <trkpt lat="47.0076" lon="-0.74678">
        <ele>133</ele>
        <time>2016-09-14T13:42:40.008Z</time>
      </trkpt>
      <trkpt lat="47.00762" lon="-0.74673">
        <ele>133</ele>
        <time>2016-09-14T13:42:44.008Z</time>
      </trkpt>
      <trkpt lat="47.00763" lon="-0.74667">
        <ele>133</ele>
        <time>2016-09-14T13:42:48.008Z</time>
      </trkpt>
      <trkpt lat="47.00762" lon="-0.74661">
        <ele>133</ele>
        <time>2016-09-14T13:42:52.008Z</time>
      </trkpt>
      <trkpt lat="47.0076" lon="-0.74657">
        <ele>133</ele>
        <time>2016-09-14T13:42:58.008Z</time>
      </trkpt>
      <trkpt lat="47.00756" lon="-0.74654">
        <ele>133</ele>
        <time>2016-09-14T13:43:02.008Z</time>
      </trkpt>
      <trkpt lat="47.00753" lon="-0.74651">
        <ele>133</ele>
        <time>2016-09-14T13:43:05.008Z</time>
      </trkpt>
      <trkpt lat="47.00752" lon="-0.74646">
        <ele>133</ele>
        <time>2016-09-14T13:43:11.008Z</time>
      </trkpt>
      <trkpt lat="47.00752" lon="-0.7464">
        <ele>133</ele>
        <time>2016-09-14T13:43:14.008Z</time>
      </trkpt>
      <trkpt lat="47.0075" lon="-0.74635">
        <ele>133</ele>
        <time>2016-09-14T13:43:17.008Z</time>
      </trkpt>
      <trkpt lat="47.00749" lon="-0.74629">
        <ele>132</ele>
        <time>2016-09-14T13:43:22.008Z</time>
      </trkpt>
      <trkpt lat="47.00747" lon="-0.74623">
        <ele>132</ele>
        <time>2016-09-14T13:43:26.008Z</time>
      </trkpt>
      <trkpt lat="47.00747" lon="-0.74617">
        <ele>132</ele>
        <time>2016-09-14T13:43:29.008Z</time>
      </trkpt>
      <trkpt lat="47.00747" lon="-0.74611">
        <ele>132</ele>
        <time>2016-09-14T13:43:33.008Z</time>
      </trkpt>
      <trkpt lat="47.00746" lon="-0.74606">
        <ele>132</ele>
        <time>2016-09-14T13:43:36.008Z</time>
      </trkpt>
      <trkpt lat="47.00745" lon="-0.746">
        <ele>132</ele>
        <time>2016-09-14T13:43:39.008Z</time>
      </trkpt>
      <trkpt lat="47.00743" lon="-0.74595">
        <ele>131</ele>
        <time>2016-09-14T13:43:43.008Z</time>
      </trkpt>
      <trkpt lat="47.00741" lon="-0.74589">
        <ele>131</ele>
        <time>2016-09-14T13:43:46.008Z</time>
      </trkpt>
      <trkpt lat="47.00739" lon="-0.74585">
        <ele>131</ele>
        <time>2016-09-14T13:43:49.008Z</time>
      </trkpt>
      <trkpt lat="47.00737" lon="-0.7458">
        <ele>130</ele>
        <time>2016-09-14T13:43:52.008Z</time>
      </trkpt>
      <trkpt lat="47.00735" lon="-0.74571">
        <ele>130</ele>
        <time>2016-09-14T13:43:58.008Z</time>
      </trkpt>
      <trkpt lat="47.00734" lon="-0.74566">
        <ele>129</ele>
        <time>2016-09-14T13:44:02.008Z</time>
      </trkpt>
      <trkpt lat="47.00732" lon="-0.74561">
        <ele>129</ele>
        <time>2016-09-14T13:44:05.008Z</time>
      </trkpt>
      <trkpt lat="47.0073" lon="-0.74555">
        <ele>129</ele>
        <time>2016-09-14T13:44:08.008Z</time>
      </trkpt>
      <trkpt lat="47.00726" lon="-0.74552">
        <ele>129</ele>
        <time>2016-09-14T13:44:11.008Z</time>
      </trkpt>
      <trkpt lat="47.00723" lon="-0.74547">
        <ele>129</ele>
        <time>2016-09-14T13:44:15.008Z</time>
      </trkpt>
      <trkpt lat="47.0072" lon="-0.74544">
        <ele>129</ele>
        <time>2016-09-14T13:44:20.008Z</time>
      </trkpt>
      <trkpt lat="47.00723" lon="-0.74542">
        <ele>128</ele>
        <time>2016-09-14T13:44:32.008Z</time>
      </trkpt>
      <trkpt lat="47.00725" lon="-0.74537">
        <ele>128</ele>
        <time>2016-09-14T13:44:35.008Z</time>
      </trkpt>
      <trkpt lat="47.00727" lon="-0.74531">
        <ele>128</ele>
        <time>2016-09-14T13:44:39.008Z</time>
      </trkpt>
      <trkpt lat="47.00726" lon="-0.74525">
        <ele>127</ele>
        <time>2016-09-14T13:44:42.008Z</time>
      </trkpt>
      <trkpt lat="47.00727" lon="-0.7452">
        <ele>127</ele>
        <time>2016-09-14T13:44:46.008Z</time>
      </trkpt>
      <trkpt lat="47.00726" lon="-0.74513">
        <ele>127</ele>
        <time>2016-09-14T13:44:58.008Z</time>
      </trkpt>
      <trkpt lat="47.00727" lon="-0.74507">
        <ele>127</ele>
        <time>2016-09-14T13:45:00.008Z</time>
      </trkpt>
      <trkpt lat="47.00734" lon="-0.74495">
        <ele>127</ele>
        <time>2016-09-14T13:45:07.008Z</time>
      </trkpt>
      <trkpt lat="47.00737" lon="-0.74492">
        <ele>127</ele>
        <time>2016-09-14T13:45:10.008Z</time>
      </trkpt>
      <trkpt lat="47.00737" lon="-0.74485">
        <ele>127</ele>
        <time>2016-09-14T13:45:14.008Z</time>
      </trkpt>
      <trkpt lat="47.00738" lon="-0.74478">
        <ele>127</ele>
        <time>2016-09-14T13:45:18.008Z</time>
      </trkpt>
      <trkpt lat="47.00738" lon="-0.74471">
        <ele>126</ele>
        <time>2016-09-14T13:45:23.008Z</time>
      </trkpt>
      <trkpt lat="47.00741" lon="-0.74465">
        <ele>126</ele>
        <time>2016-09-14T13:45:28.008Z</time>
      </trkpt>
      <trkpt lat="47.00741" lon="-0.7446">
        <ele>126</ele>
        <time>2016-09-14T13:45:34.008Z</time>
      </trkpt>
      <trkpt lat="47.00744" lon="-0.74444">
        <ele>126</ele>
        <time>2016-09-14T13:45:42.008Z</time>
      </trkpt>
      <trkpt lat="47.00747" lon="-0.74434">
        <ele>125</ele>
        <time>2016-09-14T13:45:47.008Z</time>
      </trkpt>
      <trkpt lat="47.00749" lon="-0.74428">
        <ele>125</ele>
        <time>2016-09-14T13:45:51.008Z</time>
      </trkpt>
      <trkpt lat="47.0075" lon="-0.74421">
        <ele>124</ele>
        <time>2016-09-14T13:45:55.008Z</time>
      </trkpt>
      <trkpt lat="47.00751" lon="-0.74416">
        <ele>124</ele>
        <time>2016-09-14T13:45:58.008Z</time>
      </trkpt>
      <trkpt lat="47.00752" lon="-0.7441">
        <ele>124</ele>
        <time>2016-09-14T13:46:02.008Z</time>
      </trkpt>
      <trkpt lat="47.00753" lon="-0.74404">
        <ele>124</ele>
        <time>2016-09-14T13:46:06.008Z</time>
      </trkpt>
      <trkpt lat="47.00754" lon="-0.74398">
        <ele>124</ele>
        <time>2016-09-14T13:46:10.008Z</time>
      </trkpt>
      <trkpt lat="47.00758" lon="-0.74398">
        <ele>124</ele>
        <time>2016-09-14T13:46:14.008Z</time>
      </trkpt>
      <trkpt lat="47.00759" lon="-0.74392">
        <ele>124</ele>
        <time>2016-09-14T13:46:18.008Z</time>
      </trkpt>
      <trkpt lat="47.0076" lon="-0.74386">
        <ele>124</ele>
        <time>2016-09-14T13:46:21.008Z</time>
      </trkpt>
      <trkpt lat="47.0076" lon="-0.7437">
        <ele>124</ele>
        <time>2016-09-14T13:46:32.008Z</time>
      </trkpt>
      <trkpt lat="47.00762" lon="-0.74357">
        <ele>124</ele>
        <time>2016-09-14T13:46:38.008Z</time>
      </trkpt>
      <trkpt lat="47.00763" lon="-0.7435">
        <ele>124</ele>
        <time>2016-09-14T13:46:41.008Z</time>
      </trkpt>
      <trkpt lat="47.00762" lon="-0.74344">
        <ele>124</ele>
        <time>2016-09-14T13:46:44.008Z</time>
      </trkpt>
      <trkpt lat="47.00761" lon="-0.74338">
        <ele>124</ele>
        <time>2016-09-14T13:46:47.008Z</time>
      </trkpt>
      <trkpt lat="47.0076" lon="-0.74328">
        <ele>125</ele>
        <time>2016-09-14T13:46:54.008Z</time>
      </trkpt>
      <trkpt lat="47.00762" lon="-0.74311">
        <ele>125</ele>
        <time>2016-09-14T13:47:07.008Z</time>
      </trkpt>
      <trkpt lat="47.00772" lon="-0.74305">
        <ele>126</ele>
        <time>2016-09-14T13:47:18.008Z</time>
      </trkpt>
      <trkpt lat="47.00776" lon="-0.74302">
        <ele>127</ele>
        <time>2016-09-14T13:47:25.008Z</time>
      </trkpt>
      <trkpt lat="47.0078" lon="-0.74301">
        <ele>127</ele>
        <time>2016-09-14T13:47:31.008Z</time>
      </trkpt>
      <trkpt lat="47.00785" lon="-0.74298">
        <ele>127</ele>
        <time>2016-09-14T13:47:35.008Z</time>
      </trkpt>
      <trkpt lat="47.00789" lon="-0.74293">
        <ele>127</ele>
        <time>2016-09-14T13:47:38.008Z</time>
      </trkpt>
      <trkpt lat="47.008" lon="-0.74286">
        <ele>128</ele>
        <time>2016-09-14T13:47:49.008Z</time>
      </trkpt>
      <trkpt lat="47.00811" lon="-0.74283">
        <ele>129</ele>
        <time>2016-09-14T13:47:55.008Z</time>
      </trkpt>
      <trkpt lat="47.00815" lon="-0.74281">
        <ele>129</ele>
        <time>2016-09-14T13:47:59.008Z</time>
      </trkpt>
      <trkpt lat="47.00819" lon="-0.74279">
        <ele>129</ele>
        <time>2016-09-14T13:48:02.008Z</time>
      </trkpt>
      <trkpt lat="47.00823" lon="-0.74277">
        <ele>129</ele>
        <time>2016-09-14T13:48:06.008Z</time>
      </trkpt>
      <trkpt lat="47.00827" lon="-0.74276">
        <ele>129</ele>
        <time>2016-09-14T13:48:09.008Z</time>
      </trkpt>
      <trkpt lat="47.00832" lon="-0.74273">
        <ele>130</ele>
        <time>2016-09-14T13:48:13.008Z</time>
      </trkpt>
      <trkpt lat="47.00841" lon="-0.74264">
        <ele>130</ele>
        <time>2016-09-14T13:48:23.008Z</time>
      </trkpt>
      <trkpt lat="47.00852" lon="-0.74259">
        <ele>132</ele>
        <time>2016-09-14T13:48:33.008Z</time>
      </trkpt>
      <trkpt lat="47.00856" lon="-0.74257">
        <ele>132</ele>
        <time>2016-09-14T13:48:37.008Z</time>
      </trkpt>
      <trkpt lat="47.0086" lon="-0.74257">
        <ele>132</ele>
        <time>2016-09-14T13:48:40.008Z</time>
      </trkpt>
      <trkpt lat="47.00864" lon="-0.74255">
        <ele>132</ele>
        <time>2016-09-14T13:48:44.008Z</time>
      </trkpt>
      <trkpt lat="47.00868" lon="-0.74253">
        <ele>132</ele>
        <time>2016-09-14T13:48:47.008Z</time>
      </trkpt>
      <trkpt lat="47.00872" lon="-0.74252">
        <ele>132</ele>
        <time>2016-09-14T13:48:50.008Z</time>
      </trkpt>
      <trkpt lat="47.00876" lon="-0.7425">
        <ele>132</ele>
        <time>2016-09-14T13:48:53.008Z</time>
      </trkpt>
      <trkpt lat="47.0088" lon="-0.74249">
        <ele>132</ele>
        <time>2016-09-14T13:48:56.008Z</time>
      </trkpt>
      <trkpt lat="47.00884" lon="-0.74246">
        <ele>132</ele>
        <time>2016-09-14T13:48:59.008Z</time>
      </trkpt>
      <trkpt lat="47.00887" lon="-0.74243">
        <ele>133</ele>
        <time>2016-09-14T13:49:03.008Z</time>
      </trkpt>
      <trkpt lat="47.00891" lon="-0.74241">
        <ele>133</ele>
        <time>2016-09-14T13:49:06.008Z</time>
      </trkpt>
      <trkpt lat="47.00894" lon="-0.74239">
        <ele>133</ele>
        <time>2016-09-14T13:49:09.008Z</time>
      </trkpt>
      <trkpt lat="47.00898" lon="-0.74237">
        <ele>134</ele>
        <time>2016-09-14T13:49:12.008Z</time>
      </trkpt>
      <trkpt lat="47.00901" lon="-0.74235">
        <ele>134</ele>
        <time>2016-09-14T13:49:15.008Z</time>
      </trkpt>
      <trkpt lat="47.00906" lon="-0.74234">
        <ele>134</ele>
        <time>2016-09-14T13:49:19.008Z</time>
      </trkpt>
      <trkpt lat="47.0091" lon="-0.74233">
        <ele>134</ele>
        <time>2016-09-14T13:49:23.008Z</time>
      </trkpt>
      <trkpt lat="47.00914" lon="-0.74232">
        <ele>134</ele>
        <time>2016-09-14T13:49:26.008Z</time>
      </trkpt>
      <trkpt lat="47.00918" lon="-0.74231">
        <ele>134</ele>
        <time>2016-09-14T13:49:29.008Z</time>
      </trkpt>
      <trkpt lat="47.00921" lon="-0.74233">
        <ele>134</ele>
        <time>2016-09-14T13:49:34.008Z</time>
      </trkpt>
      <trkpt lat="47.00925" lon="-0.74231">
        <ele>134</ele>
        <time>2016-09-14T13:49:39.008Z</time>
      </trkpt>
      <trkpt lat="47.00928" lon="-0.74232">
        <ele>134</ele>
        <time>2016-09-14T13:49:43.008Z</time>
      </trkpt>
      <trkpt lat="47.00931" lon="-0.74227">
        <ele>134</ele>
        <time>2016-09-14T13:49:46.008Z</time>
      </trkpt>
      <trkpt lat="47.00933" lon="-0.74222">
        <ele>134</ele>
        <time>2016-09-14T13:49:50.008Z</time>
      </trkpt>
      <trkpt lat="47.00935" lon="-0.74218">
        <ele>135</ele>
        <time>2016-09-14T13:50:28.008Z</time>
      </trkpt>
      <trkpt lat="47.00933" lon="-0.74211">
        <ele>135</ele>
        <time>2016-09-14T13:50:33.008Z</time>
      </trkpt>
      <trkpt lat="47.00933" lon="-0.74206">
        <ele>135</ele>
        <time>2016-09-14T13:50:36.008Z</time>
      </trkpt>
      <trkpt lat="47.00933" lon="-0.742">
        <ele>135</ele>
        <time>2016-09-14T13:50:39.008Z</time>
      </trkpt>
      <trkpt lat="47.00935" lon="-0.74195">
        <ele>135</ele>
        <time>2016-09-14T13:50:42.008Z</time>
      </trkpt>
      <trkpt lat="47.00936" lon="-0.7419">
        <ele>135</ele>
        <time>2016-09-14T13:50:45.008Z</time>
      </trkpt>
      <trkpt lat="47.00938" lon="-0.74185">
        <ele>135</ele>
        <time>2016-09-14T13:50:48.008Z</time>
      </trkpt>
      <trkpt lat="47.00939" lon="-0.7418">
        <ele>135</ele>
        <time>2016-09-14T13:50:51.008Z</time>
      </trkpt>
      <trkpt lat="47.00941" lon="-0.74175">
        <ele>135</ele>
        <time>2016-09-14T13:50:54.008Z</time>
      </trkpt>
      <trkpt lat="47.00943" lon="-0.7417">
        <ele>135</ele>
        <time>2016-09-14T13:50:57.008Z</time>
      </trkpt>
      <trkpt lat="47.00945" lon="-0.74165">
        <ele>135</ele>
        <time>2016-09-14T13:51:00.008Z</time>
      </trkpt>
      <trkpt lat="47.00947" lon="-0.7416">
        <ele>136</ele>
        <time>2016-09-14T13:51:03.008Z</time>
      </trkpt>
      <trkpt lat="47.00949" lon="-0.74155">
        <ele>136</ele>
        <time>2016-09-14T13:51:06.008Z</time>
      </trkpt>
      <trkpt lat="47.0095" lon="-0.7415">
        <ele>136</ele>
        <time>2016-09-14T13:51:09.008Z</time>
      </trkpt>
      <trkpt lat="47.00951" lon="-0.74144">
        <ele>137</ele>
        <time>2016-09-14T13:51:13.008Z</time>
      </trkpt>
      <trkpt lat="47.00954" lon="-0.74139">
        <ele>137</ele>
        <time>2016-09-14T13:51:17.008Z</time>
      </trkpt>
      <trkpt lat="47.00956" lon="-0.74133">
        <ele>137</ele>
        <time>2016-09-14T13:51:21.008Z</time>
      </trkpt>
      <trkpt lat="47.00959" lon="-0.74128">
        <ele>137</ele>
        <time>2016-09-14T13:51:25.008Z</time>
      </trkpt>
      <trkpt lat="47.0096" lon="-0.74123">
        <ele>137</ele>
        <time>2016-09-14T13:51:28.008Z</time>
      </trkpt>
      <trkpt lat="47.00962" lon="-0.74116">
        <ele>137</ele>
        <time>2016-09-14T13:51:32.008Z</time>
      </trkpt>
      <trkpt lat="47.00964" lon="-0.74111">
        <ele>137</ele>
        <time>2016-09-14T13:51:36.008Z</time>
      </trkpt>
      <trkpt lat="47.00965" lon="-0.74106">
        <ele>137</ele>
        <time>2016-09-14T13:51:40.008Z</time>
      </trkpt>
      <trkpt lat="47.00961" lon="-0.74105">
        <ele>138</ele>
        <time>2016-09-14T13:51:53.008Z</time>
      </trkpt>
      <trkpt lat="47.00959" lon="-0.7411">
        <ele>138</ele>
        <time>2016-09-14T13:52:00.008Z</time>
      </trkpt>
      <trkpt lat="47.00956" lon="-0.74114">
        <ele>137</ele>
        <time>2016-09-14T13:52:17.008Z</time>
      </trkpt>
      <trkpt lat="47.00954" lon="-0.74119">
        <ele>138</ele>
        <time>2016-09-14T13:52:22.008Z</time>
      </trkpt>
      <trkpt lat="47.00952" lon="-0.74125">
        <ele>138</ele>
        <time>2016-09-14T13:52:28.008Z</time>
      </trkpt>
      <trkpt lat="47.0095" lon="-0.7413">
        <ele>138</ele>
        <time>2016-09-14T13:52:33.008Z</time>
      </trkpt>
      <trkpt lat="47.00948" lon="-0.74135">
        <ele>138</ele>
        <time>2016-09-14T13:52:38.008Z</time>
      </trkpt>
      <trkpt lat="47.00944" lon="-0.74137">
        <ele>137</ele>
        <time>2016-09-14T13:52:45.008Z</time>
      </trkpt>
      <trkpt lat="47.0094" lon="-0.74136">
        <ele>137</ele>
        <time>2016-09-14T13:52:49.008Z</time>
      </trkpt>
      <trkpt lat="47.00937" lon="-0.74134">
        <ele>137</ele>
        <time>2016-09-14T13:52:56.008Z</time>
      </trkpt>
      <trkpt lat="47.00933" lon="-0.74131">
        <ele>137</ele>
        <time>2016-09-14T13:53:27.008Z</time>
      </trkpt>
      <trkpt lat="47.00929" lon="-0.74128">
        <ele>137</ele>
        <time>2016-09-14T13:53:31.008Z</time>
      </trkpt>
      <trkpt lat="47.00925" lon="-0.74127">
        <ele>137</ele>
        <time>2016-09-14T13:53:36.008Z</time>
      </trkpt>
      <trkpt lat="47.00921" lon="-0.74124">
        <ele>137</ele>
        <time>2016-09-14T13:53:40.008Z</time>
      </trkpt>
      <trkpt lat="47.00917" lon="-0.74122">
        <ele>138</ele>
        <time>2016-09-14T13:53:45.008Z</time>
      </trkpt>
      <trkpt lat="47.00913" lon="-0.7412">
        <ele>138</ele>
        <time>2016-09-14T13:53:49.008Z</time>
      </trkpt>
      <trkpt lat="47.0091" lon="-0.74118">
        <ele>138</ele>
        <time>2016-09-14T13:53:52.008Z</time>
      </trkpt>
      <trkpt lat="47.00905" lon="-0.74115">
        <ele>138</ele>
        <time>2016-09-14T13:53:55.008Z</time>
      </trkpt>
      <trkpt lat="47.009" lon="-0.74114">
        <ele>138</ele>
        <time>2016-09-14T13:53:58.008Z</time>
      </trkpt>
      <trkpt lat="47.00896" lon="-0.74115">
        <ele>138</ele>
        <time>2016-09-14T13:54:02.008Z</time>
      </trkpt>
      <trkpt lat="47.00892" lon="-0.74115">
        <ele>138</ele>
        <time>2016-09-14T13:54:06.008Z</time>
      </trkpt>
      <trkpt lat="47.00887" lon="-0.74115">
        <ele>138</ele>
        <time>2016-09-14T13:54:10.008Z</time>
      </trkpt>
      <trkpt lat="47.00883" lon="-0.74116">
        <ele>140</ele>
        <time>2016-09-14T13:54:13.008Z</time>
      </trkpt>
      <trkpt lat="47.0088" lon="-0.74115">
        <ele>140</ele>
        <time>2016-09-14T13:54:17.008Z</time>
      </trkpt>
      <trkpt lat="47.00876" lon="-0.74115">
        <ele>140</ele>
        <time>2016-09-14T13:54:21.008Z</time>
      </trkpt>
      <trkpt lat="47.00872" lon="-0.74116">
        <ele>140</ele>
        <time>2016-09-14T13:54:25.008Z</time>
      </trkpt>
      <trkpt lat="47.00868" lon="-0.74115">
        <ele>140</ele>
        <time>2016-09-14T13:54:30.008Z</time>
      </trkpt>
      <trkpt lat="47.00864" lon="-0.74115">
        <ele>140</ele>
        <time>2016-09-14T13:54:35.008Z</time>
      </trkpt>
      <trkpt lat="47.00859" lon="-0.74115">
        <ele>140</ele>
        <time>2016-09-14T13:54:38.008Z</time>
      </trkpt>
      <trkpt lat="47.00856" lon="-0.74114">
        <ele>140</ele>
        <time>2016-09-14T13:54:41.008Z</time>
      </trkpt>
      <trkpt lat="47.00851" lon="-0.74114">
        <ele>140</ele>
        <time>2016-09-14T13:54:45.008Z</time>
      </trkpt>
      <trkpt lat="47.00847" lon="-0.74114">
        <ele>140</ele>
        <time>2016-09-14T13:54:48.008Z</time>
      </trkpt>
      <trkpt lat="47.00843" lon="-0.74114">
        <ele>140</ele>
        <time>2016-09-14T13:54:52.008Z</time>
      </trkpt>
      <trkpt lat="47.00839" lon="-0.74114">
        <ele>140</ele>
        <time>2016-09-14T13:54:55.008Z</time>
      </trkpt>
      <trkpt lat="47.00835" lon="-0.74114">
        <ele>140</ele>
        <time>2016-09-14T13:54:59.008Z</time>
      </trkpt>
      <trkpt lat="47.00831" lon="-0.74115">
        <ele>138</ele>
        <time>2016-09-14T13:55:02.008Z</time>
      </trkpt>
      <trkpt lat="47.00827" lon="-0.74115">
        <ele>138</ele>
        <time>2016-09-14T13:55:05.008Z</time>
      </trkpt>
      <trkpt lat="47.00823" lon="-0.74114">
        <ele>138</ele>
        <time>2016-09-14T13:55:09.008Z</time>
      </trkpt>
      <trkpt lat="47.00819" lon="-0.74114">
        <ele>138</ele>
        <time>2016-09-14T13:55:13.008Z</time>
      </trkpt>
      <trkpt lat="47.00815" lon="-0.74114">
        <ele>138</ele>
        <time>2016-09-14T13:55:18.008Z</time>
      </trkpt>
      <trkpt lat="47.00811" lon="-0.74114">
        <ele>138</ele>
        <time>2016-09-14T13:55:21.008Z</time>
      </trkpt>
      <trkpt lat="47.00807" lon="-0.74114">
        <ele>138</ele>
        <time>2016-09-14T13:55:24.008Z</time>
      </trkpt>
      <trkpt lat="47.00803" lon="-0.74113">
        <ele>138</ele>
        <time>2016-09-14T13:55:28.008Z</time>
      </trkpt>
      <trkpt lat="47.008" lon="-0.74113">
        <ele>138</ele>
        <time>2016-09-14T13:55:31.008Z</time>
      </trkpt>
      <trkpt lat="47.00796" lon="-0.74113">
        <ele>138</ele>
        <time>2016-09-14T13:55:34.008Z</time>
      </trkpt>
      <trkpt lat="47.00791" lon="-0.74112">
        <ele>138</ele>
        <time>2016-09-14T13:55:38.008Z</time>
      </trkpt>
      <trkpt lat="47.00788" lon="-0.74114">
        <ele>137.73555388051</ele>
        <time>2016-09-14T13:55:41.008Z</time>
      </trkpt>
      <trkpt lat="47.00784" lon="-0.74115">
        <ele>137</ele>
        <time>2016-09-14T13:55:44.008Z</time>
      </trkpt>
      <trkpt lat="47.0078" lon="-0.74114">
        <ele>137</ele>
        <time>2016-09-14T13:55:47.008Z</time>
      </trkpt>
      <trkpt lat="47.00776" lon="-0.74114">
        <ele>137</ele>
        <time>2016-09-14T13:55:50.008Z</time>
      </trkpt>
      <trkpt lat="47.00772" lon="-0.7411">
        <ele>137</ele>
        <time>2016-09-14T13:55:54.008Z</time>
      </trkpt>
      <trkpt lat="47.00768" lon="-0.74111">
        <ele>137</ele>
        <time>2016-09-14T13:55:58.008Z</time>
      </trkpt>
      <trkpt lat="47.00764" lon="-0.74112">
        <ele>137</ele>
        <time>2016-09-14T13:56:02.008Z</time>
      </trkpt>
      <trkpt lat="47.0076" lon="-0.74111">
        <ele>137</ele>
        <time>2016-09-14T13:56:05.008Z</time>
      </trkpt>
      <trkpt lat="47.00756" lon="-0.7411">
        <ele>137</ele>
        <time>2016-09-14T13:56:09.008Z</time>
      </trkpt>
      <trkpt lat="47.00752" lon="-0.7411">
        <ele>135</ele>
        <time>2016-09-14T13:56:13.008Z</time>
      </trkpt>
      <trkpt lat="47.00747" lon="-0.7411">
        <ele>135</ele>
        <time>2016-09-14T13:56:17.008Z</time>
      </trkpt>
      <trkpt lat="47.00742" lon="-0.7411">
        <ele>135</ele>
        <time>2016-09-14T13:56:20.008Z</time>
      </trkpt>
      <trkpt lat="47.00738" lon="-0.7411">
        <ele>134</ele>
        <time>2016-09-14T13:56:24.008Z</time>
      </trkpt>
      <trkpt lat="47.00734" lon="-0.7411">
        <ele>134</ele>
        <time>2016-09-14T13:56:28.008Z</time>
      </trkpt>
      <trkpt lat="47.0073" lon="-0.7411">
        <ele>134</ele>
        <time>2016-09-14T13:56:32.008Z</time>
      </trkpt>
      <trkpt lat="47.00725" lon="-0.74111">
        <ele>134</ele>
        <time>2016-09-14T13:56:36.008Z</time>
      </trkpt>
      <trkpt lat="47.00721" lon="-0.74111">
        <ele>134</ele>
        <time>2016-09-14T13:56:40.008Z</time>
      </trkpt>
      <trkpt lat="47.00716" lon="-0.74111">
        <ele>133</ele>
        <time>2016-09-14T13:56:44.008Z</time>
      </trkpt>
      <trkpt lat="47.00712" lon="-0.7411">
        <ele>133</ele>
        <time>2016-09-14T13:56:47.008Z</time>
      </trkpt>
      <trkpt lat="47.00708" lon="-0.74109">
        <ele>133</ele>
        <time>2016-09-14T13:56:51.008Z</time>
      </trkpt>
      <trkpt lat="47.00705" lon="-0.74105">
        <ele>133</ele>
        <time>2016-09-14T13:56:56.008Z</time>
      </trkpt>
      <trkpt lat="47.00703" lon="-0.74099">
        <ele>133</ele>
        <time>2016-09-14T13:57:00.008Z</time>
      </trkpt>
      <trkpt lat="47.00702" lon="-0.74092">
        <ele>132</ele>
        <time>2016-09-14T13:57:05.008Z</time>
      </trkpt>
      <trkpt lat="47.007" lon="-0.74086">
        <ele>132</ele>
        <time>2016-09-14T13:57:09.008Z</time>
      </trkpt>
      <trkpt lat="47.00699" lon="-0.7408">
        <ele>132</ele>
        <time>2016-09-14T13:57:14.008Z</time>
      </trkpt>
      <trkpt lat="47.00698" lon="-0.74074">
        <ele>132</ele>
        <time>2016-09-14T13:57:18.008Z</time>
      </trkpt>
      <trkpt lat="47.00697" lon="-0.74069">
        <ele>132</ele>
        <time>2016-09-14T13:57:22.008Z</time>
      </trkpt>
      <trkpt lat="47.00695" lon="-0.74063">
        <ele>132</ele>
        <time>2016-09-14T13:57:26.008Z</time>
      </trkpt>
      <trkpt lat="47.00694" lon="-0.74056">
        <ele>132</ele>
        <time>2016-09-14T13:57:30.008Z</time>
      </trkpt>
      <trkpt lat="47.00691" lon="-0.74051">
        <ele>132</ele>
        <time>2016-09-14T13:57:34.008Z</time>
      </trkpt>
      <trkpt lat="47.00687" lon="-0.7405">
        <ele>132</ele>
        <time>2016-09-14T13:57:37.008Z</time>
      </trkpt>
      <trkpt lat="47.00684" lon="-0.74047">
        <ele>132</ele>
        <time>2016-09-14T13:57:40.008Z</time>
      </trkpt>
      <trkpt lat="47.00684" lon="-0.74041">
        <ele>132</ele>
        <time>2016-09-14T13:57:44.008Z</time>
      </trkpt>
      <trkpt lat="47.00684" lon="-0.74036">
        <ele>132</ele>
        <time>2016-09-14T13:57:47.008Z</time>
      </trkpt>
      <trkpt lat="47.00682" lon="-0.7403">
        <ele>132</ele>
        <time>2016-09-14T13:57:51.008Z</time>
      </trkpt>
      <trkpt lat="47.0068" lon="-0.74024">
        <ele>132</ele>
        <time>2016-09-14T13:57:55.008Z</time>
      </trkpt>
      <trkpt lat="47.00679" lon="-0.74018">
        <ele>132</ele>
        <time>2016-09-14T13:57:58.008Z</time>
      </trkpt>
      <trkpt lat="47.00679" lon="-0.74012">
        <ele>132</ele>
        <time>2016-09-14T13:58:01.008Z</time>
      </trkpt>
      <trkpt lat="47.00678" lon="-0.74007">
        <ele>132</ele>
        <time>2016-09-14T13:58:04.008Z</time>
      </trkpt>
      <trkpt lat="47.00676" lon="-0.74001">
        <ele>132</ele>
        <time>2016-09-14T13:58:08.008Z</time>
      </trkpt>
      <trkpt lat="47.00676" lon="-0.73995">
        <ele>132</ele>
        <time>2016-09-14T13:58:13.008Z</time>
      </trkpt>
      <trkpt lat="47.00674" lon="-0.7399">
        <ele>132</ele>
        <time>2016-09-14T13:58:22.008Z</time>
      </trkpt>
      <trkpt lat="47.00674" lon="-0.73984">
        <ele>132</ele>
        <time>2016-09-14T13:58:25.008Z</time>
      </trkpt>
      <trkpt lat="47.00672" lon="-0.73978">
        <ele>132</ele>
        <time>2016-09-14T13:58:28.008Z</time>
      </trkpt>
      <trkpt lat="47.00672" lon="-0.73972">
        <ele>132</ele>
        <time>2016-09-14T13:58:31.008Z</time>
      </trkpt>
      <trkpt lat="47.00671" lon="-0.73965">
        <ele>132</ele>
        <time>2016-09-14T13:58:35.008Z</time>
      </trkpt>
      <trkpt lat="47.00669" lon="-0.7396">
        <ele>132</ele>
        <time>2016-09-14T13:58:38.008Z</time>
      </trkpt>
      <trkpt lat="47.00668" lon="-0.73955">
        <ele>131.66220179603</ele>
        <time>2016-09-14T13:58:41.008Z</time>
      </trkpt>
      <trkpt lat="47.00667" lon="-0.73948">
        <ele>131</ele>
        <time>2016-09-14T13:58:45.008Z</time>
      </trkpt>
      <trkpt lat="47.00666" lon="-0.73943">
        <ele>131</ele>
        <time>2016-09-14T13:58:48.008Z</time>
      </trkpt>
      <trkpt lat="47.00665" lon="-0.73936">
        <ele>131</ele>
        <time>2016-09-14T13:58:52.008Z</time>
      </trkpt>
      <trkpt lat="47.00664" lon="-0.73929">
        <ele>131</ele>
        <time>2016-09-14T13:58:56.008Z</time>
      </trkpt>
      <trkpt lat="47.00663" lon="-0.73923">
        <ele>131</ele>
        <time>2016-09-14T13:59:00.008Z</time>
      </trkpt>
      <trkpt lat="47.00662" lon="-0.73917">
        <ele>131</ele>
        <time>2016-09-14T13:59:04.008Z</time>
      </trkpt>
      <trkpt lat="47.00661" lon="-0.73912">
        <ele>131</ele>
        <time>2016-09-14T13:59:07.008Z</time>
      </trkpt>
      <trkpt lat="47.00661" lon="-0.73905">
        <ele>131</ele>
        <time>2016-09-14T13:59:11.008Z</time>
      </trkpt>
      <trkpt lat="47.00663" lon="-0.73899">
        <ele>131</ele>
        <time>2016-09-14T13:59:21.008Z</time>
      </trkpt>
      <trkpt lat="47.00663" lon="-0.73905">
        <ele>132</ele>
        <time>2016-09-14T13:59:55.008Z</time>
      </trkpt>
      <trkpt lat="47.0066" lon="-0.73899">
        <ele>132</ele>
        <time>2016-09-14T14:00:01.008Z</time>
      </trkpt>
      <trkpt lat="47.0066" lon="-0.73894">
        <ele>130</ele>
        <time>2016-09-14T14:00:04.008Z</time>
      </trkpt>
      <trkpt lat="47.00659" lon="-0.73887">
        <ele>130</ele>
        <time>2016-09-14T14:00:08.008Z</time>
      </trkpt>
      <trkpt lat="47.00658" lon="-0.7388">
        <ele>130</ele>
        <time>2016-09-14T14:00:12.008Z</time>
      </trkpt>
      <trkpt lat="47.00656" lon="-0.73874">
        <ele>130</ele>
        <time>2016-09-14T14:00:16.008Z</time>
      </trkpt>
      <trkpt lat="47.00655" lon="-0.73868">
        <ele>130</ele>
        <time>2016-09-14T14:00:20.008Z</time>
      </trkpt>
      <trkpt lat="47.00654" lon="-0.73863">
        <ele>130</ele>
        <time>2016-09-14T14:00:23.008Z</time>
      </trkpt>
      <trkpt lat="47.00653" lon="-0.73858">
        <ele>130</ele>
        <time>2016-09-14T14:00:26.008Z</time>
      </trkpt>
      <trkpt lat="47.00653" lon="-0.73852">
        <ele>130</ele>
        <time>2016-09-14T14:00:30.008Z</time>
      </trkpt>
      <trkpt lat="47.00652" lon="-0.73847">
        <ele>130</ele>
        <time>2016-09-14T14:00:33.008Z</time>
      </trkpt>
      <trkpt lat="47.0065" lon="-0.73843">
        <ele>130</ele>
        <time>2016-09-14T14:00:35.008Z</time>
      </trkpt>
      <trkpt lat="47.00648" lon="-0.73837">
        <ele>130</ele>
        <time>2016-09-14T14:00:39.008Z</time>
      </trkpt>
      <trkpt lat="47.00648" lon="-0.73831">
        <ele>129.59774776718</ele>
        <time>2016-09-14T14:00:43.008Z</time>
      </trkpt>
      <trkpt lat="47.00646" lon="-0.73815">
        <ele>129</ele>
        <time>2016-09-14T14:00:51.008Z</time>
      </trkpt>
      <trkpt lat="47.00643" lon="-0.73803">
        <ele>129</ele>
        <time>2016-09-14T14:00:58.008Z</time>
      </trkpt>
      <trkpt lat="47.00642" lon="-0.73797">
        <ele>130</ele>
        <time>2016-09-14T14:01:02.008Z</time>
      </trkpt>
      <trkpt lat="47.00641" lon="-0.73792">
        <ele>130</ele>
        <time>2016-09-14T14:01:06.008Z</time>
      </trkpt>
      <trkpt lat="47.00639" lon="-0.73786">
        <ele>130</ele>
        <time>2016-09-14T14:01:10.008Z</time>
      </trkpt>
      <trkpt lat="47.00638" lon="-0.73779">
        <ele>130</ele>
        <time>2016-09-14T14:01:14.008Z</time>
      </trkpt>
      <trkpt lat="47.00638" lon="-0.73773">
        <ele>130</ele>
        <time>2016-09-14T14:01:17.008Z</time>
      </trkpt>
      <trkpt lat="47.00637" lon="-0.73767">
        <ele>130.4679995904</ele>
        <time>2016-09-14T14:01:21.008Z</time>
      </trkpt>
      <trkpt lat="47.00635" lon="-0.73756">
        <ele>131</ele>
        <time>2016-09-14T14:01:28.008Z</time>
      </trkpt>
      <trkpt lat="47.00634" lon="-0.73749">
        <ele>131</ele>
        <time>2016-09-14T14:01:32.008Z</time>
      </trkpt>
      <trkpt lat="47.00636" lon="-0.73743">
        <ele>131</ele>
        <time>2016-09-14T14:01:36.008Z</time>
      </trkpt>
      <trkpt lat="47.00638" lon="-0.73738">
        <ele>131</ele>
        <time>2016-09-14T14:01:40.008Z</time>
      </trkpt>
      <trkpt lat="47.00639" lon="-0.73732">
        <ele>131</ele>
        <time>2016-09-14T14:01:44.008Z</time>
      </trkpt>
      <trkpt lat="47.00639" lon="-0.73726">
        <ele>131</ele>
        <time>2016-09-14T14:01:47.008Z</time>
      </trkpt>
      <trkpt lat="47.0064" lon="-0.7372">
        <ele>131.28275862069</ele>
        <time>2016-09-14T14:01:51.008Z</time>
      </trkpt>
      <trkpt lat="47.00639" lon="-0.73714">
        <ele>132</ele>
        <time>2016-09-14T14:01:55.008Z</time>
      </trkpt>
      <trkpt lat="47.00642" lon="-0.73709">
        <ele>132</ele>
        <time>2016-09-14T14:02:00.008Z</time>
      </trkpt>
      <trkpt lat="47.00646" lon="-0.73707">
        <ele>132</ele>
        <time>2016-09-14T14:02:04.008Z</time>
      </trkpt>
      <trkpt lat="47.00649" lon="-0.73706">
        <ele>132</ele>
        <time>2016-09-14T14:02:08.008Z</time>
      </trkpt>
      <trkpt lat="47.00653" lon="-0.73703">
        <ele>132</ele>
        <time>2016-09-14T14:02:13.008Z</time>
      </trkpt>
      <trkpt lat="47.00657" lon="-0.737">
        <ele>132</ele>
        <time>2016-09-14T14:02:17.008Z</time>
      </trkpt>
      <trkpt lat="47.00661" lon="-0.73697">
        <ele>132</ele>
        <time>2016-09-14T14:02:20.008Z</time>
      </trkpt>
      <trkpt lat="47.00663" lon="-0.73694">
        <ele>132</ele>
        <time>2016-09-14T14:02:22.008Z</time>
      </trkpt>
      <trkpt lat="47.00666" lon="-0.73688">
        <ele>132</ele>
        <time>2016-09-14T14:02:25.008Z</time>
      </trkpt>
      <trkpt lat="47.00669" lon="-0.73682">
        <ele>132</ele>
        <time>2016-09-14T14:02:28.008Z</time>
      </trkpt>
      <trkpt lat="47.0067" lon="-0.73677">
        <ele>132</ele>
        <time>2016-09-14T14:02:31.008Z</time>
      </trkpt>
      <trkpt lat="47.00673" lon="-0.73671">
        <ele>133</ele>
        <time>2016-09-14T14:02:35.008Z</time>
      </trkpt>
      <trkpt lat="47.00674" lon="-0.73666">
        <ele>133</ele>
        <time>2016-09-14T14:02:38.008Z</time>
      </trkpt>
      <trkpt lat="47.00677" lon="-0.73661">
        <ele>133</ele>
        <time>2016-09-14T14:02:42.008Z</time>
      </trkpt>
      <trkpt lat="47.00679" lon="-0.73656">
        <ele>133</ele>
        <time>2016-09-14T14:02:45.008Z</time>
      </trkpt>
      <trkpt lat="47.00682" lon="-0.73652">
        <ele>133</ele>
        <time>2016-09-14T14:02:48.008Z</time>
      </trkpt>
      <trkpt lat="47.00682" lon="-0.73647">
        <ele>133</ele>
        <time>2016-09-14T14:02:51.008Z</time>
      </trkpt>
      <trkpt lat="47.00682" lon="-0.7364">
        <ele>133</ele>
        <time>2016-09-14T14:02:55.008Z</time>
      </trkpt>
      <trkpt lat="47.00682" lon="-0.73635">
        <ele>133</ele>
        <time>2016-09-14T14:02:58.008Z</time>
      </trkpt>
      <trkpt lat="47.00682" lon="-0.73629">
        <ele>133</ele>
        <time>2016-09-14T14:03:02.008Z</time>
      </trkpt>
      <trkpt lat="47.00683" lon="-0.73623">
        <ele>133</ele>
        <time>2016-09-14T14:03:06.008Z</time>
      </trkpt>
      <trkpt lat="47.00686" lon="-0.73619">
        <ele>133</ele>
        <time>2016-09-14T14:03:11.008Z</time>
      </trkpt>
      <trkpt lat="47.00689" lon="-0.73615">
        <ele>133</ele>
        <time>2016-09-14T14:03:14.008Z</time>
      </trkpt>
      <trkpt lat="47.00692" lon="-0.73612">
        <ele>133</ele>
        <time>2016-09-14T14:03:17.008Z</time>
      </trkpt>
      <trkpt lat="47.00695" lon="-0.73607">
        <ele>133</ele>
        <time>2016-09-14T14:03:21.008Z</time>
      </trkpt>
      <trkpt lat="47.00699" lon="-0.73603">
        <ele>133</ele>
        <time>2016-09-14T14:03:26.008Z</time>
      </trkpt>
      <trkpt lat="47.00703" lon="-0.73599">
        <ele>133</ele>
        <time>2016-09-14T14:03:30.008Z</time>
      </trkpt>
      <trkpt lat="47.00707" lon="-0.73595">
        <ele>133</ele>
        <time>2016-09-14T14:03:34.008Z</time>
      </trkpt>
      <trkpt lat="47.00709" lon="-0.7359">
        <ele>133</ele>
        <time>2016-09-14T14:03:38.008Z</time>
      </trkpt>
      <trkpt lat="47.00714" lon="-0.73586">
        <ele>132</ele>
        <time>2016-09-14T14:03:42.008Z</time>
      </trkpt>
      <trkpt lat="47.00718" lon="-0.73581">
        <ele>132</ele>
        <time>2016-09-14T14:03:46.008Z</time>
      </trkpt>
      <trkpt lat="47.0072" lon="-0.73576">
        <ele>132</ele>
        <time>2016-09-14T14:03:49.008Z</time>
      </trkpt>
      <trkpt lat="47.0072" lon="-0.7357">
        <ele>132</ele>
        <time>2016-09-14T14:03:52.008Z</time>
      </trkpt>
      <trkpt lat="47.00716" lon="-0.73565">
        <ele>132</ele>
        <time>2016-09-14T14:03:55.008Z</time>
      </trkpt>
      <trkpt lat="47.00713" lon="-0.7356">
        <ele>132</ele>
        <time>2016-09-14T14:03:58.008Z</time>
      </trkpt>
      <trkpt lat="47.0071" lon="-0.73556">
        <ele>132</ele>
        <time>2016-09-14T14:04:01.008Z</time>
      </trkpt>
      <trkpt lat="47.00708" lon="-0.7355">
        <ele>132</ele>
        <time>2016-09-14T14:04:04.008Z</time>
      </trkpt>
      <trkpt lat="47.00706" lon="-0.73546">
        <ele>132</ele>
        <time>2016-09-14T14:04:07.008Z</time>
      </trkpt>
      <trkpt lat="47.00703" lon="-0.73541">
        <ele>132</ele>
        <time>2016-09-14T14:04:10.008Z</time>
      </trkpt>
      <trkpt lat="47.007" lon="-0.73538">
        <ele>132</ele>
        <time>2016-09-14T14:04:13.008Z</time>
      </trkpt>
      <trkpt lat="47.00696" lon="-0.73533">
        <ele>132</ele>
        <time>2016-09-14T14:04:17.008Z</time>
      </trkpt>
      <trkpt lat="47.00693" lon="-0.73529">
        <ele>132</ele>
        <time>2016-09-14T14:04:20.008Z</time>
      </trkpt>
      <trkpt lat="47.00689" lon="-0.73527">
        <ele>130</ele>
        <time>2016-09-14T14:04:23.008Z</time>
      </trkpt>
      <trkpt lat="47.00686" lon="-0.73522">
        <ele>130</ele>
        <time>2016-09-14T14:04:27.008Z</time>
      </trkpt>
      <trkpt lat="47.00683" lon="-0.73518">
        <ele>129</ele>
        <time>2016-09-14T14:04:32.008Z</time>
      </trkpt>
      <trkpt lat="47.00679" lon="-0.73518">
        <ele>129</ele>
        <time>2016-09-14T14:04:38.008Z</time>
      </trkpt>
      <trkpt lat="47.00675" lon="-0.73517">
        <ele>128.15652391685</ele>
        <time>2016-09-14T14:04:41.008Z</time>
      </trkpt>
      <trkpt lat="47.0067" lon="-0.73518">
        <ele>127</ele>
        <time>2016-09-14T14:04:45.008Z</time>
      </trkpt>
      <trkpt lat="47.00666" lon="-0.73516">
        <ele>127</ele>
        <time>2016-09-14T14:04:49.008Z</time>
      </trkpt>
      <trkpt lat="47.00663" lon="-0.73513">
        <ele>126</ele>
        <time>2016-09-14T14:04:53.008Z</time>
      </trkpt>
      <trkpt lat="47.00662" lon="-0.73507">
        <ele>126</ele>
        <time>2016-09-14T14:04:57.008Z</time>
      </trkpt>
      <trkpt lat="47.00662" lon="-0.73501">
        <ele>126</ele>
        <time>2016-09-14T14:05:01.008Z</time>
      </trkpt>
      <trkpt lat="47.00663" lon="-0.73494">
        <ele>126</ele>
        <time>2016-09-14T14:05:05.008Z</time>
      </trkpt>
      <trkpt lat="47.00662" lon="-0.73489">
        <ele>126</ele>
        <time>2016-09-14T14:05:08.008Z</time>
      </trkpt>
      <trkpt lat="47.00662" lon="-0.73483">
        <ele>126</ele>
        <time>2016-09-14T14:05:12.008Z</time>
      </trkpt>
      <trkpt lat="47.00661" lon="-0.73477">
        <ele>126</ele>
        <time>2016-09-14T14:05:15.008Z</time>
      </trkpt>
      <trkpt lat="47.00661" lon="-0.7347">
        <ele>126</ele>
        <time>2016-09-14T14:05:19.008Z</time>
      </trkpt>
      <trkpt lat="47.00661" lon="-0.73465">
        <ele>127</ele>
        <time>2016-09-14T14:05:22.008Z</time>
      </trkpt>
      <trkpt lat="47.00661" lon="-0.73458">
        <ele>127</ele>
        <time>2016-09-14T14:05:26.008Z</time>
      </trkpt>
      <trkpt lat="47.0066" lon="-0.73453">
        <ele>127</ele>
        <time>2016-09-14T14:05:31.008Z</time>
      </trkpt>
      <trkpt lat="47.00659" lon="-0.73447">
        <ele>127</ele>
        <time>2016-09-14T14:05:35.008Z</time>
      </trkpt>
      <trkpt lat="47.00658" lon="-0.7344">
        <ele>127</ele>
        <time>2016-09-14T14:05:39.008Z</time>
      </trkpt>
      <trkpt lat="47.00656" lon="-0.73435">
        <ele>126.53737846504</ele>
        <time>2016-09-14T14:05:42.008Z</time>
      </trkpt>
      <trkpt lat="47.00655" lon="-0.7343">
        <ele>126</ele>
        <time>2016-09-14T14:05:46.008Z</time>
      </trkpt>
      <trkpt lat="47.00653" lon="-0.73423">
        <ele>126</ele>
        <time>2016-09-14T14:05:50.008Z</time>
      </trkpt>
      <trkpt lat="47.00653" lon="-0.73417">
        <ele>128</ele>
        <time>2016-09-14T14:05:54.008Z</time>
      </trkpt>
      <trkpt lat="47.00652" lon="-0.7341">
        <ele>128</ele>
        <time>2016-09-14T14:05:58.008Z</time>
      </trkpt>
      <trkpt lat="47.00652" lon="-0.73405">
        <ele>128</ele>
        <time>2016-09-14T14:06:02.008Z</time>
      </trkpt>
      <trkpt lat="47.00652" lon="-0.73399">
        <ele>128</ele>
        <time>2016-09-14T14:06:06.008Z</time>
      </trkpt>
      <trkpt lat="47.00651" lon="-0.73393">
        <ele>128</ele>
        <time>2016-09-14T14:06:09.008Z</time>
      </trkpt>
      <trkpt lat="47.00651" lon="-0.73387">
        <ele>129</ele>
        <time>2016-09-14T14:06:13.008Z</time>
      </trkpt>
      <trkpt lat="47.0065" lon="-0.73382">
        <ele>129</ele>
        <time>2016-09-14T14:06:16.008Z</time>
      </trkpt>
      <trkpt lat="47.00649" lon="-0.73375">
        <ele>129</ele>
        <time>2016-09-14T14:06:20.008Z</time>
      </trkpt>
      <trkpt lat="47.00649" lon="-0.7337">
        <ele>129</ele>
        <time>2016-09-14T14:06:23.008Z</time>
      </trkpt>
      <trkpt lat="47.00648" lon="-0.73364">
        <ele>129</ele>
        <time>2016-09-14T14:06:27.008Z</time>
      </trkpt>
      <trkpt lat="47.00648" lon="-0.73358">
        <ele>129.4679995904</ele>
        <time>2016-09-14T14:06:31.008Z</time>
      </trkpt>
      <trkpt lat="47.00647" lon="-0.73351">
        <ele>130</ele>
        <time>2016-09-14T14:06:35.008Z</time>
      </trkpt>
      <trkpt lat="47.00646" lon="-0.73344">
        <ele>130</ele>
        <time>2016-09-14T14:06:39.008Z</time>
      </trkpt>
      <trkpt lat="47.00646" lon="-0.73337">
        <ele>131</ele>
        <time>2016-09-14T14:06:43.008Z</time>
      </trkpt>
      <trkpt lat="47.00646" lon="-0.73332">
        <ele>131</ele>
        <time>2016-09-14T14:06:46.008Z</time>
      </trkpt>
      <trkpt lat="47.00645" lon="-0.73325">
        <ele>131</ele>
        <time>2016-09-14T14:06:50.008Z</time>
      </trkpt>
      <trkpt lat="47.00645" lon="-0.73319">
        <ele>132</ele>
        <time>2016-09-14T14:06:53.008Z</time>
      </trkpt>
      <trkpt lat="47.00644" lon="-0.73312">
        <ele>132</ele>
        <time>2016-09-14T14:06:57.008Z</time>
      </trkpt>
      <trkpt lat="47.00643" lon="-0.73305">
        <ele>132</ele>
        <time>2016-09-14T14:07:01.008Z</time>
      </trkpt>
      <trkpt lat="47.00642" lon="-0.733">
        <ele>132</ele>
        <time>2016-09-14T14:07:04.008Z</time>
      </trkpt>
      <trkpt lat="47.00641" lon="-0.73294">
        <ele>132</ele>
        <time>2016-09-14T14:07:08.008Z</time>
      </trkpt>
      <trkpt lat="47.0064" lon="-0.73287">
        <ele>133</ele>
        <time>2016-09-14T14:07:12.008Z</time>
      </trkpt>
      <trkpt lat="47.0064" lon="-0.73281">
        <ele>133</ele>
        <time>2016-09-14T14:07:16.008Z</time>
      </trkpt>
      <trkpt lat="47.00639" lon="-0.73275">
        <ele>133</ele>
        <time>2016-09-14T14:07:19.008Z</time>
      </trkpt>
      <trkpt lat="47.00639" lon="-0.73269">
        <ele>133</ele>
        <time>2016-09-14T14:07:24.008Z</time>
      </trkpt>
      <trkpt lat="47.00639" lon="-0.73264">
        <ele>133</ele>
        <time>2016-09-14T14:07:27.008Z</time>
      </trkpt>
      <trkpt lat="47.00639" lon="-0.73258">
        <ele>133</ele>
        <time>2016-09-14T14:07:30.008Z</time>
      </trkpt>
      <trkpt lat="47.00638" lon="-0.73253">
        <ele>135</ele>
        <time>2016-09-14T14:07:33.008Z</time>
      </trkpt>
      <trkpt lat="47.00638" lon="-0.73247">
        <ele>135</ele>
        <time>2016-09-14T14:07:37.008Z</time>
      </trkpt>
      <trkpt lat="47.00637" lon="-0.7324">
        <ele>135</ele>
        <time>2016-09-14T14:07:41.008Z</time>
      </trkpt>
      <trkpt lat="47.00637" lon="-0.73234">
        <ele>135</ele>
        <time>2016-09-14T14:07:45.008Z</time>
      </trkpt>
      <trkpt lat="47.00637" lon="-0.73229">
        <ele>135</ele>
        <time>2016-09-14T14:07:49.008Z</time>
      </trkpt>
      <trkpt lat="47.00636" lon="-0.73223">
        <ele>136</ele>
        <time>2016-09-14T14:07:53.008Z</time>
      </trkpt>
      <trkpt lat="47.00636" lon="-0.73216">
        <ele>136</ele>
        <time>2016-09-14T14:07:57.008Z</time>
      </trkpt>
      <trkpt lat="47.00635" lon="-0.73209">
        <ele>136.42935318709</ele>
        <time>2016-09-14T14:08:01.008Z</time>
      </trkpt>
      <trkpt lat="47.00635" lon="-0.73203">
        <ele>137</ele>
        <time>2016-09-14T14:08:05.008Z</time>
      </trkpt>
      <trkpt lat="47.00635" lon="-0.73197">
        <ele>137</ele>
        <time>2016-09-14T14:08:09.008Z</time>
      </trkpt>
      <trkpt lat="47.00635" lon="-0.73191">
        <ele>137</ele>
        <time>2016-09-14T14:08:12.008Z</time>
      </trkpt>
      <trkpt lat="47.00634" lon="-0.73185">
        <ele>137</ele>
        <time>2016-09-14T14:08:16.008Z</time>
      </trkpt>
      <trkpt lat="47.00634" lon="-0.73179">
        <ele>137</ele>
        <time>2016-09-14T14:08:20.008Z</time>
      </trkpt>
      <trkpt lat="47.00634" lon="-0.73173">
        <ele>138</ele>
        <time>2016-09-14T14:08:24.008Z</time>
      </trkpt>
      <trkpt lat="47.00633" lon="-0.73167">
        <ele>138</ele>
        <time>2016-09-14T14:08:29.008Z</time>
      </trkpt>
      <trkpt lat="47.00633" lon="-0.73162">
        <ele>138</ele>
        <time>2016-09-14T14:08:32.008Z</time>
      </trkpt>
      <trkpt lat="47.00633" lon="-0.73155">
        <ele>138</ele>
        <time>2016-09-14T14:08:36.008Z</time>
      </trkpt>
      <trkpt lat="47.00633" lon="-0.7315">
        <ele>138</ele>
        <time>2016-09-14T14:08:40.008Z</time>
      </trkpt>
      <trkpt lat="47.00634" lon="-0.73143">
        <ele>138</ele>
        <time>2016-09-14T14:08:44.008Z</time>
      </trkpt>
      <trkpt lat="47.00633" lon="-0.73138">
        <ele>138</ele>
        <time>2016-09-14T14:08:48.008Z</time>
      </trkpt>
      <trkpt lat="47.00633" lon="-0.73132">
        <ele>138.42174021927</ele>
        <time>2016-09-14T14:08:52.008Z</time>
      </trkpt>
      <trkpt lat="47.00633" lon="-0.73126">
        <ele>139</ele>
        <time>2016-09-14T14:08:56.008Z</time>
      </trkpt>
      <trkpt lat="47.00633" lon="-0.73119">
        <ele>139</ele>
        <time>2016-09-14T14:09:00.008Z</time>
      </trkpt>
      <trkpt lat="47.00634" lon="-0.73114">
        <ele>140</ele>
        <time>2016-09-14T14:09:04.008Z</time>
      </trkpt>
      <trkpt lat="47.00634" lon="-0.73108">
        <ele>140</ele>
        <time>2016-09-14T14:09:08.008Z</time>
      </trkpt>
      <trkpt lat="47.00634" lon="-0.73101">
        <ele>140</ele>
        <time>2016-09-14T14:09:12.008Z</time>
      </trkpt>
      <trkpt lat="47.00634" lon="-0.73094">
        <ele>140</ele>
        <time>2016-09-14T14:09:16.008Z</time>
      </trkpt>
      <trkpt lat="47.00633" lon="-0.73088">
        <ele>140</ele>
        <time>2016-09-14T14:09:20.008Z</time>
      </trkpt>
      <trkpt lat="47.00633" lon="-0.73081">
        <ele>141</ele>
        <time>2016-09-14T14:09:24.008Z</time>
      </trkpt>
      <trkpt lat="47.00633" lon="-0.73074">
        <ele>141</ele>
        <time>2016-09-14T14:09:28.008Z</time>
      </trkpt>
      <trkpt lat="47.00633" lon="-0.73069">
        <ele>143</ele>
        <time>2016-09-14T14:09:32.008Z</time>
      </trkpt>
      <trkpt lat="47.00633" lon="-0.73063">
        <ele>143</ele>
        <time>2016-09-14T14:09:36.008Z</time>
      </trkpt>
      <trkpt lat="47.00633" lon="-0.73057">
        <ele>142</ele>
        <time>2016-09-14T14:09:40.008Z</time>
      </trkpt>
      <trkpt lat="47.00633" lon="-0.73051">
        <ele>142</ele>
        <time>2016-09-14T14:09:44.008Z</time>
      </trkpt>
      <trkpt lat="47.00634" lon="-0.73045">
        <ele>142</ele>
        <time>2016-09-14T14:09:48.008Z</time>
      </trkpt>
      <trkpt lat="47.00634" lon="-0.73039">
        <ele>142</ele>
        <time>2016-09-14T14:09:52.008Z</time>
      </trkpt>
      <trkpt lat="47.00634" lon="-0.73032">
        <ele>142</ele>
        <time>2016-09-14T14:09:56.008Z</time>
      </trkpt>
      <trkpt lat="47.00634" lon="-0.73026">
        <ele>142</ele>
        <time>2016-09-14T14:10:00.008Z</time>
      </trkpt>
      <trkpt lat="47.00635" lon="-0.7302">
        <ele>142</ele>
        <time>2016-09-14T14:10:03.008Z</time>
      </trkpt>
      <trkpt lat="47.00635" lon="-0.73014">
        <ele>142</ele>
        <time>2016-09-14T14:10:06.008Z</time>
      </trkpt>
      <trkpt lat="47.00635" lon="-0.73009">
        <ele>142</ele>
        <time>2016-09-14T14:10:09.008Z</time>
      </trkpt>
      <trkpt lat="47.00635" lon="-0.73003">
        <ele>143</ele>
        <time>2016-09-14T14:10:13.008Z</time>
      </trkpt>
      <trkpt lat="47.00636" lon="-0.72996">
        <ele>143</ele>
        <time>2016-09-14T14:10:17.008Z</time>
      </trkpt>
      <trkpt lat="47.00636" lon="-0.7299">
        <ele>143</ele>
        <time>2016-09-14T14:10:20.008Z</time>
      </trkpt>
      <trkpt lat="47.00636" lon="-0.72984">
        <ele>143</ele>
        <time>2016-09-14T14:10:24.008Z</time>
      </trkpt>
      <trkpt lat="47.00636" lon="-0.72978">
        <ele>143</ele>
        <time>2016-09-14T14:10:27.008Z</time>
      </trkpt>
      <trkpt lat="47.00636" lon="-0.72972">
        <ele>143</ele>
        <time>2016-09-14T14:10:30.008Z</time>
      </trkpt>
      <trkpt lat="47.00637" lon="-0.72967">
        <ele>144</ele>
        <time>2016-09-14T14:10:33.008Z</time>
      </trkpt>
      <trkpt lat="47.00638" lon="-0.72961">
        <ele>144</ele>
        <time>2016-09-14T14:10:36.008Z</time>
      </trkpt>
      <trkpt lat="47.00638" lon="-0.72955">
        <ele>144</ele>
        <time>2016-09-14T14:10:40.008Z</time>
      </trkpt>
      <trkpt lat="47.00639" lon="-0.72948">
        <ele>144</ele>
        <time>2016-09-14T14:10:44.008Z</time>
      </trkpt>
      <trkpt lat="47.0064" lon="-0.72942">
        <ele>144</ele>
        <time>2016-09-14T14:10:48.008Z</time>
      </trkpt>
      <trkpt lat="47.0064" lon="-0.72935">
        <ele>145</ele>
        <time>2016-09-14T14:10:55.008Z</time>
      </trkpt>
      <trkpt lat="47.0064" lon="-0.72928">
        <ele>145</ele>
        <time>2016-09-14T14:10:58.008Z</time>
      </trkpt>
      <trkpt lat="47.00641" lon="-0.72922">
        <ele>145</ele>
        <time>2016-09-14T14:11:01.008Z</time>
      </trkpt>
      <trkpt lat="47.00641" lon="-0.72916">
        <ele>145</ele>
        <time>2016-09-14T14:11:04.008Z</time>
      </trkpt>
      <trkpt lat="47.00642" lon="-0.7291">
        <ele>145</ele>
        <time>2016-09-14T14:11:08.008Z</time>
      </trkpt>
      <trkpt lat="47.00643" lon="-0.72903">
        <ele>145</ele>
        <time>2016-09-14T14:11:12.008Z</time>
      </trkpt>
      <trkpt lat="47.00643" lon="-0.72896">
        <ele>145</ele>
        <time>2016-09-14T14:11:16.008Z</time>
      </trkpt>
      <trkpt lat="47.00644" lon="-0.7289">
        <ele>145</ele>
        <time>2016-09-14T14:11:20.008Z</time>
      </trkpt>
      <trkpt lat="47.00645" lon="-0.72883">
        <ele>146</ele>
        <time>2016-09-14T14:11:24.008Z</time>
      </trkpt>
      <trkpt lat="47.00646" lon="-0.72877">
        <ele>146</ele>
        <time>2016-09-14T14:11:28.008Z</time>
      </trkpt>
      <trkpt lat="47.00646" lon="-0.72871">
        <ele>146</ele>
        <time>2016-09-14T14:11:31.008Z</time>
      </trkpt>
      <trkpt lat="47.00647" lon="-0.72865">
        <ele>146</ele>
        <time>2016-09-14T14:11:35.008Z</time>
      </trkpt>
      <trkpt lat="47.00648" lon="-0.72858">
        <ele>146</ele>
        <time>2016-09-14T14:11:39.008Z</time>
      </trkpt>
      <trkpt lat="47.00648" lon="-0.72852">
        <ele>146</ele>
        <time>2016-09-14T14:11:43.008Z</time>
      </trkpt>
      <trkpt lat="47.00649" lon="-0.72847">
        <ele>146</ele>
        <time>2016-09-14T14:11:46.008Z</time>
      </trkpt>
      <trkpt lat="47.00649" lon="-0.72842">
        <ele>146</ele>
        <time>2016-09-14T14:11:49.008Z</time>
      </trkpt>
      <trkpt lat="47.0065" lon="-0.72836">
        <ele>146</ele>
        <time>2016-09-14T14:11:52.008Z</time>
      </trkpt>
      <trkpt lat="47.0065" lon="-0.7283">
        <ele>146</ele>
        <time>2016-09-14T14:11:55.008Z</time>
      </trkpt>
      <trkpt lat="47.00651" lon="-0.72824">
        <ele>146</ele>
        <time>2016-09-14T14:11:59.008Z</time>
      </trkpt>
      <trkpt lat="47.00652" lon="-0.72818">
        <ele>145</ele>
        <time>2016-09-14T14:12:03.008Z</time>
      </trkpt>
      <trkpt lat="47.00652" lon="-0.72811">
        <ele>145</ele>
        <time>2016-09-14T14:12:07.008Z</time>
      </trkpt>
      <trkpt lat="47.00654" lon="-0.72805">
        <ele>145</ele>
        <time>2016-09-14T14:12:11.008Z</time>
      </trkpt>
      <trkpt lat="47.00655" lon="-0.72799">
        <ele>146</ele>
        <time>2016-09-14T14:12:15.008Z</time>
      </trkpt>
      <trkpt lat="47.00656" lon="-0.72793">
        <ele>146</ele>
        <time>2016-09-14T14:12:19.008Z</time>
      </trkpt>
      <trkpt lat="47.00658" lon="-0.72788">
        <ele>146</ele>
        <time>2016-09-14T14:12:23.008Z</time>
      </trkpt>
      <trkpt lat="47.00659" lon="-0.72782">
        <ele>146</ele>
        <time>2016-09-14T14:12:27.008Z</time>
      </trkpt>
      <trkpt lat="47.00661" lon="-0.72777">
        <ele>146</ele>
        <time>2016-09-14T14:12:31.008Z</time>
      </trkpt>
      <trkpt lat="47.00665" lon="-0.72776">
        <ele>147</ele>
        <time>2016-09-14T14:12:36.008Z</time>
      </trkpt>
      <trkpt lat="47.00669" lon="-0.72777">
        <ele>147</ele>
        <time>2016-09-14T14:12:40.008Z</time>
      </trkpt>
      <trkpt lat="47.00673" lon="-0.72777">
        <ele>147</ele>
        <time>2016-09-14T14:12:43.008Z</time>
      </trkpt>
      <trkpt lat="47.00677" lon="-0.72778">
        <ele>147</ele>
        <time>2016-09-14T14:12:46.008Z</time>
      </trkpt>
      <trkpt lat="47.00681" lon="-0.7278">
        <ele>147</ele>
        <time>2016-09-14T14:12:50.008Z</time>
      </trkpt>
      <trkpt lat="47.00685" lon="-0.7278">
        <ele>148</ele>
        <time>2016-09-14T14:12:53.008Z</time>
      </trkpt>
      <trkpt lat="47.00689" lon="-0.72781">
        <ele>148</ele>
        <time>2016-09-14T14:12:57.008Z</time>
      </trkpt>
      <trkpt lat="47.00694" lon="-0.72781">
        <ele>148</ele>
        <time>2016-09-14T14:13:01.008Z</time>
      </trkpt>
      <trkpt lat="47.00698" lon="-0.72782">
        <ele>148</ele>
        <time>2016-09-14T14:13:05.008Z</time>
      </trkpt>
      <trkpt lat="47.00702" lon="-0.72783">
        <ele>148</ele>
        <time>2016-09-14T14:13:08.008Z</time>
      </trkpt>
      <trkpt lat="47.00707" lon="-0.72783">
        <ele>148</ele>
        <time>2016-09-14T14:13:12.008Z</time>
      </trkpt>
      <trkpt lat="47.00711" lon="-0.72784">
        <ele>148</ele>
        <time>2016-09-14T14:13:16.008Z</time>
      </trkpt>
      <trkpt lat="47.00715" lon="-0.72785">
        <ele>148</ele>
        <time>2016-09-14T14:13:20.008Z</time>
      </trkpt>
      <trkpt lat="47.00719" lon="-0.72787">
        <ele>148</ele>
        <time>2016-09-14T14:13:24.008Z</time>
      </trkpt>
      <trkpt lat="47.00724" lon="-0.72788">
        <ele>148</ele>
        <time>2016-09-14T14:13:27.008Z</time>
      </trkpt>
      <trkpt lat="47.00728" lon="-0.72789">
        <ele>148</ele>
        <time>2016-09-14T14:13:30.008Z</time>
      </trkpt>
      <trkpt lat="47.00731" lon="-0.72791">
        <ele>147</ele>
        <time>2016-09-14T14:13:34.008Z</time>
      </trkpt>
      <trkpt lat="47.00735" lon="-0.72792">
        <ele>147</ele>
        <time>2016-09-14T14:13:38.008Z</time>
      </trkpt>
      <trkpt lat="47.0074" lon="-0.72793">
        <ele>147</ele>
        <time>2016-09-14T14:13:42.008Z</time>
      </trkpt>
      <trkpt lat="47.00744" lon="-0.72795">
        <ele>147</ele>
        <time>2016-09-14T14:13:46.008Z</time>
      </trkpt>
      <trkpt lat="47.00748" lon="-0.72796">
        <ele>147</ele>
        <time>2016-09-14T14:13:49.008Z</time>
      </trkpt>
      <trkpt lat="47.00752" lon="-0.72798">
        <ele>146</ele>
        <time>2016-09-14T14:13:52.008Z</time>
      </trkpt>
      <trkpt lat="47.00756" lon="-0.728">
        <ele>146</ele>
        <time>2016-09-14T14:13:56.008Z</time>
      </trkpt>
      <trkpt lat="47.0076" lon="-0.72801">
        <ele>146</ele>
        <time>2016-09-14T14:14:00.008Z</time>
      </trkpt>
      <trkpt lat="47.00764" lon="-0.72802">
        <ele>144</ele>
        <time>2016-09-14T14:14:03.008Z</time>
      </trkpt>
      <trkpt lat="47.00768" lon="-0.72802">
        <ele>144</ele>
        <time>2016-09-14T14:14:07.008Z</time>
      </trkpt>
      <trkpt lat="47.00772" lon="-0.72804">
        <ele>143.55429045117</ele>
        <time>2016-09-14T14:14:11.008Z</time>
      </trkpt>
      <trkpt lat="47.00776" lon="-0.72806">
        <ele>143</ele>
        <time>2016-09-14T14:14:15.008Z</time>
      </trkpt>
      <trkpt lat="47.0078" lon="-0.72807">
        <ele>143</ele>
        <time>2016-09-14T14:14:18.008Z</time>
      </trkpt>
      <trkpt lat="47.00784" lon="-0.72808">
        <ele>142</ele>
        <time>2016-09-14T14:14:22.008Z</time>
      </trkpt>
      <trkpt lat="47.00788" lon="-0.72809">
        <ele>142</ele>
        <time>2016-09-14T14:14:25.008Z</time>
      </trkpt>
      <trkpt lat="47.00791" lon="-0.72811">
        <ele>142</ele>
        <time>2016-09-14T14:14:28.008Z</time>
      </trkpt>
      <trkpt lat="47.00795" lon="-0.7281">
        <ele>142</ele>
        <time>2016-09-14T14:14:31.008Z</time>
      </trkpt>
      <trkpt lat="47.00799" lon="-0.72811">
        <ele>142</ele>
        <time>2016-09-14T14:14:35.008Z</time>
      </trkpt>
      <trkpt lat="47.00803" lon="-0.72813">
        <ele>142</ele>
        <time>2016-09-14T14:14:38.008Z</time>
      </trkpt>
      <trkpt lat="47.00807" lon="-0.72814">
        <ele>142</ele>
        <time>2016-09-14T14:14:42.008Z</time>
      </trkpt>
      <trkpt lat="47.00812" lon="-0.72815">
        <ele>142</ele>
        <time>2016-09-14T14:14:46.008Z</time>
      </trkpt>
      <trkpt lat="47.00816" lon="-0.72816">
        <ele>142</ele>
        <time>2016-09-14T14:14:50.008Z</time>
      </trkpt>
      <trkpt lat="47.0082" lon="-0.72818">
        <ele>141</ele>
        <time>2016-09-14T14:14:54.008Z</time>
      </trkpt>
      <trkpt lat="47.00824" lon="-0.7282">
        <ele>141</ele>
        <time>2016-09-14T14:14:58.008Z</time>
      </trkpt>
      <trkpt lat="47.00828" lon="-0.72821">
        <ele>141</ele>
        <time>2016-09-14T14:15:01.008Z</time>
      </trkpt>
      <trkpt lat="47.00832" lon="-0.72822">
        <ele>139</ele>
        <time>2016-09-14T14:15:05.008Z</time>
      </trkpt>
      <trkpt lat="47.00836" lon="-0.72824">
        <ele>139</ele>
        <time>2016-09-14T14:15:09.008Z</time>
      </trkpt>
      <trkpt lat="47.00841" lon="-0.72824">
        <ele>138</ele>
        <time>2016-09-14T14:15:13.008Z</time>
      </trkpt>
      <trkpt lat="47.00845" lon="-0.72824">
        <ele>138</ele>
        <time>2016-09-14T14:15:16.008Z</time>
      </trkpt>
      <trkpt lat="47.00849" lon="-0.72824">
        <ele>138</ele>
        <time>2016-09-14T14:15:19.008Z</time>
      </trkpt>
      <trkpt lat="47.00854" lon="-0.72825">
        <ele>137</ele>
        <time>2016-09-14T14:15:23.008Z</time>
      </trkpt>
      <trkpt lat="47.00858" lon="-0.72823">
        <ele>137</ele>
        <time>2016-09-14T14:15:26.008Z</time>
      </trkpt>
      <trkpt lat="47.00861" lon="-0.72823">
        <ele>137</ele>
        <time>2016-09-14T14:15:30.008Z</time>
      </trkpt>
      <trkpt lat="47.00866" lon="-0.72824">
        <ele>136</ele>
        <time>2016-09-14T14:15:34.008Z</time>
      </trkpt>
      <trkpt lat="47.0087" lon="-0.72825">
        <ele>136</ele>
        <time>2016-09-14T14:15:38.008Z</time>
      </trkpt>
      <trkpt lat="47.00875" lon="-0.72826">
        <ele>135.71163005299</ele>
        <time>2016-09-14T14:15:42.008Z</time>
      </trkpt>
      <trkpt lat="47.00879" lon="-0.72826">
        <ele>135</ele>
        <time>2016-09-14T14:15:45.008Z</time>
      </trkpt>
      <trkpt lat="47.00883" lon="-0.72825">
        <ele>135</ele>
        <time>2016-09-14T14:15:48.008Z</time>
      </trkpt>
      <trkpt lat="47.00888" lon="-0.72825">
        <ele>134</ele>
        <time>2016-09-14T14:15:53.008Z</time>
      </trkpt>
      <trkpt lat="47.00892" lon="-0.72825">
        <ele>134</ele>
        <time>2016-09-14T14:15:56.008Z</time>
      </trkpt>
      <trkpt lat="47.00896" lon="-0.72824">
        <ele>134</ele>
        <time>2016-09-14T14:16:00.008Z</time>
      </trkpt>
      <trkpt lat="47.009" lon="-0.72824">
        <ele>133</ele>
        <time>2016-09-14T14:16:04.008Z</time>
      </trkpt>
      <trkpt lat="47.00904" lon="-0.72825">
        <ele>133</ele>
        <time>2016-09-14T14:16:07.008Z</time>
      </trkpt>
      <trkpt lat="47.00908" lon="-0.72826">
        <ele>133</ele>
        <time>2016-09-14T14:16:11.008Z</time>
      </trkpt>
      <trkpt lat="47.00912" lon="-0.72826">
        <ele>133</ele>
        <time>2016-09-14T14:16:15.008Z</time>
      </trkpt>
      <trkpt lat="47.00916" lon="-0.72826">
        <ele>133</ele>
        <time>2016-09-14T14:16:19.008Z</time>
      </trkpt>
      <trkpt lat="47.00921" lon="-0.72825">
        <ele>132</ele>
        <time>2016-09-14T14:16:23.008Z</time>
      </trkpt>
      <trkpt lat="47.00925" lon="-0.72823">
        <ele>132</ele>
        <time>2016-09-14T14:16:26.008Z</time>
      </trkpt>
      <trkpt lat="47.00929" lon="-0.72824">
        <ele>131.5320004096</ele>
        <time>2016-09-14T14:16:31.008Z</time>
      </trkpt>
      <trkpt lat="47.00933" lon="-0.72822">
        <ele>131</ele>
        <time>2016-09-14T14:16:34.008Z</time>
      </trkpt>
      <trkpt lat="47.00937" lon="-0.72821">
        <ele>131</ele>
        <time>2016-09-14T14:16:37.008Z</time>
      </trkpt>
      <trkpt lat="47.0094" lon="-0.7282">
        <ele>131</ele>
        <time>2016-09-14T14:16:40.008Z</time>
      </trkpt>
      <trkpt lat="47.00945" lon="-0.7282">
        <ele>131</ele>
        <time>2016-09-14T14:16:44.008Z</time>
      </trkpt>
      <trkpt lat="47.00949" lon="-0.7282">
        <ele>131</ele>
        <time>2016-09-14T14:16:48.008Z</time>
      </trkpt>
      <trkpt lat="47.00954" lon="-0.72819">
        <ele>130</ele>
        <time>2016-09-14T14:16:52.008Z</time>
      </trkpt>
      <trkpt lat="47.00958" lon="-0.72819">
        <ele>130</ele>
        <time>2016-09-14T14:16:56.008Z</time>
      </trkpt>
      <trkpt lat="47.00963" lon="-0.72818">
        <ele>130</ele>
        <time>2016-09-14T14:17:00.008Z</time>
      </trkpt>
      <trkpt lat="47.00967" lon="-0.72817">
        <ele>129</ele>
        <time>2016-09-14T14:17:04.008Z</time>
      </trkpt>
      <trkpt lat="47.00971" lon="-0.72817">
        <ele>129</ele>
        <time>2016-09-14T14:17:08.008Z</time>
      </trkpt>
      <trkpt lat="47.00975" lon="-0.72817">
        <ele>129</ele>
        <time>2016-09-14T14:17:12.008Z</time>
      </trkpt>
      <trkpt lat="47.00979" lon="-0.72816">
        <ele>129</ele>
        <time>2016-09-14T14:17:16.008Z</time>
      </trkpt>
      <trkpt lat="47.00983" lon="-0.72816">
        <ele>129</ele>
        <time>2016-09-14T14:17:19.008Z</time>
      </trkpt>
      <trkpt lat="47.00987" lon="-0.72816">
        <ele>129</ele>
        <time>2016-09-14T14:17:22.008Z</time>
      </trkpt>
      <trkpt lat="47.00991" lon="-0.72816">
        <ele>129</ele>
        <time>2016-09-14T14:17:26.008Z</time>
      </trkpt>
      <trkpt lat="47.00996" lon="-0.72816">
        <ele>129</ele>
        <time>2016-09-14T14:17:30.008Z</time>
      </trkpt>
      <trkpt lat="47.01" lon="-0.72817">
        <ele>129</ele>
        <time>2016-09-14T14:17:34.008Z</time>
      </trkpt>
      <trkpt lat="47.01004" lon="-0.72817">
        <ele>129</ele>
        <time>2016-09-14T14:17:38.008Z</time>
      </trkpt>
      <trkpt lat="47.01009" lon="-0.72817">
        <ele>129</ele>
        <time>2016-09-14T14:17:42.008Z</time>
      </trkpt>
      <trkpt lat="47.01013" lon="-0.72818">
        <ele>129</ele>
        <time>2016-09-14T14:17:46.008Z</time>
      </trkpt>
      <trkpt lat="47.01017" lon="-0.72819">
        <ele>129</ele>
        <time>2016-09-14T14:17:50.008Z</time>
      </trkpt>
      <trkpt lat="47.01021" lon="-0.7282">
        <ele>129</ele>
        <time>2016-09-14T14:17:54.008Z</time>
      </trkpt>
      <trkpt lat="47.01026" lon="-0.7282">
        <ele>129</ele>
        <time>2016-09-14T14:17:58.008Z</time>
      </trkpt>
      <trkpt lat="47.0103" lon="-0.72821">
        <ele>129</ele>
        <time>2016-09-14T14:18:01.008Z</time>
      </trkpt>
      <trkpt lat="47.01034" lon="-0.72821">
        <ele>129</ele>
        <time>2016-09-14T14:18:04.008Z</time>
      </trkpt>
      <trkpt lat="47.01039" lon="-0.72822">
        <ele>129</ele>
        <time>2016-09-14T14:18:08.008Z</time>
      </trkpt>
      <trkpt lat="47.01043" lon="-0.72823">
        <ele>129</ele>
        <time>2016-09-14T14:18:12.008Z</time>
      </trkpt>
      <trkpt lat="47.01048" lon="-0.72823">
        <ele>129</ele>
        <time>2016-09-14T14:18:16.008Z</time>
      </trkpt>
      <trkpt lat="47.01051" lon="-0.72823">
        <ele>129</ele>
        <time>2016-09-14T14:18:19.008Z</time>
      </trkpt>
      <trkpt lat="47.01055" lon="-0.72825">
        <ele>129</ele>
        <time>2016-09-14T14:18:22.008Z</time>
      </trkpt>
      <trkpt lat="47.01059" lon="-0.72825">
        <ele>129</ele>
        <time>2016-09-14T14:18:25.008Z</time>
      </trkpt>
      <trkpt lat="47.01063" lon="-0.72826">
        <ele>129</ele>
        <time>2016-09-14T14:18:29.008Z</time>
      </trkpt>
      <trkpt lat="47.01067" lon="-0.72827">
        <ele>129</ele>
        <time>2016-09-14T14:18:32.008Z</time>
      </trkpt>
      <trkpt lat="47.01071" lon="-0.72827">
        <ele>129</ele>
        <time>2016-09-14T14:18:36.008Z</time>
      </trkpt>
      <trkpt lat="47.01075" lon="-0.72829">
        <ele>129</ele>
        <time>2016-09-14T14:18:40.008Z</time>
      </trkpt>
      <trkpt lat="47.01079" lon="-0.72831">
        <ele>129</ele>
        <time>2016-09-14T14:18:43.008Z</time>
      </trkpt>
      <trkpt lat="47.01083" lon="-0.72833">
        <ele>129</ele>
        <time>2016-09-14T14:18:46.008Z</time>
      </trkpt>
      <trkpt lat="47.01087" lon="-0.72836">
        <ele>129</ele>
        <time>2016-09-14T14:18:50.008Z</time>
      </trkpt>
      <trkpt lat="47.0109" lon="-0.7284">
        <ele>129</ele>
        <time>2016-09-14T14:18:54.008Z</time>
      </trkpt>
      <trkpt lat="47.01094" lon="-0.72844">
        <ele>129</ele>
        <time>2016-09-14T14:18:58.008Z</time>
      </trkpt>
      <trkpt lat="47.01096" lon="-0.72848">
        <ele>129</ele>
        <time>2016-09-14T14:19:01.008Z</time>
      </trkpt>
      <trkpt lat="47.01099" lon="-0.72853">
        <ele>129</ele>
        <time>2016-09-14T14:19:05.008Z</time>
      </trkpt>
      <trkpt lat="47.01103" lon="-0.72858">
        <ele>129</ele>
        <time>2016-09-14T14:19:09.008Z</time>
      </trkpt>
      <trkpt lat="47.01106" lon="-0.72862">
        <ele>129</ele>
        <time>2016-09-14T14:19:12.008Z</time>
      </trkpt>
      <trkpt lat="47.01109" lon="-0.72866">
        <ele>129</ele>
        <time>2016-09-14T14:19:16.008Z</time>
      </trkpt>
      <trkpt lat="47.01112" lon="-0.7287">
        <ele>129</ele>
        <time>2016-09-14T14:19:20.008Z</time>
      </trkpt>
      <trkpt lat="47.01115" lon="-0.72877">
        <ele>131</ele>
        <time>2016-09-14T14:19:24.008Z</time>
      </trkpt>
      <trkpt lat="47.01117" lon="-0.72881">
        <ele>131</ele>
        <time>2016-09-14T14:19:27.008Z</time>
      </trkpt>
      <trkpt lat="47.01118" lon="-0.72887">
        <ele>131</ele>
        <time>2016-09-14T14:19:31.008Z</time>
      </trkpt>
      <trkpt lat="47.0112" lon="-0.72892">
        <ele>131</ele>
        <time>2016-09-14T14:19:34.008Z</time>
      </trkpt>
      <trkpt lat="47.01121" lon="-0.72897">
        <ele>131</ele>
        <time>2016-09-14T14:19:38.008Z</time>
      </trkpt>
      <trkpt lat="47.01123" lon="-0.72904">
        <ele>130</ele>
        <time>2016-09-14T14:19:42.008Z</time>
      </trkpt>
      <trkpt lat="47.01124" lon="-0.7291">
        <ele>130</ele>
        <time>2016-09-14T14:19:46.008Z</time>
      </trkpt>
      <trkpt lat="47.01126" lon="-0.72915">
        <ele>130</ele>
        <time>2016-09-14T14:19:49.008Z</time>
      </trkpt>
      <trkpt lat="47.01127" lon="-0.7292">
        <ele>132</ele>
        <time>2016-09-14T14:19:52.008Z</time>
      </trkpt>
      <trkpt lat="47.01129" lon="-0.72925">
        <ele>132</ele>
        <time>2016-09-14T14:19:55.008Z</time>
      </trkpt>
      <trkpt lat="47.0113" lon="-0.7293">
        <ele>132</ele>
        <time>2016-09-14T14:19:58.008Z</time>
      </trkpt>
      <trkpt lat="47.01131" lon="-0.72935">
        <ele>132</ele>
        <time>2016-09-14T14:20:01.008Z</time>
      </trkpt>
      <trkpt lat="47.01133" lon="-0.72941">
        <ele>132</ele>
        <time>2016-09-14T14:20:04.008Z</time>
      </trkpt>
      <trkpt lat="47.01134" lon="-0.72947">
        <ele>132</ele>
        <time>2016-09-14T14:20:08.008Z</time>
      </trkpt>
      <trkpt lat="47.01136" lon="-0.72952">
        <ele>132</ele>
        <time>2016-09-14T14:20:11.008Z</time>
      </trkpt>
      <trkpt lat="47.01137" lon="-0.72959">
        <ele>132</ele>
        <time>2016-09-14T14:20:15.008Z</time>
      </trkpt>
      <trkpt lat="47.01139" lon="-0.72965">
        <ele>132</ele>
        <time>2016-09-14T14:20:19.008Z</time>
      </trkpt>
      <trkpt lat="47.01141" lon="-0.72971">
        <ele>133</ele>
        <time>2016-09-14T14:20:23.008Z</time>
      </trkpt>
      <trkpt lat="47.01142" lon="-0.72977">
        <ele>133</ele>
        <time>2016-09-14T14:20:26.008Z</time>
      </trkpt>
      <trkpt lat="47.01144" lon="-0.72982">
        <ele>133</ele>
        <time>2016-09-14T14:20:29.008Z</time>
      </trkpt>
      <trkpt lat="47.01145" lon="-0.72988">
        <ele>133</ele>
        <time>2016-09-14T14:20:33.008Z</time>
      </trkpt>
      <trkpt lat="47.01146" lon="-0.72993">
        <ele>133</ele>
        <time>2016-09-14T14:20:36.008Z</time>
      </trkpt>
      <trkpt lat="47.01148" lon="-0.72999">
        <ele>133</ele>
        <time>2016-09-14T14:20:40.008Z</time>
      </trkpt>
      <trkpt lat="47.0115" lon="-0.73005">
        <ele>134</ele>
        <time>2016-09-14T14:20:44.008Z</time>
      </trkpt>
      <trkpt lat="47.01152" lon="-0.7301">
        <ele>134</ele>
        <time>2016-09-14T14:20:48.008Z</time>
      </trkpt>
      <trkpt lat="47.01153" lon="-0.73016">
        <ele>134</ele>
        <time>2016-09-14T14:20:52.008Z</time>
      </trkpt>
      <trkpt lat="47.01154" lon="-0.73022">
        <ele>134</ele>
        <time>2016-09-14T14:20:56.008Z</time>
      </trkpt>
      <trkpt lat="47.01156" lon="-0.73028">
        <ele>134</ele>
        <time>2016-09-14T14:20:59.008Z</time>
      </trkpt>
      <trkpt lat="47.01158" lon="-0.73034">
        <ele>135</ele>
        <time>2016-09-14T14:21:03.008Z</time>
      </trkpt>
      <trkpt lat="47.01159" lon="-0.73039">
        <ele>135</ele>
        <time>2016-09-14T14:21:06.008Z</time>
      </trkpt>
      <trkpt lat="47.01161" lon="-0.73045">
        <ele>135</ele>
        <time>2016-09-14T14:21:10.008Z</time>
      </trkpt>
      <trkpt lat="47.01163" lon="-0.73051">
        <ele>135</ele>
        <time>2016-09-14T14:21:14.008Z</time>
      </trkpt>
      <trkpt lat="47.01165" lon="-0.73057">
        <ele>135</ele>
        <time>2016-09-14T14:21:18.008Z</time>
      </trkpt>
      <trkpt lat="47.01167" lon="-0.73062">
        <ele>135</ele>
        <time>2016-09-14T14:21:21.008Z</time>
      </trkpt>
      <trkpt lat="47.01169" lon="-0.73067">
        <ele>136</ele>
        <time>2016-09-14T14:21:24.008Z</time>
      </trkpt>
      <trkpt lat="47.0117" lon="-0.73073">
        <ele>136</ele>
        <time>2016-09-14T14:21:27.008Z</time>
      </trkpt>
      <trkpt lat="47.01172" lon="-0.73078">
        <ele>136</ele>
        <time>2016-09-14T14:21:30.008Z</time>
      </trkpt>
      <trkpt lat="47.01174" lon="-0.73084">
        <ele>136</ele>
        <time>2016-09-14T14:21:34.008Z</time>
      </trkpt>
      <trkpt lat="47.01175" lon="-0.7309">
        <ele>136</ele>
        <time>2016-09-14T14:21:38.008Z</time>
      </trkpt>
      <trkpt lat="47.01178" lon="-0.73096">
        <ele>136</ele>
        <time>2016-09-14T14:21:42.008Z</time>
      </trkpt>
      <trkpt lat="47.01179" lon="-0.73101">
        <ele>136</ele>
        <time>2016-09-14T14:21:45.008Z</time>
      </trkpt>
      <trkpt lat="47.0118" lon="-0.73107">
        <ele>136</ele>
        <time>2016-09-14T14:21:49.008Z</time>
      </trkpt>
      <trkpt lat="47.01182" lon="-0.73113">
        <ele>137</ele>
        <time>2016-09-14T14:21:53.008Z</time>
      </trkpt>
      <trkpt lat="47.01184" lon="-0.73119">
        <ele>137</ele>
        <time>2016-09-14T14:21:57.008Z</time>
      </trkpt>
      <trkpt lat="47.01186" lon="-0.73124">
        <ele>137</ele>
        <time>2016-09-14T14:22:00.008Z</time>
      </trkpt>
      <trkpt lat="47.01187" lon="-0.73129">
        <ele>138</ele>
        <time>2016-09-14T14:22:04.008Z</time>
      </trkpt>
      <trkpt lat="47.01188" lon="-0.73135">
        <ele>138</ele>
        <time>2016-09-14T14:22:08.008Z</time>
      </trkpt>
      <trkpt lat="47.0119" lon="-0.73141">
        <ele>138</ele>
        <time>2016-09-14T14:22:12.008Z</time>
      </trkpt>
      <trkpt lat="47.01192" lon="-0.73146">
        <ele>138</ele>
        <time>2016-09-14T14:22:15.008Z</time>
      </trkpt>
      <trkpt lat="47.01193" lon="-0.73152">
        <ele>138</ele>
        <time>2016-09-14T14:22:19.008Z</time>
      </trkpt>
      <trkpt lat="47.01195" lon="-0.73158">
        <ele>138</ele>
        <time>2016-09-14T14:22:23.008Z</time>
      </trkpt>
      <trkpt lat="47.01196" lon="-0.73163">
        <ele>138</ele>
        <time>2016-09-14T14:22:27.008Z</time>
      </trkpt>
      <trkpt lat="47.01196" lon="-0.73168">
        <ele>138.83077096198</ele>
        <time>2016-09-14T14:22:31.008Z</time>
      </trkpt>
      <trkpt lat="47.01195" lon="-0.73174">
        <ele>140</ele>
        <time>2016-09-14T14:22:35.008Z</time>
      </trkpt>
      <trkpt lat="47.01194" lon="-0.73179">
        <ele>140</ele>
        <time>2016-09-14T14:22:40.008Z</time>
      </trkpt>
      <trkpt lat="47.01195" lon="-0.73184">
        <ele>141</ele>
        <time>2016-09-14T14:22:44.008Z</time>
      </trkpt>
      <trkpt lat="47.01197" lon="-0.7319">
        <ele>141</ele>
        <time>2016-09-14T14:22:49.008Z</time>
      </trkpt>
      <trkpt lat="47.01201" lon="-0.73193">
        <ele>141</ele>
        <time>2016-09-14T14:22:53.008Z</time>
      </trkpt>
      <trkpt lat="47.01205" lon="-0.73198">
        <ele>141</ele>
        <time>2016-09-14T14:22:59.008Z</time>
      </trkpt>
      <trkpt lat="47.01207" lon="-0.73202">
        <ele>141</ele>
        <time>2016-09-14T14:23:02.008Z</time>
      </trkpt>
      <trkpt lat="47.01209" lon="-0.73208">
        <ele>141</ele>
        <time>2016-09-14T14:23:05.008Z</time>
      </trkpt>
      <trkpt lat="47.0121" lon="-0.73213">
        <ele>141</ele>
        <time>2016-09-14T14:23:09.008Z</time>
      </trkpt>
      <trkpt lat="47.01211" lon="-0.7322">
        <ele>142</ele>
        <time>2016-09-14T14:23:13.008Z</time>
      </trkpt>
      <trkpt lat="47.01211" lon="-0.73225">
        <ele>142</ele>
        <time>2016-09-14T14:23:17.008Z</time>
      </trkpt>
      <trkpt lat="47.0121" lon="-0.7323">
        <ele>142</ele>
        <time>2016-09-14T14:23:20.008Z</time>
      </trkpt>
      <trkpt lat="47.01208" lon="-0.73235">
        <ele>142</ele>
        <time>2016-09-14T14:23:23.008Z</time>
      </trkpt>
      <trkpt lat="47.01207" lon="-0.7324">
        <ele>142</ele>
        <time>2016-09-14T14:23:27.008Z</time>
      </trkpt>
      <trkpt lat="47.01208" lon="-0.73245">
        <ele>142.36666463489</ele>
        <time>2016-09-14T14:23:31.008Z</time>
      </trkpt>
      <trkpt lat="47.01211" lon="-0.7325">
        <ele>143</ele>
        <time>2016-09-14T14:23:35.008Z</time>
      </trkpt>
      <trkpt lat="47.01214" lon="-0.73253">
        <ele>143</ele>
        <time>2016-09-14T14:23:38.008Z</time>
      </trkpt>
      <trkpt lat="47.01218" lon="-0.73253">
        <ele>143</ele>
        <time>2016-09-14T14:23:41.008Z</time>
      </trkpt>
      <trkpt lat="47.01222" lon="-0.73255">
        <ele>143</ele>
        <time>2016-09-14T14:23:48.008Z</time>
      </trkpt>
      <trkpt lat="47.01226" lon="-0.73256">
        <ele>143</ele>
        <time>2016-09-14T14:23:51.008Z</time>
      </trkpt>
      <trkpt lat="47.0123" lon="-0.73259">
        <ele>143</ele>
        <time>2016-09-14T14:23:55.008Z</time>
      </trkpt>
      <trkpt lat="47.01232" lon="-0.73264">
        <ele>143</ele>
        <time>2016-09-14T14:23:59.008Z</time>
      </trkpt>
      <trkpt lat="47.01235" lon="-0.73268">
        <ele>144</ele>
        <time>2016-09-14T14:24:02.008Z</time>
      </trkpt>
      <trkpt lat="47.01236" lon="-0.73273">
        <ele>144</ele>
        <time>2016-09-14T14:24:05.008Z</time>
      </trkpt>
      <trkpt lat="47.01238" lon="-0.73278">
        <ele>144</ele>
        <time>2016-09-14T14:24:08.008Z</time>
      </trkpt>
      <trkpt lat="47.01239" lon="-0.73283">
        <ele>144</ele>
        <time>2016-09-14T14:24:11.008Z</time>
      </trkpt>
      <trkpt lat="47.01239" lon="-0.73289">
        <ele>144</ele>
        <time>2016-09-14T14:25:04.008Z</time>
      </trkpt>
      <trkpt lat="47.01241" lon="-0.73295">
        <ele>144</ele>
        <time>2016-09-14T14:25:10.008Z</time>
      </trkpt>
      <trkpt lat="47.01242" lon="-0.733">
        <ele>144</ele>
        <time>2016-09-14T14:25:16.008Z</time>
      </trkpt>
      <trkpt lat="47.01243" lon="-0.73306">
        <ele>144</ele>
        <time>2016-09-14T14:25:23.008Z</time>
      </trkpt>
      <trkpt lat="47.01246" lon="-0.73311">
        <ele>144</ele>
        <time>2016-09-14T14:25:28.008Z</time>
      </trkpt>
      <trkpt lat="47.01247" lon="-0.73316">
        <ele>144.42935988821</ele>
        <time>2016-09-14T14:25:32.008Z</time>
      </trkpt>
      <trkpt lat="47.01248" lon="-0.73322">
        <ele>145</ele>
        <time>2016-09-14T14:25:36.008Z</time>
      </trkpt>
      <trkpt lat="47.0125" lon="-0.73327">
        <ele>145</ele>
        <time>2016-09-14T14:25:41.008Z</time>
      </trkpt>
      <trkpt lat="47.01252" lon="-0.73333">
        <ele>145</ele>
        <time>2016-09-14T14:25:46.008Z</time>
      </trkpt>
      <trkpt lat="47.01254" lon="-0.73338">
        <ele>145</ele>
        <time>2016-09-14T14:25:51.008Z</time>
      </trkpt>
      <trkpt lat="47.01256" lon="-0.73344">
        <ele>146</ele>
        <time>2016-09-14T14:25:55.008Z</time>
      </trkpt>
      <trkpt lat="47.01258" lon="-0.73349">
        <ele>146</ele>
        <time>2016-09-14T14:25:59.008Z</time>
      </trkpt>
      <trkpt lat="47.0126" lon="-0.73355">
        <ele>147</ele>
        <time>2016-09-14T14:26:03.008Z</time>
      </trkpt>
      <trkpt lat="47.01261" lon="-0.73361">
        <ele>147</ele>
        <time>2016-09-14T14:26:07.008Z</time>
      </trkpt>
      <trkpt lat="47.01263" lon="-0.73366">
        <ele>147.4679995904</ele>
        <time>2016-09-14T14:26:11.008Z</time>
      </trkpt>
      <trkpt lat="47.01265" lon="-0.73371">
        <ele>148</ele>
        <time>2016-09-14T14:26:15.008Z</time>
      </trkpt>
      <trkpt lat="47.01267" lon="-0.73377">
        <ele>148</ele>
        <time>2016-09-14T14:26:19.008Z</time>
      </trkpt>
      <trkpt lat="47.01269" lon="-0.73382">
        <ele>148</ele>
        <time>2016-09-14T14:26:23.008Z</time>
      </trkpt>
      <trkpt lat="47.01271" lon="-0.73387">
        <ele>148</ele>
        <time>2016-09-14T14:26:27.008Z</time>
      </trkpt>
      <trkpt lat="47.01272" lon="-0.73392">
        <ele>148</ele>
        <time>2016-09-14T14:26:30.008Z</time>
      </trkpt>
      <trkpt lat="47.01273" lon="-0.73399">
        <ele>148</ele>
        <time>2016-09-14T14:26:34.008Z</time>
      </trkpt>
      <trkpt lat="47.01273" lon="-0.73406">
        <ele>148</ele>
        <time>2016-09-14T14:26:38.008Z</time>
      </trkpt>
      <trkpt lat="47.01275" lon="-0.73412">
        <ele>149</ele>
        <time>2016-09-14T14:26:42.008Z</time>
      </trkpt>
      <trkpt lat="47.01276" lon="-0.73418">
        <ele>149</ele>
        <time>2016-09-14T14:26:47.008Z</time>
      </trkpt>
      <trkpt lat="47.01278" lon="-0.73422">
        <ele>149</ele>
        <time>2016-09-14T14:26:51.008Z</time>
      </trkpt>
      <trkpt lat="47.01279" lon="-0.73428">
        <ele>149</ele>
        <time>2016-09-14T14:26:55.008Z</time>
      </trkpt>
      <trkpt lat="47.01281" lon="-0.73433">
        <ele>149</ele>
        <time>2016-09-14T14:26:59.008Z</time>
      </trkpt>
      <trkpt lat="47.01282" lon="-0.73439">
        <ele>149</ele>
        <time>2016-09-14T14:27:03.008Z</time>
      </trkpt>
      <trkpt lat="47.01283" lon="-0.73445">
        <ele>149</ele>
        <time>2016-09-14T14:27:07.008Z</time>
      </trkpt>
      <trkpt lat="47.01285" lon="-0.73451">
        <ele>150</ele>
        <time>2016-09-14T14:27:12.008Z</time>
      </trkpt>
      <trkpt lat="47.01287" lon="-0.73456">
        <ele>150</ele>
        <time>2016-09-14T14:27:15.008Z</time>
      </trkpt>
      <trkpt lat="47.01289" lon="-0.73461">
        <ele>150</ele>
        <time>2016-09-14T14:27:18.008Z</time>
      </trkpt>
      <trkpt lat="47.01291" lon="-0.73466">
        <ele>150</ele>
        <time>2016-09-14T14:27:21.008Z</time>
      </trkpt>
      <trkpt lat="47.01292" lon="-0.73472">
        <ele>150</ele>
        <time>2016-09-14T14:27:25.008Z</time>
      </trkpt>
      <trkpt lat="47.01293" lon="-0.73477">
        <ele>150</ele>
        <time>2016-09-14T14:27:28.008Z</time>
      </trkpt>
      <trkpt lat="47.01296" lon="-0.73481">
        <ele>149.80222437137</ele>
        <time>2016-09-14T14:27:31.008Z</time>
      </trkpt>
      <trkpt lat="47.01298" lon="-0.73487">
        <ele>149</ele>
        <time>2016-09-14T14:27:36.008Z</time>
      </trkpt>
      <trkpt lat="47.01299" lon="-0.73492">
        <ele>149</ele>
        <time>2016-09-14T14:27:39.008Z</time>
      </trkpt>
      <trkpt lat="47.01302" lon="-0.73497">
        <ele>150</ele>
        <time>2016-09-14T14:27:43.008Z</time>
      </trkpt>
      <trkpt lat="47.01303" lon="-0.73503">
        <ele>150</ele>
        <time>2016-09-14T14:27:47.008Z</time>
      </trkpt>
      <trkpt lat="47.01305" lon="-0.73509">
        <ele>150</ele>
        <time>2016-09-14T14:27:51.008Z</time>
      </trkpt>
      <trkpt lat="47.01307" lon="-0.73514">
        <ele>151</ele>
        <time>2016-09-14T14:27:54.008Z</time>
      </trkpt>
      <trkpt lat="47.01307" lon="-0.73521">
        <ele>151</ele>
        <time>2016-09-14T14:27:58.008Z</time>
      </trkpt>
      <trkpt lat="47.01308" lon="-0.73526">
        <ele>150.5320004096</ele>
        <time>2016-09-14T14:28:01.008Z</time>
      </trkpt>
      <trkpt lat="47.0131" lon="-0.73532">
        <ele>150</ele>
        <time>2016-09-14T14:28:04.008Z</time>
      </trkpt>
      <trkpt lat="47.01311" lon="-0.73537">
        <ele>150</ele>
        <time>2016-09-14T14:28:07.008Z</time>
      </trkpt>
      <trkpt lat="47.01313" lon="-0.73543">
        <ele>150</ele>
        <time>2016-09-14T14:28:10.008Z</time>
      </trkpt>
      <trkpt lat="47.01313" lon="-0.73549">
        <ele>150</ele>
        <time>2016-09-14T14:28:13.008Z</time>
      </trkpt>
      <trkpt lat="47.01315" lon="-0.73556">
        <ele>150</ele>
        <time>2016-09-14T14:28:16.008Z</time>
      </trkpt>
      <trkpt lat="47.01316" lon="-0.73562">
        <ele>150</ele>
        <time>2016-09-14T14:28:20.008Z</time>
      </trkpt>
      <trkpt lat="47.01318" lon="-0.73569">
        <ele>150</ele>
        <time>2016-09-14T14:28:24.008Z</time>
      </trkpt>
      <trkpt lat="47.01319" lon="-0.73574">
        <ele>150</ele>
        <time>2016-09-14T14:28:27.008Z</time>
      </trkpt>
      <trkpt lat="47.01321" lon="-0.7358">
        <ele>150</ele>
        <time>2016-09-14T14:28:31.008Z</time>
      </trkpt>
      <trkpt lat="47.01322" lon="-0.73585">
        <ele>150</ele>
        <time>2016-09-14T14:28:35.008Z</time>
      </trkpt>
      <trkpt lat="47.01324" lon="-0.73591">
        <ele>150</ele>
        <time>2016-09-14T14:28:39.008Z</time>
      </trkpt>
      <trkpt lat="47.01325" lon="-0.73596">
        <ele>150</ele>
        <time>2016-09-14T14:28:43.008Z</time>
      </trkpt>
      <trkpt lat="47.01327" lon="-0.73603">
        <ele>150</ele>
        <time>2016-09-14T14:28:47.008Z</time>
      </trkpt>
      <trkpt lat="47.01328" lon="-0.73608">
        <ele>150</ele>
        <time>2016-09-14T14:28:50.008Z</time>
      </trkpt>
      <trkpt lat="47.01328" lon="-0.73615">
        <ele>150</ele>
        <time>2016-09-14T14:28:54.008Z</time>
      </trkpt>
      <trkpt lat="47.01329" lon="-0.73622">
        <ele>150</ele>
        <time>2016-09-14T14:28:58.008Z</time>
      </trkpt>
      <trkpt lat="47.0133" lon="-0.73627">
        <ele>150.39546181818</ele>
        <time>2016-09-14T14:29:01.008Z</time>
      </trkpt>
      <trkpt lat="47.01331" lon="-0.73632">
        <ele>151</ele>
        <time>2016-09-14T14:29:04.008Z</time>
      </trkpt>
      <trkpt lat="47.01332" lon="-0.73638">
        <ele>151</ele>
        <time>2016-09-14T14:29:07.008Z</time>
      </trkpt>
      <trkpt lat="47.01332" lon="-0.73643">
        <ele>151</ele>
        <time>2016-09-14T14:29:10.008Z</time>
      </trkpt>
      <trkpt lat="47.01333" lon="-0.73649">
        <ele>151</ele>
        <time>2016-09-14T14:29:14.008Z</time>
      </trkpt>
      <trkpt lat="47.01335" lon="-0.73656">
        <ele>151</ele>
        <time>2016-09-14T14:29:18.008Z</time>
      </trkpt>
      <trkpt lat="47.01336" lon="-0.73662">
        <ele>150</ele>
        <time>2016-09-14T14:29:22.008Z</time>
      </trkpt>
      <trkpt lat="47.01337" lon="-0.73668">
        <ele>150</ele>
        <time>2016-09-14T14:29:26.008Z</time>
      </trkpt>
      <trkpt lat="47.01339" lon="-0.73674">
        <ele>150</ele>
        <time>2016-09-14T14:29:30.008Z</time>
      </trkpt>
      <trkpt lat="47.0134" lon="-0.73681">
        <ele>149</ele>
        <time>2016-09-14T14:29:34.008Z</time>
      </trkpt>
      <trkpt lat="47.01342" lon="-0.73687">
        <ele>149</ele>
        <time>2016-09-14T14:29:38.008Z</time>
      </trkpt>
      <trkpt lat="47.01343" lon="-0.73693">
        <ele>149</ele>
        <time>2016-09-14T14:29:42.008Z</time>
      </trkpt>
      <trkpt lat="47.01343" lon="-0.737">
        <ele>149</ele>
        <time>2016-09-14T14:29:53.008Z</time>
      </trkpt>
      <trkpt lat="47.01344" lon="-0.73705">
        <ele>149</ele>
        <time>2016-09-14T14:29:57.008Z</time>
      </trkpt>
      <trkpt lat="47.01345" lon="-0.73711">
        <ele>149</ele>
        <time>2016-09-14T14:30:01.008Z</time>
      </trkpt>
      <trkpt lat="47.01347" lon="-0.73717">
        <ele>149</ele>
        <time>2016-09-14T14:30:05.008Z</time>
      </trkpt>
      <trkpt lat="47.01348" lon="-0.73722">
        <ele>149</ele>
        <time>2016-09-14T14:30:10.008Z</time>
      </trkpt>
      <trkpt lat="47.01349" lon="-0.73729">
        <ele>149</ele>
        <time>2016-09-14T14:30:14.008Z</time>
      </trkpt>
      <trkpt lat="47.0135" lon="-0.73735">
        <ele>149</ele>
        <time>2016-09-14T14:30:18.008Z</time>
      </trkpt>
      <trkpt lat="47.01351" lon="-0.73743">
        <ele>149</ele>
        <time>2016-09-14T14:30:22.008Z</time>
      </trkpt>
      <trkpt lat="47.01352" lon="-0.73748">
        <ele>149</ele>
        <time>2016-09-14T14:30:25.008Z</time>
      </trkpt>
      <trkpt lat="47.01352" lon="-0.73753">
        <ele>149</ele>
        <time>2016-09-14T14:30:29.008Z</time>
      </trkpt>
      <trkpt lat="47.01353" lon="-0.73759">
        <ele>149</ele>
        <time>2016-09-14T14:30:32.008Z</time>
      </trkpt>
      <trkpt lat="47.01354" lon="-0.73764">
        <ele>149</ele>
        <time>2016-09-14T14:30:35.008Z</time>
      </trkpt>
      <trkpt lat="47.01356" lon="-0.7377">
        <ele>149</ele>
        <time>2016-09-14T14:30:39.008Z</time>
      </trkpt>
      <trkpt lat="47.01357" lon="-0.73776">
        <ele>149</ele>
        <time>2016-09-14T14:30:43.008Z</time>
      </trkpt>
      <trkpt lat="47.01358" lon="-0.73782">
        <ele>149</ele>
        <time>2016-09-14T14:30:46.008Z</time>
      </trkpt>
      <trkpt lat="47.0136" lon="-0.73787">
        <ele>149</ele>
        <time>2016-09-14T14:30:50.008Z</time>
      </trkpt>
      <trkpt lat="47.01361" lon="-0.73793">
        <ele>149</ele>
        <time>2016-09-14T14:30:53.008Z</time>
      </trkpt>
      <trkpt lat="47.01362" lon="-0.73799">
        <ele>149</ele>
        <time>2016-09-14T14:30:57.008Z</time>
      </trkpt>
      <trkpt lat="47.01364" lon="-0.73806">
        <ele>149</ele>
        <time>2016-09-14T14:31:01.008Z</time>
      </trkpt>
      <trkpt lat="47.01365" lon="-0.73812">
        <ele>150</ele>
        <time>2016-09-14T14:31:04.008Z</time>
      </trkpt>
      <trkpt lat="47.01366" lon="-0.73817">
        <ele>150</ele>
        <time>2016-09-14T14:31:07.008Z</time>
      </trkpt>
      <trkpt lat="47.01366" lon="-0.73822">
        <ele>150</ele>
        <time>2016-09-14T14:31:10.008Z</time>
      </trkpt>
      <trkpt lat="47.01367" lon="-0.73827">
        <ele>150</ele>
        <time>2016-09-14T14:31:13.008Z</time>
      </trkpt>
      <trkpt lat="47.01369" lon="-0.73833">
        <ele>150</ele>
        <time>2016-09-14T14:31:17.008Z</time>
      </trkpt>
      <trkpt lat="47.01371" lon="-0.73839">
        <ele>150</ele>
        <time>2016-09-14T14:31:21.008Z</time>
      </trkpt>
      <trkpt lat="47.01372" lon="-0.73844">
        <ele>149</ele>
        <time>2016-09-14T14:31:24.008Z</time>
      </trkpt>
      <trkpt lat="47.01374" lon="-0.73849">
        <ele>149</ele>
        <time>2016-09-14T14:31:27.008Z</time>
      </trkpt>
      <trkpt lat="47.01375" lon="-0.73854">
        <ele>149</ele>
        <time>2016-09-14T14:31:30.008Z</time>
      </trkpt>
      <trkpt lat="47.01377" lon="-0.7386">
        <ele>149</ele>
        <time>2016-09-14T14:31:34.008Z</time>
      </trkpt>
      <trkpt lat="47.01379" lon="-0.73866">
        <ele>149</ele>
        <time>2016-09-14T14:31:38.008Z</time>
      </trkpt>
      <trkpt lat="47.0138" lon="-0.73871">
        <ele>149</ele>
        <time>2016-09-14T14:31:42.008Z</time>
      </trkpt>
      <trkpt lat="47.01381" lon="-0.73877">
        <ele>149</ele>
        <time>2016-09-14T14:31:45.008Z</time>
      </trkpt>
      <trkpt lat="47.01382" lon="-0.73882">
        <ele>149</ele>
        <time>2016-09-14T14:31:48.008Z</time>
      </trkpt>
      <trkpt lat="47.01383" lon="-0.73888">
        <ele>149</ele>
        <time>2016-09-14T14:31:52.008Z</time>
      </trkpt>
      <trkpt lat="47.01385" lon="-0.73894">
        <ele>149</ele>
        <time>2016-09-14T14:31:56.008Z</time>
      </trkpt>
      <trkpt lat="47.01385" lon="-0.73899">
        <ele>149</ele>
        <time>2016-09-14T14:31:59.008Z</time>
      </trkpt>
      <trkpt lat="47.01386" lon="-0.73905">
        <ele>149</ele>
        <time>2016-09-14T14:32:03.008Z</time>
      </trkpt>
      <trkpt lat="47.01387" lon="-0.73912">
        <ele>149</ele>
        <time>2016-09-14T14:32:07.008Z</time>
      </trkpt>
      <trkpt lat="47.01389" lon="-0.73919">
        <ele>149</ele>
        <time>2016-09-14T14:32:11.008Z</time>
      </trkpt>
      <trkpt lat="47.01389" lon="-0.73925">
        <ele>149</ele>
        <time>2016-09-14T14:32:15.008Z</time>
      </trkpt>
      <trkpt lat="47.0139" lon="-0.73931">
        <ele>149</ele>
        <time>2016-09-14T14:32:18.008Z</time>
      </trkpt>
      <trkpt lat="47.0139" lon="-0.73937">
        <ele>149</ele>
        <time>2016-09-14T14:32:21.008Z</time>
      </trkpt>
      <trkpt lat="47.01391" lon="-0.73944">
        <ele>149</ele>
        <time>2016-09-14T14:32:25.008Z</time>
      </trkpt>
      <trkpt lat="47.01393" lon="-0.7395">
        <ele>149</ele>
        <time>2016-09-14T14:32:28.008Z</time>
      </trkpt>
      <trkpt lat="47.01394" lon="-0.73956">
        <ele>149</ele>
        <time>2016-09-14T14:32:31.008Z</time>
      </trkpt>
      <trkpt lat="47.01395" lon="-0.73961">
        <ele>149</ele>
        <time>2016-09-14T14:32:34.008Z</time>
      </trkpt>
      <trkpt lat="47.01396" lon="-0.73967">
        <ele>149</ele>
        <time>2016-09-14T14:32:38.008Z</time>
      </trkpt>
      <trkpt lat="47.01396" lon="-0.73973">
        <ele>149</ele>
        <time>2016-09-14T14:32:41.008Z</time>
      </trkpt>
      <trkpt lat="47.01398" lon="-0.73979">
        <ele>149</ele>
        <time>2016-09-14T14:32:45.008Z</time>
      </trkpt>
      <trkpt lat="47.014" lon="-0.73984">
        <ele>149</ele>
        <time>2016-09-14T14:32:49.008Z</time>
      </trkpt>
      <trkpt lat="47.01401" lon="-0.7399">
        <ele>150</ele>
        <time>2016-09-14T14:32:53.008Z</time>
      </trkpt>
      <trkpt lat="47.01403" lon="-0.73996">
        <ele>150</ele>
        <time>2016-09-14T14:32:56.008Z</time>
      </trkpt>
      <trkpt lat="47.01404" lon="-0.74002">
        <ele>150</ele>
        <time>2016-09-14T14:32:59.008Z</time>
      </trkpt>
      <trkpt lat="47.01405" lon="-0.74007">
        <ele>149</ele>
        <time>2016-09-14T14:33:02.008Z</time>
      </trkpt>
      <trkpt lat="47.01406" lon="-0.74012">
        <ele>149</ele>
        <time>2016-09-14T14:33:05.008Z</time>
      </trkpt>
      <trkpt lat="47.01407" lon="-0.74018">
        <ele>149</ele>
        <time>2016-09-14T14:33:08.008Z</time>
      </trkpt>
      <trkpt lat="47.0141" lon="-0.74024">
        <ele>149</ele>
        <time>2016-09-14T14:33:12.008Z</time>
      </trkpt>
      <trkpt lat="47.01411" lon="-0.7403">
        <ele>149</ele>
        <time>2016-09-14T14:33:16.008Z</time>
      </trkpt>
      <trkpt lat="47.01413" lon="-0.74036">
        <ele>149</ele>
        <time>2016-09-14T14:33:20.008Z</time>
      </trkpt>
      <trkpt lat="47.01415" lon="-0.74043">
        <ele>149</ele>
        <time>2016-09-14T14:33:24.008Z</time>
      </trkpt>
      <trkpt lat="47.01416" lon="-0.74048">
        <ele>149</ele>
        <time>2016-09-14T14:33:27.008Z</time>
      </trkpt>
      <trkpt lat="47.01418" lon="-0.74053">
        <ele>149</ele>
        <time>2016-09-14T14:33:30.008Z</time>
      </trkpt>
      <trkpt lat="47.01419" lon="-0.7406">
        <ele>150</ele>
        <time>2016-09-14T14:33:34.008Z</time>
      </trkpt>
      <trkpt lat="47.0142" lon="-0.74065">
        <ele>150</ele>
        <time>2016-09-14T14:33:37.008Z</time>
      </trkpt>
      <trkpt lat="47.01421" lon="-0.74071">
        <ele>150</ele>
        <time>2016-09-14T14:33:41.008Z</time>
      </trkpt>
      <trkpt lat="47.01422" lon="-0.74077">
        <ele>150</ele>
        <time>2016-09-14T14:33:45.008Z</time>
      </trkpt>
      <trkpt lat="47.01424" lon="-0.74084">
        <ele>150</ele>
        <time>2016-09-14T14:33:49.008Z</time>
      </trkpt>
      <trkpt lat="47.01426" lon="-0.74089">
        <ele>150</ele>
        <time>2016-09-14T14:33:53.008Z</time>
      </trkpt>
      <trkpt lat="47.01427" lon="-0.74095">
        <ele>150</ele>
        <time>2016-09-14T14:33:57.008Z</time>
      </trkpt>
      <trkpt lat="47.01429" lon="-0.74102">
        <ele>150.4679995904</ele>
        <time>2016-09-14T14:34:01.008Z</time>
      </trkpt>
      <trkpt lat="47.01431" lon="-0.74107">
        <ele>151</ele>
        <time>2016-09-14T14:34:05.008Z</time>
      </trkpt>
      <trkpt lat="47.01433" lon="-0.74113">
        <ele>151</ele>
        <time>2016-09-14T14:34:09.008Z</time>
      </trkpt>
      <trkpt lat="47.01435" lon="-0.74119">
        <ele>151</ele>
        <time>2016-09-14T14:34:13.008Z</time>
      </trkpt>
      <trkpt lat="47.01437" lon="-0.74124">
        <ele>151</ele>
        <time>2016-09-14T14:34:16.008Z</time>
      </trkpt>
      <trkpt lat="47.01439" lon="-0.7413">
        <ele>151</ele>
        <time>2016-09-14T14:34:20.008Z</time>
      </trkpt>
      <trkpt lat="47.01441" lon="-0.74135">
        <ele>152</ele>
        <time>2016-09-14T14:34:23.008Z</time>
      </trkpt>
      <trkpt lat="47.01443" lon="-0.7414">
        <ele>152</ele>
        <time>2016-09-14T14:34:27.008Z</time>
      </trkpt>
      <trkpt lat="47.01445" lon="-0.74145">
        <ele>152</ele>
        <time>2016-09-14T14:34:30.008Z</time>
      </trkpt>
      <trkpt lat="47.01447" lon="-0.7415">
        <ele>152</ele>
        <time>2016-09-14T14:34:34.008Z</time>
      </trkpt>
      <trkpt lat="47.01449" lon="-0.74156">
        <ele>152</ele>
        <time>2016-09-14T14:34:38.008Z</time>
      </trkpt>
      <trkpt lat="47.01451" lon="-0.74162">
        <ele>152</ele>
        <time>2016-09-14T14:34:42.008Z</time>
      </trkpt>
      <trkpt lat="47.01453" lon="-0.74167">
        <ele>152</ele>
        <time>2016-09-14T14:34:45.008Z</time>
      </trkpt>
      <trkpt lat="47.01454" lon="-0.74172">
        <ele>152</ele>
        <time>2016-09-14T14:34:48.008Z</time>
      </trkpt>
      <trkpt lat="47.01456" lon="-0.74178">
        <ele>152</ele>
        <time>2016-09-14T14:34:51.008Z</time>
      </trkpt>
      <trkpt lat="47.01457" lon="-0.74184">
        <ele>152</ele>
        <time>2016-09-14T14:34:54.008Z</time>
      </trkpt>
      <trkpt lat="47.01458" lon="-0.74189">
        <ele>152</ele>
        <time>2016-09-14T14:34:58.008Z</time>
      </trkpt>
      <trkpt lat="47.01459" lon="-0.74195">
        <ele>152</ele>
        <time>2016-09-14T14:35:01.008Z</time>
      </trkpt>
      <trkpt lat="47.0146" lon="-0.74201">
        <ele>152</ele>
        <time>2016-09-14T14:35:05.008Z</time>
      </trkpt>
      <trkpt lat="47.01461" lon="-0.74207">
        <ele>152</ele>
        <time>2016-09-14T14:35:08.008Z</time>
      </trkpt>
      <trkpt lat="47.01463" lon="-0.74212">
        <ele>152</ele>
        <time>2016-09-14T14:35:12.008Z</time>
      </trkpt>
      <trkpt lat="47.01464" lon="-0.74217">
        <ele>152</ele>
        <time>2016-09-14T14:35:16.008Z</time>
      </trkpt>
      <trkpt lat="47.01466" lon="-0.74223">
        <ele>152</ele>
        <time>2016-09-14T14:35:20.008Z</time>
      </trkpt>
      <trkpt lat="47.01467" lon="-0.74229">
        <ele>152</ele>
        <time>2016-09-14T14:35:24.008Z</time>
      </trkpt>
      <trkpt lat="47.01469" lon="-0.74236">
        <ele>152</ele>
        <time>2016-09-14T14:35:28.008Z</time>
      </trkpt>
      <trkpt lat="47.01469" lon="-0.74241">
        <ele>152</ele>
        <time>2016-09-14T14:35:31.008Z</time>
      </trkpt>
      <trkpt lat="47.01471" lon="-0.74247">
        <ele>152</ele>
        <time>2016-09-14T14:35:35.008Z</time>
      </trkpt>
      <trkpt lat="47.01473" lon="-0.74252">
        <ele>152</ele>
        <time>2016-09-14T14:35:38.008Z</time>
      </trkpt>
      <trkpt lat="47.01474" lon="-0.74257">
        <ele>151.58214857143</ele>
        <time>2016-09-14T14:35:41.008Z</time>
      </trkpt>
      <trkpt lat="47.01476" lon="-0.74262">
        <ele>151</ele>
        <time>2016-09-14T14:35:44.008Z</time>
      </trkpt>
      <trkpt lat="47.01477" lon="-0.74267">
        <ele>151</ele>
        <time>2016-09-14T14:35:47.008Z</time>
      </trkpt>
      <trkpt lat="47.01478" lon="-0.74273">
        <ele>151</ele>
        <time>2016-09-14T14:35:51.008Z</time>
      </trkpt>
      <trkpt lat="47.01479" lon="-0.7428">
        <ele>151</ele>
        <time>2016-09-14T14:35:55.008Z</time>
      </trkpt>
      <trkpt lat="47.0148" lon="-0.74285">
        <ele>151</ele>
        <time>2016-09-14T14:35:58.008Z</time>
      </trkpt>
      <trkpt lat="47.01481" lon="-0.7429">
        <ele>150.58461451901</ele>
        <time>2016-09-14T14:36:01.008Z</time>
      </trkpt>
      <trkpt lat="47.01482" lon="-0.74295">
        <ele>150</ele>
        <time>2016-09-14T14:36:04.008Z</time>
      </trkpt>
      <trkpt lat="47.01483" lon="-0.74302">
        <ele>150</ele>
        <time>2016-09-14T14:36:08.008Z</time>
      </trkpt>
      <trkpt lat="47.01485" lon="-0.74308">
        <ele>150</ele>
        <time>2016-09-14T14:36:12.008Z</time>
      </trkpt>
      <trkpt lat="47.01486" lon="-0.74313">
        <ele>150</ele>
        <time>2016-09-14T14:36:15.008Z</time>
      </trkpt>
      <trkpt lat="47.01488" lon="-0.7432">
        <ele>150</ele>
        <time>2016-09-14T14:36:19.008Z</time>
      </trkpt>
      <trkpt lat="47.0149" lon="-0.74325">
        <ele>150</ele>
        <time>2016-09-14T14:36:23.008Z</time>
      </trkpt>
      <trkpt lat="47.01492" lon="-0.74331">
        <ele>150</ele>
        <time>2016-09-14T14:36:27.008Z</time>
      </trkpt>
      <trkpt lat="47.01493" lon="-0.74336">
        <ele>149.62587717977</ele>
        <time>2016-09-14T14:36:31.008Z</time>
      </trkpt>
      <trkpt lat="47.01494" lon="-0.74343">
        <ele>149</ele>
        <time>2016-09-14T14:36:35.008Z</time>
      </trkpt>
      <trkpt lat="47.01495" lon="-0.74348">
        <ele>149</ele>
        <time>2016-09-14T14:36:38.008Z</time>
      </trkpt>
      <trkpt lat="47.01496" lon="-0.74354">
        <ele>149</ele>
        <time>2016-09-14T14:36:41.008Z</time>
      </trkpt>
      <trkpt lat="47.01497" lon="-0.7436">
        <ele>149</ele>
        <time>2016-09-14T14:36:45.008Z</time>
      </trkpt>
      <trkpt lat="47.01497" lon="-0.74367">
        <ele>149</ele>
        <time>2016-09-14T14:36:49.008Z</time>
      </trkpt>
      <trkpt lat="47.01498" lon="-0.74374">
        <ele>149</ele>
        <time>2016-09-14T14:36:53.008Z</time>
      </trkpt>
      <trkpt lat="47.01498" lon="-0.7438">
        <ele>149</ele>
        <time>2016-09-14T14:36:56.008Z</time>
      </trkpt>
      <trkpt lat="47.01498" lon="-0.74386">
        <ele>149</ele>
        <time>2016-09-14T14:37:00.008Z</time>
      </trkpt>
      <trkpt lat="47.01499" lon="-0.74392">
        <ele>149</ele>
        <time>2016-09-14T14:37:03.008Z</time>
      </trkpt>
      <trkpt lat="47.01499" lon="-0.74398">
        <ele>149</ele>
        <time>2016-09-14T14:37:06.008Z</time>
      </trkpt>
      <trkpt lat="47.01499" lon="-0.74403">
        <ele>149</ele>
        <time>2016-09-14T14:37:09.008Z</time>
      </trkpt>
      <trkpt lat="47.015" lon="-0.74409">
        <ele>149</ele>
        <time>2016-09-14T14:37:12.008Z</time>
      </trkpt>
      <trkpt lat="47.015" lon="-0.74414">
        <ele>149</ele>
        <time>2016-09-14T14:37:15.008Z</time>
      </trkpt>
      <trkpt lat="47.01501" lon="-0.7442">
        <ele>149</ele>
        <time>2016-09-14T14:37:19.008Z</time>
      </trkpt>
      <trkpt lat="47.01501" lon="-0.74426">
        <ele>149</ele>
        <time>2016-09-14T14:37:23.008Z</time>
      </trkpt>
      <trkpt lat="47.015" lon="-0.74432">
        <ele>149</ele>
        <time>2016-09-14T14:37:26.008Z</time>
      </trkpt>
      <trkpt lat="47.01501" lon="-0.74438">
        <ele>149</ele>
        <time>2016-09-14T14:37:30.008Z</time>
      </trkpt>
      <trkpt lat="47.01502" lon="-0.74443">
        <ele>149</ele>
        <time>2016-09-14T14:37:33.008Z</time>
      </trkpt>
      <trkpt lat="47.01504" lon="-0.74449">
        <ele>149</ele>
        <time>2016-09-14T14:37:37.008Z</time>
      </trkpt>
      <trkpt lat="47.01501" lon="-0.74455">
        <ele>149</ele>
        <time>2016-09-14T14:38:13.008Z</time>
      </trkpt>
      <trkpt lat="47.01498" lon="-0.74459">
        <ele>149</ele>
        <time>2016-09-14T14:38:17.008Z</time>
      </trkpt>
      <trkpt lat="47.01498" lon="-0.74465">
        <ele>149</ele>
        <time>2016-09-14T14:38:20.008Z</time>
      </trkpt>
      <trkpt lat="47.01498" lon="-0.7447">
        <ele>149</ele>
        <time>2016-09-14T14:38:23.008Z</time>
      </trkpt>
      <trkpt lat="47.01498" lon="-0.74476">
        <ele>149</ele>
        <time>2016-09-14T14:38:27.008Z</time>
      </trkpt>
      <trkpt lat="47.01498" lon="-0.74482">
        <ele>149</ele>
        <time>2016-09-14T14:38:30.008Z</time>
      </trkpt>
      <trkpt lat="47.01499" lon="-0.74489">
        <ele>149</ele>
        <time>2016-09-14T14:38:33.008Z</time>
      </trkpt>
      <trkpt lat="47.01499" lon="-0.74494">
        <ele>149</ele>
        <time>2016-09-14T14:38:37.008Z</time>
      </trkpt>
      <trkpt lat="47.015" lon="-0.74501">
        <ele>149</ele>
        <time>2016-09-14T14:38:41.008Z</time>
      </trkpt>
      <trkpt lat="47.01501" lon="-0.74507">
        <ele>149</ele>
        <time>2016-09-14T14:38:45.008Z</time>
      </trkpt>
      <trkpt lat="47.01502" lon="-0.74514">
        <ele>149</ele>
        <time>2016-09-14T14:38:49.008Z</time>
      </trkpt>
      <trkpt lat="47.01503" lon="-0.74519">
        <ele>149</ele>
        <time>2016-09-14T14:38:52.008Z</time>
      </trkpt>
      <trkpt lat="47.01504" lon="-0.74525">
        <ele>149</ele>
        <time>2016-09-14T14:38:56.008Z</time>
      </trkpt>
      <trkpt lat="47.01506" lon="-0.74531">
        <ele>149</ele>
        <time>2016-09-14T14:39:00.008Z</time>
      </trkpt>
      <trkpt lat="47.01507" lon="-0.74536">
        <ele>149</ele>
        <time>2016-09-14T14:39:03.008Z</time>
      </trkpt>
      <trkpt lat="47.01509" lon="-0.74542">
        <ele>149</ele>
        <time>2016-09-14T14:39:10.008Z</time>
      </trkpt>
      <trkpt lat="47.01511" lon="-0.74548">
        <ele>149</ele>
        <time>2016-09-14T14:39:13.008Z</time>
      </trkpt>
      <trkpt lat="47.01514" lon="-0.74556">
        <ele>149</ele>
        <time>2016-09-14T14:39:17.008Z</time>
      </trkpt>
      <trkpt lat="47.01515" lon="-0.74562">
        <ele>149</ele>
        <time>2016-09-14T14:39:20.008Z</time>
      </trkpt>
      <trkpt lat="47.01517" lon="-0.7457">
        <ele>149</ele>
        <time>2016-09-14T14:39:23.008Z</time>
      </trkpt>
      <trkpt lat="47.0152" lon="-0.74575">
        <ele>149</ele>
        <time>2016-09-14T14:39:26.008Z</time>
      </trkpt>
      <trkpt lat="47.01521" lon="-0.74581">
        <ele>149</ele>
        <time>2016-09-14T14:39:29.008Z</time>
      </trkpt>
      <trkpt lat="47.01523" lon="-0.74586">
        <ele>149</ele>
        <time>2016-09-14T14:39:32.008Z</time>
      </trkpt>
      <trkpt lat="47.01525" lon="-0.74592">
        <ele>149</ele>
        <time>2016-09-14T14:39:36.008Z</time>
      </trkpt>
      <trkpt lat="47.01527" lon="-0.74598">
        <ele>149</ele>
        <time>2016-09-14T14:39:40.008Z</time>
      </trkpt>
      <trkpt lat="47.0153" lon="-0.74604">
        <ele>149</ele>
        <time>2016-09-14T14:39:44.008Z</time>
      </trkpt>
      <trkpt lat="47.01532" lon="-0.7461">
        <ele>149</ele>
        <time>2016-09-14T14:39:48.008Z</time>
      </trkpt>
      <trkpt lat="47.01534" lon="-0.74615">
        <ele>149</ele>
        <time>2016-09-14T14:39:51.008Z</time>
      </trkpt>
      <trkpt lat="47.01535" lon="-0.74621">
        <ele>149</ele>
        <time>2016-09-14T14:39:55.008Z</time>
      </trkpt>
      <trkpt lat="47.01536" lon="-0.74626">
        <ele>149</ele>
        <time>2016-09-14T14:39:58.008Z</time>
      </trkpt>
      <trkpt lat="47.01538" lon="-0.74632">
        <ele>149</ele>
        <time>2016-09-14T14:40:01.008Z</time>
      </trkpt>
      <trkpt lat="47.01538" lon="-0.74638">
        <ele>149</ele>
        <time>2016-09-14T14:40:04.008Z</time>
      </trkpt>
      <trkpt lat="47.01538" lon="-0.74643">
        <ele>149</ele>
        <time>2016-09-14T14:40:07.008Z</time>
      </trkpt>
      <trkpt lat="47.01538" lon="-0.74649">
        <ele>149</ele>
        <time>2016-09-14T14:40:10.008Z</time>
      </trkpt>
      <trkpt lat="47.01538" lon="-0.74655">
        <ele>149</ele>
        <time>2016-09-14T14:40:13.008Z</time>
      </trkpt>
      <trkpt lat="47.01538" lon="-0.74662">
        <ele>149</ele>
        <time>2016-09-14T14:40:17.008Z</time>
      </trkpt>
      <trkpt lat="47.01538" lon="-0.74669">
        <ele>149</ele>
        <time>2016-09-14T14:40:21.008Z</time>
      </trkpt>
      <trkpt lat="47.01538" lon="-0.74675">
        <ele>149</ele>
        <time>2016-09-14T14:40:25.008Z</time>
      </trkpt>
      <trkpt lat="47.01539" lon="-0.74681">
        <ele>149</ele>
        <time>2016-09-14T14:40:28.008Z</time>
      </trkpt>
      <trkpt lat="47.01539" lon="-0.74687">
        <ele>149</ele>
        <time>2016-09-14T14:40:31.008Z</time>
      </trkpt>
      <trkpt lat="47.01539" lon="-0.74693">
        <ele>149</ele>
        <time>2016-09-14T14:40:35.008Z</time>
      </trkpt>
      <trkpt lat="47.0154" lon="-0.74699">
        <ele>149</ele>
        <time>2016-09-14T14:40:38.008Z</time>
      </trkpt>
      <trkpt lat="47.0154" lon="-0.74706">
        <ele>149</ele>
        <time>2016-09-14T14:40:42.008Z</time>
      </trkpt>
      <trkpt lat="47.0154" lon="-0.74711">
        <ele>149</ele>
        <time>2016-09-14T14:40:45.008Z</time>
      </trkpt>
      <trkpt lat="47.0154" lon="-0.74717">
        <ele>149</ele>
        <time>2016-09-14T14:40:48.008Z</time>
      </trkpt>
      <trkpt lat="47.01541" lon="-0.74722">
        <ele>149</ele>
        <time>2016-09-14T14:40:51.008Z</time>
      </trkpt>
      <trkpt lat="47.01541" lon="-0.74729">
        <ele>149</ele>
        <time>2016-09-14T14:40:55.008Z</time>
      </trkpt>
      <trkpt lat="47.01541" lon="-0.74736">
        <ele>149</ele>
        <time>2016-09-14T14:40:58.008Z</time>
      </trkpt>
      <trkpt lat="47.01541" lon="-0.74742">
        <ele>149</ele>
        <time>2016-09-14T14:41:01.008Z</time>
      </trkpt>
      <trkpt lat="47.01541" lon="-0.74747">
        <ele>149</ele>
        <time>2016-09-14T14:41:04.008Z</time>
      </trkpt>
      <trkpt lat="47.0154" lon="-0.74754">
        <ele>149</ele>
        <time>2016-09-14T14:41:07.008Z</time>
      </trkpt>
      <trkpt lat="47.0154" lon="-0.7476">
        <ele>149</ele>
        <time>2016-09-14T14:41:11.008Z</time>
      </trkpt>
      <trkpt lat="47.0154" lon="-0.74766">
        <ele>149</ele>
        <time>2016-09-14T14:41:15.008Z</time>
      </trkpt>
      <trkpt lat="47.0154" lon="-0.74772">
        <ele>149</ele>
        <time>2016-09-14T14:41:18.008Z</time>
      </trkpt>
      <trkpt lat="47.0154" lon="-0.74779">
        <ele>149</ele>
        <time>2016-09-14T14:41:22.008Z</time>
      </trkpt>
      <trkpt lat="47.0154" lon="-0.74784">
        <ele>149</ele>
        <time>2016-09-14T14:41:25.008Z</time>
      </trkpt>
      <trkpt lat="47.01539" lon="-0.74791">
        <ele>149</ele>
        <time>2016-09-14T14:41:29.008Z</time>
      </trkpt>
      <trkpt lat="47.01538" lon="-0.74798">
        <ele>149</ele>
        <time>2016-09-14T14:41:33.008Z</time>
      </trkpt>
      <trkpt lat="47.01538" lon="-0.74803">
        <ele>149</ele>
        <time>2016-09-14T14:41:36.008Z</time>
      </trkpt>
      <trkpt lat="47.01537" lon="-0.74809">
        <ele>149</ele>
        <time>2016-09-14T14:41:39.008Z</time>
      </trkpt>
      <trkpt lat="47.01537" lon="-0.74815">
        <ele>149</ele>
        <time>2016-09-14T14:41:43.008Z</time>
      </trkpt>
      <trkpt lat="47.01536" lon="-0.74821">
        <ele>149</ele>
        <time>2016-09-14T14:41:46.008Z</time>
      </trkpt>
      <trkpt lat="47.01536" lon="-0.74827">
        <ele>149</ele>
        <time>2016-09-14T14:41:49.008Z</time>
      </trkpt>
      <trkpt lat="47.01534" lon="-0.74834">
        <ele>149</ele>
        <time>2016-09-14T14:41:53.008Z</time>
      </trkpt>
      <trkpt lat="47.01534" lon="-0.7484">
        <ele>149</ele>
        <time>2016-09-14T14:41:56.008Z</time>
      </trkpt>
      <trkpt lat="47.01533" lon="-0.74846">
        <ele>149</ele>
        <time>2016-09-14T14:42:00.008Z</time>
      </trkpt>
      <trkpt lat="47.01532" lon="-0.74853">
        <ele>149</ele>
        <time>2016-09-14T14:42:04.008Z</time>
      </trkpt>
      <trkpt lat="47.01531" lon="-0.74858">
        <ele>149</ele>
        <time>2016-09-14T14:42:07.008Z</time>
      </trkpt>
      <trkpt lat="47.0153" lon="-0.74864">
        <ele>149</ele>
        <time>2016-09-14T14:42:10.008Z</time>
      </trkpt>
      <trkpt lat="47.01529" lon="-0.7487">
        <ele>149</ele>
        <time>2016-09-14T14:42:14.008Z</time>
      </trkpt>
      <trkpt lat="47.01528" lon="-0.74876">
        <ele>149</ele>
        <time>2016-09-14T14:42:17.008Z</time>
      </trkpt>
      <trkpt lat="47.01527" lon="-0.74881">
        <ele>149</ele>
        <time>2016-09-14T14:42:20.008Z</time>
      </trkpt>
      <trkpt lat="47.01526" lon="-0.74886">
        <ele>149</ele>
        <time>2016-09-14T14:42:23.008Z</time>
      </trkpt>
      <trkpt lat="47.01524" lon="-0.74893">
        <ele>149</ele>
        <time>2016-09-14T14:42:26.008Z</time>
      </trkpt>
      <trkpt lat="47.01523" lon="-0.749">
        <ele>149</ele>
        <time>2016-09-14T14:42:30.008Z</time>
      </trkpt>
      <trkpt lat="47.01523" lon="-0.74906">
        <ele>149</ele>
        <time>2016-09-14T14:42:34.008Z</time>
      </trkpt>
      <trkpt lat="47.01522" lon="-0.74911">
        <ele>149</ele>
        <time>2016-09-14T14:42:37.008Z</time>
      </trkpt>
      <trkpt lat="47.01521" lon="-0.74917">
        <ele>149</ele>
        <time>2016-09-14T14:42:40.008Z</time>
      </trkpt>
      <trkpt lat="47.01519" lon="-0.74922">
        <ele>149</ele>
        <time>2016-09-14T14:42:43.008Z</time>
      </trkpt>
      <trkpt lat="47.01518" lon="-0.74929">
        <ele>149</ele>
        <time>2016-09-14T14:42:47.008Z</time>
      </trkpt>
      <trkpt lat="47.01517" lon="-0.74935">
        <ele>149</ele>
        <time>2016-09-14T14:42:50.008Z</time>
      </trkpt>
      <trkpt lat="47.01516" lon="-0.7494">
        <ele>149</ele>
        <time>2016-09-14T14:42:53.008Z</time>
      </trkpt>
      <trkpt lat="47.01516" lon="-0.74945">
        <ele>149</ele>
        <time>2016-09-14T14:42:56.008Z</time>
      </trkpt>
      <trkpt lat="47.01514" lon="-0.7495">
        <ele>149</ele>
        <time>2016-09-14T14:42:59.008Z</time>
      </trkpt>
      <trkpt lat="47.01513" lon="-0.74957">
        <ele>149</ele>
        <time>2016-09-14T14:43:03.008Z</time>
      </trkpt>
      <trkpt lat="47.01511" lon="-0.74961">
        <ele>149</ele>
        <time>2016-09-14T14:43:13.008Z</time>
      </trkpt>
      <trkpt lat="47.01508" lon="-0.74965">
        <ele>149</ele>
        <time>2016-09-14T14:43:28.008Z</time>
      </trkpt>
      <trkpt lat="47.01505" lon="-0.74971">
        <ele>149</ele>
        <time>2016-09-14T14:43:32.008Z</time>
      </trkpt>
      <trkpt lat="47.01505" lon="-0.74977">
        <ele>149</ele>
        <time>2016-09-14T14:43:43.008Z</time>
      </trkpt>
      <trkpt lat="47.01506" lon="-0.74983">
        <ele>149</ele>
        <time>2016-09-14T14:43:47.008Z</time>
      </trkpt>
      <trkpt lat="47.01508" lon="-0.74989">
        <ele>149</ele>
        <time>2016-09-14T14:43:50.008Z</time>
      </trkpt>
      <trkpt lat="47.0151" lon="-0.74994">
        <ele>146</ele>
        <time>2016-09-14T14:43:54.008Z</time>
      </trkpt>
      <trkpt lat="47.01512" lon="-0.74999">
        <ele>146</ele>
        <time>2016-09-14T14:43:57.008Z</time>
      </trkpt>
      <trkpt lat="47.01514" lon="-0.75005">
        <ele>146.45714584258</ele>
        <time>2016-09-14T14:44:01.008Z</time>
      </trkpt>
      <trkpt lat="47.01514" lon="-0.75012">
        <ele>147</ele>
        <time>2016-09-14T14:44:05.008Z</time>
      </trkpt>
      <trkpt lat="47.01513" lon="-0.75017">
        <ele>147</ele>
        <time>2016-09-14T14:44:08.008Z</time>
      </trkpt>
      <trkpt lat="47.01512" lon="-0.75022">
        <ele>147</ele>
        <time>2016-09-14T14:44:11.008Z</time>
      </trkpt>
      <trkpt lat="47.01512" lon="-0.75027">
        <ele>147</ele>
        <time>2016-09-14T14:44:14.008Z</time>
      </trkpt>
      <trkpt lat="47.01511" lon="-0.75034">
        <ele>147</ele>
        <time>2016-09-14T14:44:18.008Z</time>
      </trkpt>
      <trkpt lat="47.0151" lon="-0.75039">
        <ele>147</ele>
        <time>2016-09-14T14:44:21.008Z</time>
      </trkpt>
      <trkpt lat="47.01509" lon="-0.75045">
        <ele>147</ele>
        <time>2016-09-14T14:44:25.008Z</time>
      </trkpt>
      <trkpt lat="47.01508" lon="-0.7505">
        <ele>147</ele>
        <time>2016-09-14T14:44:28.008Z</time>
      </trkpt>
      <trkpt lat="47.01507" lon="-0.75056">
        <ele>147</ele>
        <time>2016-09-14T14:44:32.008Z</time>
      </trkpt>
      <trkpt lat="47.01506" lon="-0.75062">
        <ele>147</ele>
        <time>2016-09-14T14:44:35.008Z</time>
      </trkpt>
      <trkpt lat="47.01505" lon="-0.75068">
        <ele>148</ele>
        <time>2016-09-14T14:44:39.008Z</time>
      </trkpt>
      <trkpt lat="47.01505" lon="-0.75073">
        <ele>148</ele>
        <time>2016-09-14T14:44:42.008Z</time>
      </trkpt>
      <trkpt lat="47.01504" lon="-0.7508">
        <ele>148</ele>
        <time>2016-09-14T14:44:46.008Z</time>
      </trkpt>
      <trkpt lat="47.01503" lon="-0.75086">
        <ele>148</ele>
        <time>2016-09-14T14:44:50.008Z</time>
      </trkpt>
      <trkpt lat="47.01503" lon="-0.75092">
        <ele>148</ele>
        <time>2016-09-14T14:44:54.008Z</time>
      </trkpt>
      <trkpt lat="47.01503" lon="-0.75098">
        <ele>148</ele>
        <time>2016-09-14T14:44:57.008Z</time>
      </trkpt>
      <trkpt lat="47.01502" lon="-0.75104">
        <ele>148</ele>
        <time>2016-09-14T14:45:01.008Z</time>
      </trkpt>
      <trkpt lat="47.01501" lon="-0.75111">
        <ele>148</ele>
        <time>2016-09-14T14:45:05.008Z</time>
      </trkpt>
      <trkpt lat="47.01501" lon="-0.75118">
        <ele>148</ele>
        <time>2016-09-14T14:45:09.008Z</time>
      </trkpt>
      <trkpt lat="47.01501" lon="-0.75123">
        <ele>148.43999514949</ele>
        <time>2016-09-14T14:45:12.008Z</time>
      </trkpt>
      <trkpt lat="47.015" lon="-0.7513">
        <ele>149</ele>
        <time>2016-09-14T14:45:16.008Z</time>
      </trkpt>
      <trkpt lat="47.015" lon="-0.75135">
        <ele>149</ele>
        <time>2016-09-14T14:45:19.008Z</time>
      </trkpt>
      <trkpt lat="47.01499" lon="-0.75142">
        <ele>149</ele>
        <time>2016-09-14T14:45:23.008Z</time>
      </trkpt>
      <trkpt lat="47.015" lon="-0.75148">
        <ele>149</ele>
        <time>2016-09-14T14:45:27.008Z</time>
      </trkpt>
      <trkpt lat="47.015" lon="-0.75154">
        <ele>149</ele>
        <time>2016-09-14T14:45:31.008Z</time>
      </trkpt>
      <trkpt lat="47.01499" lon="-0.7516">
        <ele>149</ele>
        <time>2016-09-14T14:45:34.008Z</time>
      </trkpt>
      <trkpt lat="47.01499" lon="-0.75167">
        <ele>149</ele>
        <time>2016-09-14T14:45:38.008Z</time>
      </trkpt>
      <trkpt lat="47.01498" lon="-0.75173">
        <ele>149</ele>
        <time>2016-09-14T14:45:41.008Z</time>
      </trkpt>
      <trkpt lat="47.01497" lon="-0.75178">
        <ele>149</ele>
        <time>2016-09-14T14:45:44.008Z</time>
      </trkpt>
      <trkpt lat="47.01496" lon="-0.75185">
        <ele>149</ele>
        <time>2016-09-14T14:45:48.008Z</time>
      </trkpt>
      <trkpt lat="47.01496" lon="-0.75191">
        <ele>149</ele>
        <time>2016-09-14T14:45:51.008Z</time>
      </trkpt>
      <trkpt lat="47.01496" lon="-0.75197">
        <ele>149</ele>
        <time>2016-09-14T14:45:55.008Z</time>
      </trkpt>
      <trkpt lat="47.01496" lon="-0.75203">
        <ele>149</ele>
        <time>2016-09-14T14:45:59.008Z</time>
      </trkpt>
      <trkpt lat="47.01496" lon="-0.75209">
        <ele>149</ele>
        <time>2016-09-14T14:46:02.008Z</time>
      </trkpt>
      <trkpt lat="47.01495" lon="-0.75215">
        <ele>149</ele>
        <time>2016-09-14T14:46:05.008Z</time>
      </trkpt>
      <trkpt lat="47.01494" lon="-0.75221">
        <ele>149</ele>
        <time>2016-09-14T14:46:09.008Z</time>
      </trkpt>
      <trkpt lat="47.01494" lon="-0.75228">
        <ele>149</ele>
        <time>2016-09-14T14:46:13.008Z</time>
      </trkpt>
      <trkpt lat="47.01494" lon="-0.75234">
        <ele>149</ele>
        <time>2016-09-14T14:46:16.008Z</time>
      </trkpt>
      <trkpt lat="47.01493" lon="-0.75242">
        <ele>149</ele>
        <time>2016-09-14T14:46:21.008Z</time>
      </trkpt>
      <trkpt lat="47.01493" lon="-0.75249">
        <ele>149</ele>
        <time>2016-09-14T14:46:25.008Z</time>
      </trkpt>
      <trkpt lat="47.01492" lon="-0.75255">
        <ele>149</ele>
        <time>2016-09-14T14:46:29.008Z</time>
      </trkpt>
      <trkpt lat="47.01492" lon="-0.7526">
        <ele>148.8444503139</ele>
        <time>2016-09-14T14:46:32.008Z</time>
      </trkpt>
      <trkpt lat="47.01492" lon="-0.75267">
        <ele>148</ele>
        <time>2016-09-14T14:46:36.008Z</time>
      </trkpt>
      <trkpt lat="47.01491" lon="-0.75273">
        <ele>148</ele>
        <time>2016-09-14T14:46:40.008Z</time>
      </trkpt>
      <trkpt lat="47.0149" lon="-0.7528">
        <ele>148</ele>
        <time>2016-09-14T14:46:44.008Z</time>
      </trkpt>
      <trkpt lat="47.0149" lon="-0.75286">
        <ele>148</ele>
        <time>2016-09-14T14:46:47.008Z</time>
      </trkpt>
      <trkpt lat="47.01489" lon="-0.75291">
        <ele>148</ele>
        <time>2016-09-14T14:46:50.008Z</time>
      </trkpt>
      <trkpt lat="47.01489" lon="-0.75298">
        <ele>148</ele>
        <time>2016-09-14T14:46:53.008Z</time>
      </trkpt>
      <trkpt lat="47.01487" lon="-0.75304">
        <ele>148</ele>
        <time>2016-09-14T14:46:56.008Z</time>
      </trkpt>
      <trkpt lat="47.01486" lon="-0.7531">
        <ele>148</ele>
        <time>2016-09-14T14:46:59.008Z</time>
      </trkpt>
      <trkpt lat="47.01486" lon="-0.75317">
        <ele>148</ele>
        <time>2016-09-14T14:47:03.008Z</time>
      </trkpt>
      <trkpt lat="47.01485" lon="-0.75324">
        <ele>148</ele>
        <time>2016-09-14T14:47:07.008Z</time>
      </trkpt>
      <trkpt lat="47.01485" lon="-0.75329">
        <ele>148</ele>
        <time>2016-09-14T14:47:10.008Z</time>
      </trkpt>
      <trkpt lat="47.01485" lon="-0.75335">
        <ele>148</ele>
        <time>2016-09-14T14:47:14.008Z</time>
      </trkpt>
      <trkpt lat="47.01484" lon="-0.75342">
        <ele>148</ele>
        <time>2016-09-14T14:47:18.008Z</time>
      </trkpt>
      <trkpt lat="47.01484" lon="-0.75348">
        <ele>147.63333536511</ele>
        <time>2016-09-14T14:47:21.008Z</time>
      </trkpt>
      <trkpt lat="47.01484" lon="-0.75354">
        <ele>147</ele>
        <time>2016-09-14T14:47:25.008Z</time>
      </trkpt>
      <trkpt lat="47.01484" lon="-0.7536">
        <ele>147</ele>
        <time>2016-09-14T14:47:28.008Z</time>
      </trkpt>
      <trkpt lat="47.01483" lon="-0.75366">
        <ele>147</ele>
        <time>2016-09-14T14:47:32.008Z</time>
      </trkpt>
      <trkpt lat="47.01483" lon="-0.75372">
        <ele>147</ele>
        <time>2016-09-14T14:47:36.008Z</time>
      </trkpt>
      <trkpt lat="47.01483" lon="-0.75378">
        <ele>147</ele>
        <time>2016-09-14T14:47:39.008Z</time>
      </trkpt>
      <trkpt lat="47.01482" lon="-0.75384">
        <ele>146</ele>
        <time>2016-09-14T14:47:42.008Z</time>
      </trkpt>
      <trkpt lat="47.01481" lon="-0.75391">
        <ele>146</ele>
        <time>2016-09-14T14:47:45.008Z</time>
      </trkpt>
      <trkpt lat="47.01481" lon="-0.75396">
        <ele>146</ele>
        <time>2016-09-14T14:47:48.008Z</time>
      </trkpt>
      <trkpt lat="47.01481" lon="-0.75403">
        <ele>146</ele>
        <time>2016-09-14T14:47:52.008Z</time>
      </trkpt>
      <trkpt lat="47.01481" lon="-0.7541">
        <ele>146</ele>
        <time>2016-09-14T14:47:56.008Z</time>
      </trkpt>
      <trkpt lat="47.0148" lon="-0.75415">
        <ele>146</ele>
        <time>2016-09-14T14:47:59.008Z</time>
      </trkpt>
      <trkpt lat="47.0148" lon="-0.75421">
        <ele>145</ele>
        <time>2016-09-14T14:48:03.008Z</time>
      </trkpt>
      <trkpt lat="47.0148" lon="-0.75427">
        <ele>145</ele>
        <time>2016-09-14T14:48:06.008Z</time>
      </trkpt>
      <trkpt lat="47.01479" lon="-0.75432">
        <ele>145</ele>
        <time>2016-09-14T14:48:09.008Z</time>
      </trkpt>
      <trkpt lat="47.01479" lon="-0.75439">
        <ele>145</ele>
        <time>2016-09-14T14:48:13.008Z</time>
      </trkpt>
      <trkpt lat="47.01479" lon="-0.75446">
        <ele>145</ele>
        <time>2016-09-14T14:48:16.008Z</time>
      </trkpt>
      <trkpt lat="47.01478" lon="-0.75451">
        <ele>145</ele>
        <time>2016-09-14T14:48:19.008Z</time>
      </trkpt>
      <trkpt lat="47.01476" lon="-0.75457">
        <ele>145</ele>
        <time>2016-09-14T14:48:23.008Z</time>
      </trkpt>
      <trkpt lat="47.01477" lon="-0.75464">
        <ele>145</ele>
        <time>2016-09-14T14:48:27.008Z</time>
      </trkpt>
      <trkpt lat="47.01477" lon="-0.7547">
        <ele>145</ele>
        <time>2016-09-14T14:48:30.008Z</time>
      </trkpt>
      <trkpt lat="47.01476" lon="-0.75476">
        <ele>144</ele>
        <time>2016-09-14T14:48:34.008Z</time>
      </trkpt>
      <trkpt lat="47.01476" lon="-0.75481">
        <ele>144</ele>
        <time>2016-09-14T14:48:37.008Z</time>
      </trkpt>
      <trkpt lat="47.01475" lon="-0.75488">
        <ele>144</ele>
        <time>2016-09-14T14:48:40.008Z</time>
      </trkpt>
      <trkpt lat="47.01475" lon="-0.75495">
        <ele>144</ele>
        <time>2016-09-14T14:48:44.008Z</time>
      </trkpt>
      <trkpt lat="47.01475" lon="-0.755">
        <ele>144</ele>
        <time>2016-09-14T14:48:47.008Z</time>
      </trkpt>
      <trkpt lat="47.01475" lon="-0.75506">
        <ele>144</ele>
        <time>2016-09-14T14:48:50.008Z</time>
      </trkpt>
      <trkpt lat="47.01475" lon="-0.75512">
        <ele>143</ele>
        <time>2016-09-14T14:48:54.008Z</time>
      </trkpt>
      <trkpt lat="47.01475" lon="-0.75519">
        <ele>143</ele>
        <time>2016-09-14T14:48:58.008Z</time>
      </trkpt>
      <trkpt lat="47.01475" lon="-0.75525">
        <ele>143</ele>
        <time>2016-09-14T14:49:02.008Z</time>
      </trkpt>
      <trkpt lat="47.01474" lon="-0.75531">
        <ele>143</ele>
        <time>2016-09-14T14:49:05.008Z</time>
      </trkpt>
      <trkpt lat="47.01474" lon="-0.75537">
        <ele>143</ele>
        <time>2016-09-14T14:49:08.008Z</time>
      </trkpt>
      <trkpt lat="47.01474" lon="-0.75543">
        <ele>143</ele>
        <time>2016-09-14T14:49:12.008Z</time>
      </trkpt>
      <trkpt lat="47.01475" lon="-0.75549">
        <ele>143</ele>
        <time>2016-09-14T14:49:15.008Z</time>
      </trkpt>
      <trkpt lat="47.01475" lon="-0.75554">
        <ele>143</ele>
        <time>2016-09-14T14:49:18.008Z</time>
      </trkpt>
      <trkpt lat="47.01475" lon="-0.75561">
        <ele>143</ele>
        <time>2016-09-14T14:49:22.008Z</time>
      </trkpt>
      <trkpt lat="47.01475" lon="-0.75566">
        <ele>143</ele>
        <time>2016-09-14T14:49:25.008Z</time>
      </trkpt>
      <trkpt lat="47.01475" lon="-0.75572">
        <ele>143</ele>
        <time>2016-09-14T14:49:28.008Z</time>
      </trkpt>
      <trkpt lat="47.01474" lon="-0.75578">
        <ele>143</ele>
        <time>2016-09-14T14:49:31.008Z</time>
      </trkpt>
      <trkpt lat="47.01474" lon="-0.75584">
        <ele>143</ele>
        <time>2016-09-14T14:49:34.008Z</time>
      </trkpt>
      <trkpt lat="47.01474" lon="-0.7559">
        <ele>143</ele>
        <time>2016-09-14T14:49:37.008Z</time>
      </trkpt>
      <trkpt lat="47.01474" lon="-0.75595">
        <ele>143</ele>
        <time>2016-09-14T14:49:40.008Z</time>
      </trkpt>
      <trkpt lat="47.01475" lon="-0.756">
        <ele>142</ele>
        <time>2016-09-14T14:49:43.008Z</time>
      </trkpt>
      <trkpt lat="47.01475" lon="-0.75606">
        <ele>142</ele>
        <time>2016-09-14T14:49:46.008Z</time>
      </trkpt>
      <trkpt lat="47.01475" lon="-0.75611">
        <ele>142</ele>
        <time>2016-09-14T14:49:49.008Z</time>
      </trkpt>
      <trkpt lat="47.01476" lon="-0.75618">
        <ele>141</ele>
        <time>2016-09-14T14:49:53.008Z</time>
      </trkpt>
      <trkpt lat="47.01476" lon="-0.75623">
        <ele>141</ele>
        <time>2016-09-14T14:49:56.008Z</time>
      </trkpt>
      <trkpt lat="47.01477" lon="-0.75629">
        <ele>141</ele>
        <time>2016-09-14T14:49:59.008Z</time>
      </trkpt>
      <trkpt lat="47.01477" lon="-0.75635">
        <ele>140</ele>
        <time>2016-09-14T14:50:02.008Z</time>
      </trkpt>
      <trkpt lat="47.01478" lon="-0.75641">
        <ele>140</ele>
        <time>2016-09-14T14:50:06.008Z</time>
      </trkpt>
      <trkpt lat="47.01478" lon="-0.75647">
        <ele>140</ele>
        <time>2016-09-14T14:50:09.008Z</time>
      </trkpt>
      <trkpt lat="47.01479" lon="-0.75653">
        <ele>140</ele>
        <time>2016-09-14T14:50:12.008Z</time>
      </trkpt>
      <trkpt lat="47.0148" lon="-0.75658">
        <ele>140</ele>
        <time>2016-09-14T14:50:15.008Z</time>
      </trkpt>
      <trkpt lat="47.01481" lon="-0.75664">
        <ele>140</ele>
        <time>2016-09-14T14:50:18.008Z</time>
      </trkpt>
      <trkpt lat="47.0148" lon="-0.7567">
        <ele>140</ele>
        <time>2016-09-14T14:50:22.008Z</time>
      </trkpt>
      <trkpt lat="47.0148" lon="-0.75676">
        <ele>140</ele>
        <time>2016-09-14T14:50:25.008Z</time>
      </trkpt>
      <trkpt lat="47.0148" lon="-0.75683">
        <ele>140</ele>
        <time>2016-09-14T14:50:29.008Z</time>
      </trkpt>
      <trkpt lat="47.01481" lon="-0.75688">
        <ele>139</ele>
        <time>2016-09-14T14:50:32.008Z</time>
      </trkpt>
      <trkpt lat="47.01481" lon="-0.75695">
        <ele>139</ele>
        <time>2016-09-14T14:50:36.008Z</time>
      </trkpt>
      <trkpt lat="47.01482" lon="-0.75702">
        <ele>139</ele>
        <time>2016-09-14T14:50:40.008Z</time>
      </trkpt>
      <trkpt lat="47.01482" lon="-0.75708">
        <ele>138</ele>
        <time>2016-09-14T14:50:43.008Z</time>
      </trkpt>
      <trkpt lat="47.01481" lon="-0.75714">
        <ele>138</ele>
        <time>2016-09-14T14:50:47.008Z</time>
      </trkpt>
      <trkpt lat="47.01482" lon="-0.7572">
        <ele>138</ele>
        <time>2016-09-14T14:50:51.008Z</time>
      </trkpt>
      <trkpt lat="47.01481" lon="-0.75725">
        <ele>138</ele>
        <time>2016-09-14T14:50:54.008Z</time>
      </trkpt>
      <trkpt lat="47.01481" lon="-0.75731">
        <ele>138</ele>
        <time>2016-09-14T14:50:58.008Z</time>
      </trkpt>
      <trkpt lat="47.01478" lon="-0.75735">
        <ele>137</ele>
        <time>2016-09-14T14:51:02.008Z</time>
      </trkpt>
      <trkpt lat="47.01474" lon="-0.75735">
        <ele>137</ele>
        <time>2016-09-14T14:51:07.008Z</time>
      </trkpt>
      <trkpt lat="47.0147" lon="-0.75733">
        <ele>137</ele>
        <time>2016-09-14T14:51:11.008Z</time>
      </trkpt>
      <trkpt lat="47.01466" lon="-0.7573">
        <ele>137</ele>
        <time>2016-09-14T14:51:15.008Z</time>
      </trkpt>
      <trkpt lat="47.01463" lon="-0.75729">
        <ele>137</ele>
        <time>2016-09-14T14:51:23.008Z</time>
      </trkpt>
      <trkpt lat="47.01459" lon="-0.75729">
        <ele>137</ele>
        <time>2016-09-14T14:51:27.008Z</time>
      </trkpt>
      <trkpt lat="47.01455" lon="-0.75729">
        <ele>137</ele>
        <time>2016-09-14T14:51:32.008Z</time>
      </trkpt>
      <trkpt lat="47.01451" lon="-0.75727">
        <ele>137</ele>
        <time>2016-09-14T14:51:36.008Z</time>
      </trkpt>
      <trkpt lat="47.01447" lon="-0.75726">
        <ele>137</ele>
        <time>2016-09-14T14:51:40.008Z</time>
      </trkpt>
      <trkpt lat="47.01443" lon="-0.75725">
        <ele>137</ele>
        <time>2016-09-14T14:51:44.008Z</time>
      </trkpt>
      <trkpt lat="47.01439" lon="-0.75724">
        <ele>137</ele>
        <time>2016-09-14T14:51:48.008Z</time>
      </trkpt>
      <trkpt lat="47.01435" lon="-0.75723">
        <ele>137</ele>
        <time>2016-09-14T14:51:52.008Z</time>
      </trkpt>
      <trkpt lat="47.0143" lon="-0.75722">
        <ele>137</ele>
        <time>2016-09-14T14:51:56.008Z</time>
      </trkpt>
      <trkpt lat="47.01425" lon="-0.75721">
        <ele>137</ele>
        <time>2016-09-14T14:52:00.008Z</time>
      </trkpt>
      <trkpt lat="47.01421" lon="-0.7572">
        <ele>138</ele>
        <time>2016-09-14T14:52:04.008Z</time>
      </trkpt>
      <trkpt lat="47.01417" lon="-0.7572">
        <ele>138</ele>
        <time>2016-09-14T14:52:08.008Z</time>
      </trkpt>
      <trkpt lat="47.01413" lon="-0.75721">
        <ele>138</ele>
        <time>2016-09-14T14:52:16.008Z</time>
      </trkpt>
      <trkpt lat="47.01409" lon="-0.75724">
        <ele>138</ele>
        <time>2016-09-14T14:52:19.008Z</time>
      </trkpt>
      <trkpt lat="47.01406" lon="-0.75728">
        <ele>138</ele>
        <time>2016-09-14T14:52:22.008Z</time>
      </trkpt>
      <trkpt lat="47.01403" lon="-0.75724">
        <ele>138</ele>
        <time>2016-09-14T14:53:05.008Z</time>
      </trkpt>
      <trkpt lat="47.014" lon="-0.75721">
        <ele>138</ele>
        <time>2016-09-14T14:53:10.008Z</time>
      </trkpt>
      <trkpt lat="47.01396" lon="-0.75716">
        <ele>138</ele>
        <time>2016-09-14T14:53:14.008Z</time>
      </trkpt>
      <trkpt lat="47.01393" lon="-0.75712">
        <ele>138</ele>
        <time>2016-09-14T14:53:18.008Z</time>
      </trkpt>
      <trkpt lat="47.01389" lon="-0.75709">
        <ele>138</ele>
        <time>2016-09-14T14:53:22.008Z</time>
      </trkpt>
      <trkpt lat="47.01385" lon="-0.75707">
        <ele>138</ele>
        <time>2016-09-14T14:53:26.008Z</time>
      </trkpt>
      <trkpt lat="47.01381" lon="-0.75706">
        <ele>138</ele>
        <time>2016-09-14T14:53:30.008Z</time>
      </trkpt>
      <trkpt lat="47.01377" lon="-0.75705">
        <ele>138</ele>
        <time>2016-09-14T14:53:34.008Z</time>
      </trkpt>
      <trkpt lat="47.01373" lon="-0.75704">
        <ele>138</ele>
        <time>2016-09-14T14:53:38.008Z</time>
      </trkpt>
      <trkpt lat="47.01368" lon="-0.75704">
        <ele>138</ele>
        <time>2016-09-14T14:53:42.008Z</time>
      </trkpt>
      <trkpt lat="47.01364" lon="-0.75704">
        <ele>138</ele>
        <time>2016-09-14T14:53:46.008Z</time>
      </trkpt>
      <trkpt lat="47.01359" lon="-0.75705">
        <ele>138</ele>
        <time>2016-09-14T14:53:49.008Z</time>
      </trkpt>
      <trkpt lat="47.01355" lon="-0.75705">
        <ele>138</ele>
        <time>2016-09-14T14:53:52.008Z</time>
      </trkpt>
      <trkpt lat="47.01351" lon="-0.75708">
        <ele>138</ele>
        <time>2016-09-14T14:53:56.008Z</time>
      </trkpt>
      <trkpt lat="47.01347" lon="-0.75709">
        <ele>138</ele>
        <time>2016-09-14T14:53:59.008Z</time>
      </trkpt>
      <trkpt lat="47.01343" lon="-0.75711">
        <ele>137</ele>
        <time>2016-09-14T14:54:06.008Z</time>
      </trkpt>
      <trkpt lat="47.01339" lon="-0.75711">
        <ele>137</ele>
        <time>2016-09-14T14:54:09.008Z</time>
      </trkpt>
      <trkpt lat="47.01328" lon="-0.75709">
        <ele>137</ele>
        <time>2016-09-14T14:54:17.008Z</time>
      </trkpt>
      <trkpt lat="47.01323" lon="-0.75709">
        <ele>137</ele>
        <time>2016-09-14T14:54:20.008Z</time>
      </trkpt>
      <trkpt lat="47.01312" lon="-0.75707">
        <ele>137</ele>
        <time>2016-09-14T14:54:28.008Z</time>
      </trkpt>
      <trkpt lat="47.01302" lon="-0.75709">
        <ele>137</ele>
        <time>2016-09-14T14:54:36.008Z</time>
      </trkpt>
      <trkpt lat="47.01298" lon="-0.75711">
        <ele>137</ele>
        <time>2016-09-14T14:54:40.008Z</time>
      </trkpt>
      <trkpt lat="47.01293" lon="-0.7571">
        <ele>137</ele>
        <time>2016-09-14T14:54:54.008Z</time>
      </trkpt>
      <trkpt lat="47.01289" lon="-0.7571">
        <ele>137</ele>
        <time>2016-09-14T14:54:57.008Z</time>
      </trkpt>
      <trkpt lat="47.01285" lon="-0.75708">
        <ele>137.45714584258</ele>
        <time>2016-09-14T14:55:01.008Z</time>
      </trkpt>
      <trkpt lat="47.01281" lon="-0.75705">
        <ele>138</ele>
        <time>2016-09-14T14:55:05.008Z</time>
      </trkpt>
      <trkpt lat="47.01277" lon="-0.75704">
        <ele>138</ele>
        <time>2016-09-14T14:55:09.008Z</time>
      </trkpt>
      <trkpt lat="47.01273" lon="-0.75704">
        <ele>138</ele>
        <time>2016-09-14T14:55:12.008Z</time>
      </trkpt>
      <trkpt lat="47.0127" lon="-0.75705">
        <ele>138</ele>
        <time>2016-09-14T14:55:15.008Z</time>
      </trkpt>
      <trkpt lat="47.01265" lon="-0.75704">
        <ele>138</ele>
        <time>2016-09-14T14:55:20.008Z</time>
      </trkpt>
      <trkpt lat="47.01261" lon="-0.75705">
        <ele>137</ele>
        <time>2016-09-14T14:55:23.008Z</time>
      </trkpt>
      <trkpt lat="47.01257" lon="-0.75705">
        <ele>137</ele>
        <time>2016-09-14T14:55:26.008Z</time>
      </trkpt>
      <trkpt lat="47.01253" lon="-0.75705">
        <ele>137</ele>
        <time>2016-09-14T14:55:29.008Z</time>
      </trkpt>
      <trkpt lat="47.0125" lon="-0.75704">
        <ele>139</ele>
        <time>2016-09-14T14:55:33.008Z</time>
      </trkpt>
      <trkpt lat="47.01246" lon="-0.75705">
        <ele>139</ele>
        <time>2016-09-14T14:55:37.008Z</time>
      </trkpt>
      <trkpt lat="47.01242" lon="-0.75705">
        <ele>139</ele>
        <time>2016-09-14T14:55:41.008Z</time>
      </trkpt>
      <trkpt lat="47.01238" lon="-0.75705">
        <ele>139</ele>
        <time>2016-09-14T14:55:44.008Z</time>
      </trkpt>
      <trkpt lat="47.01234" lon="-0.75705">
        <ele>139</ele>
        <time>2016-09-14T14:55:47.008Z</time>
      </trkpt>
      <trkpt lat="47.0123" lon="-0.75705">
        <ele>139</ele>
        <time>2016-09-14T14:55:50.008Z</time>
      </trkpt>
      <trkpt lat="47.01225" lon="-0.75704">
        <ele>138</ele>
        <time>2016-09-14T14:55:54.008Z</time>
      </trkpt>
      <trkpt lat="47.0122" lon="-0.75705">
        <ele>138</ele>
        <time>2016-09-14T14:55:58.008Z</time>
      </trkpt>
      <trkpt lat="47.01216" lon="-0.75706">
        <ele>138</ele>
        <time>2016-09-14T14:56:02.008Z</time>
      </trkpt>
      <trkpt lat="47.01211" lon="-0.75706">
        <ele>138</ele>
        <time>2016-09-14T14:56:06.008Z</time>
      </trkpt>
      <trkpt lat="47.01207" lon="-0.75705">
        <ele>138</ele>
        <time>2016-09-14T14:56:09.008Z</time>
      </trkpt>
      <trkpt lat="47.01203" lon="-0.75705">
        <ele>138</ele>
        <time>2016-09-14T14:56:13.008Z</time>
      </trkpt>
      <trkpt lat="47.01198" lon="-0.75705">
        <ele>138</ele>
        <time>2016-09-14T14:56:17.008Z</time>
      </trkpt>
      <trkpt lat="47.01194" lon="-0.75705">
        <ele>138</ele>
        <time>2016-09-14T14:56:21.008Z</time>
      </trkpt>
      <trkpt lat="47.0119" lon="-0.75705">
        <ele>139</ele>
        <time>2016-09-14T14:56:24.008Z</time>
      </trkpt>
      <trkpt lat="47.01186" lon="-0.75704">
        <ele>139</ele>
        <time>2016-09-14T14:56:28.008Z</time>
      </trkpt>
      <trkpt lat="47.01182" lon="-0.75704">
        <ele>139</ele>
        <time>2016-09-14T14:56:32.008Z</time>
      </trkpt>
      <trkpt lat="47.01177" lon="-0.75705">
        <ele>139</ele>
        <time>2016-09-14T14:56:36.008Z</time>
      </trkpt>
      <trkpt lat="47.01172" lon="-0.75705">
        <ele>139</ele>
        <time>2016-09-14T14:56:40.008Z</time>
      </trkpt>
      <trkpt lat="47.01168" lon="-0.75705">
        <ele>139</ele>
        <time>2016-09-14T14:56:44.008Z</time>
      </trkpt>
      <trkpt lat="47.01164" lon="-0.75705">
        <ele>139</ele>
        <time>2016-09-14T14:56:49.008Z</time>
      </trkpt>
      <trkpt lat="47.01161" lon="-0.75708">
        <ele>140</ele>
        <time>2016-09-14T14:56:54.008Z</time>
      </trkpt>
      <trkpt lat="47.01157" lon="-0.75707">
        <ele>140</ele>
        <time>2016-09-14T14:56:59.008Z</time>
      </trkpt>
      <trkpt lat="47.01153" lon="-0.75707">
        <ele>141</ele>
        <time>2016-09-14T14:57:02.008Z</time>
      </trkpt>
      <trkpt lat="47.01149" lon="-0.75708">
        <ele>141</ele>
        <time>2016-09-14T14:57:06.008Z</time>
      </trkpt>
      <trkpt lat="47.01145" lon="-0.75711">
        <ele>141</ele>
        <time>2016-09-14T14:57:12.008Z</time>
      </trkpt>
      <trkpt lat="47.01147" lon="-0.75718">
        <ele>141</ele>
        <time>2016-09-14T14:57:17.008Z</time>
      </trkpt>
      <trkpt lat="47.0115" lon="-0.75723">
        <ele>141</ele>
        <time>2016-09-14T14:57:20.008Z</time>
      </trkpt>
      <trkpt lat="47.01154" lon="-0.75728">
        <ele>141</ele>
        <time>2016-09-14T14:57:25.008Z</time>
      </trkpt>
      <trkpt lat="47.01153" lon="-0.75734">
        <ele>141</ele>
        <time>2016-09-14T14:57:28.008Z</time>
      </trkpt>
      <trkpt lat="47.01151" lon="-0.7574">
        <ele>141</ele>
        <time>2016-09-14T14:57:32.008Z</time>
      </trkpt>
      <trkpt lat="47.01152" lon="-0.75746">
        <ele>141</ele>
        <time>2016-09-14T14:57:36.008Z</time>
      </trkpt>
      <trkpt lat="47.01154" lon="-0.75751">
        <ele>141</ele>
        <time>2016-09-14T14:57:39.008Z</time>
      </trkpt>
      <trkpt lat="47.01156" lon="-0.75756">
        <ele>141</ele>
        <time>2016-09-14T14:57:43.008Z</time>
      </trkpt>
      <trkpt lat="47.01151" lon="-0.75758">
        <ele>141</ele>
        <time>2016-09-14T14:57:49.008Z</time>
      </trkpt>
      <trkpt lat="47.01148" lon="-0.75757">
        <ele>139</ele>
        <time>2016-09-14T14:57:52.008Z</time>
      </trkpt>
      <trkpt lat="47.01144" lon="-0.75757">
        <ele>139</ele>
        <time>2016-09-14T14:57:55.008Z</time>
      </trkpt>
      <trkpt lat="47.01139" lon="-0.75756">
        <ele>139</ele>
        <time>2016-09-14T14:57:59.008Z</time>
      </trkpt>
      <trkpt lat="47.01136" lon="-0.75755">
        <ele>140</ele>
        <time>2016-09-14T14:58:02.008Z</time>
      </trkpt>
      <trkpt lat="47.01131" lon="-0.75755">
        <ele>140</ele>
        <time>2016-09-14T14:58:06.008Z</time>
      </trkpt>
      <trkpt lat="47.01127" lon="-0.75755">
        <ele>140</ele>
        <time>2016-09-14T14:58:10.008Z</time>
      </trkpt>
      <trkpt lat="47.01123" lon="-0.75755">
        <ele>140</ele>
        <time>2016-09-14T14:58:13.008Z</time>
      </trkpt>
      <trkpt lat="47.01119" lon="-0.75755">
        <ele>140</ele>
        <time>2016-09-14T14:58:16.008Z</time>
      </trkpt>
      <trkpt lat="47.01114" lon="-0.75755">
        <ele>140</ele>
        <time>2016-09-14T14:58:20.008Z</time>
      </trkpt>
      <trkpt lat="47.0111" lon="-0.75756">
        <ele>139</ele>
        <time>2016-09-14T14:58:24.008Z</time>
      </trkpt>
      <trkpt lat="47.01106" lon="-0.75756">
        <ele>139</ele>
        <time>2016-09-14T14:58:28.008Z</time>
      </trkpt>
      <trkpt lat="47.01101" lon="-0.75754">
        <ele>139</ele>
        <time>2016-09-14T14:58:32.008Z</time>
      </trkpt>
      <trkpt lat="47.01097" lon="-0.75755">
        <ele>139</ele>
        <time>2016-09-14T14:58:36.008Z</time>
      </trkpt>
      <trkpt lat="47.01092" lon="-0.75755">
        <ele>139</ele>
        <time>2016-09-14T14:58:40.008Z</time>
      </trkpt>
      <trkpt lat="47.01088" lon="-0.75756">
        <ele>139</ele>
        <time>2016-09-14T14:58:43.008Z</time>
      </trkpt>
      <trkpt lat="47.01084" lon="-0.75756">
        <ele>139</ele>
        <time>2016-09-14T14:58:46.008Z</time>
      </trkpt>
      <trkpt lat="47.01081" lon="-0.75755">
        <ele>139</ele>
        <time>2016-09-14T14:58:49.008Z</time>
      </trkpt>
      <trkpt lat="47.01077" lon="-0.75756">
        <ele>138</ele>
        <time>2016-09-14T14:58:52.008Z</time>
      </trkpt>
      <trkpt lat="47.01073" lon="-0.75756">
        <ele>138</ele>
        <time>2016-09-14T14:58:55.008Z</time>
      </trkpt>
      <trkpt lat="47.01069" lon="-0.75755">
        <ele>138</ele>
        <time>2016-09-14T14:58:59.008Z</time>
      </trkpt>
      <trkpt lat="47.01065" lon="-0.75755">
        <ele>139</ele>
        <time>2016-09-14T14:59:02.008Z</time>
      </trkpt>
      <trkpt lat="47.0106" lon="-0.75754">
        <ele>139</ele>
        <time>2016-09-14T14:59:06.008Z</time>
      </trkpt>
      <trkpt lat="47.01056" lon="-0.75754">
        <ele>139</ele>
        <time>2016-09-14T14:59:09.008Z</time>
      </trkpt>
      <trkpt lat="47.01052" lon="-0.75755">
        <ele>139</ele>
        <time>2016-09-14T14:59:12.008Z</time>
      </trkpt>
      <trkpt lat="47.01048" lon="-0.75754">
        <ele>139</ele>
        <time>2016-09-14T14:59:15.008Z</time>
      </trkpt>
      <trkpt lat="47.01044" lon="-0.75754">
        <ele>139</ele>
        <time>2016-09-14T14:59:18.008Z</time>
      </trkpt>
      <trkpt lat="47.0104" lon="-0.75755">
        <ele>139</ele>
        <time>2016-09-14T14:59:22.008Z</time>
      </trkpt>
      <trkpt lat="47.01035" lon="-0.75756">
        <ele>139</ele>
        <time>2016-09-14T14:59:26.008Z</time>
      </trkpt>
      <trkpt lat="47.01031" lon="-0.75756">
        <ele>139</ele>
        <time>2016-09-14T14:59:30.008Z</time>
      </trkpt>
      <trkpt lat="47.01027" lon="-0.75755">
        <ele>139</ele>
        <time>2016-09-14T14:59:33.008Z</time>
      </trkpt>
      <trkpt lat="47.01023" lon="-0.75755">
        <ele>139</ele>
        <time>2016-09-14T14:59:37.008Z</time>
      </trkpt>
      <trkpt lat="47.01018" lon="-0.75754">
        <ele>139</ele>
        <time>2016-09-14T14:59:41.008Z</time>
      </trkpt>
      <trkpt lat="47.01014" lon="-0.75755">
        <ele>139</ele>
        <time>2016-09-14T14:59:44.008Z</time>
      </trkpt>
      <trkpt lat="47.0101" lon="-0.75755">
        <ele>139</ele>
        <time>2016-09-14T14:59:48.008Z</time>
      </trkpt>
      <trkpt lat="47.01007" lon="-0.75755">
        <ele>139</ele>
        <time>2016-09-14T14:59:52.008Z</time>
      </trkpt>
      <trkpt lat="47.01002" lon="-0.75755">
        <ele>139</ele>
        <time>2016-09-14T14:59:56.008Z</time>
      </trkpt>
      <trkpt lat="47.00999" lon="-0.75755">
        <ele>139</ele>
        <time>2016-09-14T15:00:00.008Z</time>
      </trkpt>
      <trkpt lat="47.00995" lon="-0.75755">
        <ele>139</ele>
        <time>2016-09-14T15:00:04.008Z</time>
      </trkpt>
      <trkpt lat="47.00991" lon="-0.75756">
        <ele>139</ele>
        <time>2016-09-14T15:00:09.008Z</time>
      </trkpt>
      <trkpt lat="47.00987" lon="-0.75756">
        <ele>139</ele>
        <time>2016-09-14T15:00:18.008Z</time>
      </trkpt>
      <trkpt lat="47.00983" lon="-0.75756">
        <ele>139</ele>
        <time>2016-09-14T15:00:24.008Z</time>
      </trkpt>
      <trkpt lat="47.00979" lon="-0.75754">
        <ele>139</ele>
        <time>2016-09-14T15:00:51.008Z</time>
      </trkpt>
      <trkpt lat="47.00975" lon="-0.75754">
        <ele>138</ele>
        <time>2016-09-14T15:00:58.008Z</time>
      </trkpt>
      <trkpt lat="47.00971" lon="-0.75755">
        <ele>138</ele>
        <time>2016-09-14T15:01:03.008Z</time>
      </trkpt>
      <trkpt lat="47.00967" lon="-0.75757">
        <ele>138</ele>
        <time>2016-09-14T15:01:08.008Z</time>
      </trkpt>
      <trkpt lat="47.00963" lon="-0.75759">
        <ele>138</ele>
        <time>2016-09-14T15:01:14.008Z</time>
      </trkpt>
      <trkpt lat="47.00959" lon="-0.7576">
        <ele>138</ele>
        <time>2016-09-14T15:01:19.008Z</time>
      </trkpt>
      <trkpt lat="47.00955" lon="-0.7576">
        <ele>138</ele>
        <time>2016-09-14T15:01:24.008Z</time>
      </trkpt>
      <trkpt lat="47.0095" lon="-0.75759">
        <ele>138</ele>
        <time>2016-09-14T15:01:29.008Z</time>
      </trkpt>
      <trkpt lat="47.00947" lon="-0.7576">
        <ele>138</ele>
        <time>2016-09-14T15:01:33.008Z</time>
      </trkpt>
      <trkpt lat="47.00942" lon="-0.7576">
        <ele>138</ele>
        <time>2016-09-14T15:01:37.008Z</time>
      </trkpt>
      <trkpt lat="47.00938" lon="-0.7576">
        <ele>138</ele>
        <time>2016-09-14T15:01:41.008Z</time>
      </trkpt>
      <trkpt lat="47.00935" lon="-0.7576">
        <ele>138</ele>
        <time>2016-09-14T15:01:45.008Z</time>
      </trkpt>
      <trkpt lat="47.00931" lon="-0.7576">
        <ele>138</ele>
        <time>2016-09-14T15:01:49.008Z</time>
      </trkpt>
      <trkpt lat="47.00927" lon="-0.7576">
        <ele>138</ele>
        <time>2016-09-14T15:01:53.008Z</time>
      </trkpt>
      <trkpt lat="47.00923" lon="-0.75759">
        <ele>138</ele>
        <time>2016-09-14T15:01:57.008Z</time>
      </trkpt>
      <trkpt lat="47.00919" lon="-0.7576">
        <ele>137.58584519885</ele>
        <time>2016-09-14T15:02:01.008Z</time>
      </trkpt>
      <trkpt lat="47.00915" lon="-0.75759">
        <ele>137</ele>
        <time>2016-09-14T15:02:05.008Z</time>
      </trkpt>
      <trkpt lat="47.0091" lon="-0.75759">
        <ele>137</ele>
        <time>2016-09-14T15:02:09.008Z</time>
      </trkpt>
      <trkpt lat="47.00906" lon="-0.7576">
        <ele>138</ele>
        <time>2016-09-14T15:02:13.008Z</time>
      </trkpt>
      <trkpt lat="47.00901" lon="-0.75759">
        <ele>138</ele>
        <time>2016-09-14T15:02:18.008Z</time>
      </trkpt>
      <trkpt lat="47.00897" lon="-0.75759">
        <ele>138</ele>
        <time>2016-09-14T15:02:22.008Z</time>
      </trkpt>
      <trkpt lat="47.00893" lon="-0.7576">
        <ele>138</ele>
        <time>2016-09-14T15:02:26.008Z</time>
      </trkpt>
      <trkpt lat="47.00889" lon="-0.75761">
        <ele>138</ele>
        <time>2016-09-14T15:02:31.008Z</time>
      </trkpt>
      <trkpt lat="47.00885" lon="-0.7576">
        <ele>138</ele>
        <time>2016-09-14T15:02:35.008Z</time>
      </trkpt>
      <trkpt lat="47.00881" lon="-0.7576">
        <ele>138</ele>
        <time>2016-09-14T15:02:38.008Z</time>
      </trkpt>
      <trkpt lat="47.00877" lon="-0.7576">
        <ele>137.88667491573</ele>
        <time>2016-09-14T15:02:41.008Z</time>
      </trkpt>
      <trkpt lat="47.00874" lon="-0.7576">
        <ele>137</ele>
        <time>2016-09-14T15:02:44.008Z</time>
      </trkpt>
      <trkpt lat="47.00869" lon="-0.75761">
        <ele>137</ele>
        <time>2016-09-14T15:02:48.008Z</time>
      </trkpt>
      <trkpt lat="47.00865" lon="-0.75761">
        <ele>137</ele>
        <time>2016-09-14T15:02:52.008Z</time>
      </trkpt>
      <trkpt lat="47.00858" lon="-0.75762">
        <ele>137</ele>
        <time>2016-09-14T15:02:57.008Z</time>
      </trkpt>
      <trkpt lat="47.00854" lon="-0.75762">
        <ele>137</ele>
        <time>2016-09-14T15:03:00.008Z</time>
      </trkpt>
      <trkpt lat="47.0085" lon="-0.75761">
        <ele>137</ele>
        <time>2016-09-14T15:03:04.008Z</time>
      </trkpt>
      <trkpt lat="47.00846" lon="-0.75761">
        <ele>137</ele>
        <time>2016-09-14T15:03:08.008Z</time>
      </trkpt>
      <trkpt lat="47.00842" lon="-0.75761">
        <ele>137</ele>
        <time>2016-09-14T15:03:12.008Z</time>
      </trkpt>
      <trkpt lat="47.00838" lon="-0.75761">
        <ele>137</ele>
        <time>2016-09-14T15:03:17.008Z</time>
      </trkpt>
      <trkpt lat="47.00834" lon="-0.75761">
        <ele>137</ele>
        <time>2016-09-14T15:03:21.008Z</time>
      </trkpt>
      <trkpt lat="47.00829" lon="-0.75761">
        <ele>137</ele>
        <time>2016-09-14T15:03:25.008Z</time>
      </trkpt>
      <trkpt lat="47.00826" lon="-0.75761">
        <ele>137</ele>
        <time>2016-09-14T15:03:29.008Z</time>
      </trkpt>
      <trkpt lat="47.00815" lon="-0.75759">
        <ele>137</ele>
        <time>2016-09-14T15:03:38.008Z</time>
      </trkpt>
      <trkpt lat="47.0081" lon="-0.75757">
        <ele>137</ele>
        <time>2016-09-14T15:03:42.008Z</time>
      </trkpt>
      <trkpt lat="47.00806" lon="-0.75756">
        <ele>137</ele>
        <time>2016-09-14T15:03:45.008Z</time>
      </trkpt>
      <trkpt lat="47.00801" lon="-0.75754">
        <ele>137</ele>
        <time>2016-09-14T15:03:49.008Z</time>
      </trkpt>
      <trkpt lat="47.00797" lon="-0.75753">
        <ele>138</ele>
        <time>2016-09-14T15:03:53.008Z</time>
      </trkpt>
      <trkpt lat="47.00793" lon="-0.75754">
        <ele>138</ele>
        <time>2016-09-14T15:03:56.008Z</time>
      </trkpt>
      <trkpt lat="47.00789" lon="-0.75753">
        <ele>138</ele>
        <time>2016-09-14T15:04:00.008Z</time>
      </trkpt>
      <trkpt lat="47.00785" lon="-0.75753">
        <ele>138</ele>
        <time>2016-09-14T15:04:06.008Z</time>
      </trkpt>
      <trkpt lat="47.0078" lon="-0.75754">
        <ele>138</ele>
        <time>2016-09-14T15:04:09.008Z</time>
      </trkpt>
      <trkpt lat="47.00776" lon="-0.75754">
        <ele>137</ele>
        <time>2016-09-14T15:04:13.008Z</time>
      </trkpt>
      <trkpt lat="47.00771" lon="-0.75754">
        <ele>137</ele>
        <time>2016-09-14T15:04:17.008Z</time>
      </trkpt>
      <trkpt lat="47.00767" lon="-0.75755">
        <ele>137</ele>
        <time>2016-09-14T15:04:21.008Z</time>
      </trkpt>
      <trkpt lat="47.00763" lon="-0.75755">
        <ele>137</ele>
        <time>2016-09-14T15:04:24.008Z</time>
      </trkpt>
      <trkpt lat="47.00759" lon="-0.75755">
        <ele>137</ele>
        <time>2016-09-14T15:04:27.008Z</time>
      </trkpt>
      <trkpt lat="47.00755" lon="-0.75755">
        <ele>137</ele>
        <time>2016-09-14T15:04:30.008Z</time>
      </trkpt>
      <trkpt lat="47.00751" lon="-0.75754">
        <ele>137</ele>
        <time>2016-09-14T15:04:34.008Z</time>
      </trkpt>
      <trkpt lat="47.00747" lon="-0.75754">
        <ele>137</ele>
        <time>2016-09-14T15:04:37.008Z</time>
      </trkpt>
      <trkpt lat="47.00743" lon="-0.75753">
        <ele>137</ele>
        <time>2016-09-14T15:04:41.008Z</time>
      </trkpt>
      <trkpt lat="47.00739" lon="-0.75752">
        <ele>137</ele>
        <time>2016-09-14T15:04:44.008Z</time>
      </trkpt>
      <trkpt lat="47.00734" lon="-0.75751">
        <ele>137</ele>
        <time>2016-09-14T15:04:48.008Z</time>
      </trkpt>
      <trkpt lat="47.0073" lon="-0.75751">
        <ele>137</ele>
        <time>2016-09-14T15:04:51.008Z</time>
      </trkpt>
      <trkpt lat="47.00727" lon="-0.75751">
        <ele>137</ele>
        <time>2016-09-14T15:04:54.008Z</time>
      </trkpt>
      <trkpt lat="47.00723" lon="-0.75749">
        <ele>137</ele>
        <time>2016-09-14T15:04:58.008Z</time>
      </trkpt>
      <trkpt lat="47.00719" lon="-0.75748">
        <ele>137</ele>
        <time>2016-09-14T15:05:01.008Z</time>
      </trkpt>
      <trkpt lat="47.00714" lon="-0.75746">
        <ele>137</ele>
        <time>2016-09-14T15:05:05.008Z</time>
      </trkpt>
      <trkpt lat="47.0071" lon="-0.75745">
        <ele>137</ele>
        <time>2016-09-14T15:05:09.008Z</time>
      </trkpt>
      <trkpt lat="47.00706" lon="-0.75744">
        <ele>137</ele>
        <time>2016-09-14T15:05:12.008Z</time>
      </trkpt>
      <trkpt lat="47.00702" lon="-0.75741">
        <ele>137</ele>
        <time>2016-09-14T15:05:15.008Z</time>
      </trkpt>
      <trkpt lat="47.00698" lon="-0.75739">
        <ele>137</ele>
        <time>2016-09-14T15:05:19.008Z</time>
      </trkpt>
      <trkpt lat="47.00694" lon="-0.75737">
        <ele>137</ele>
        <time>2016-09-14T15:05:23.008Z</time>
      </trkpt>
      <trkpt lat="47.0069" lon="-0.75737">
        <ele>137</ele>
        <time>2016-09-14T15:05:28.008Z</time>
      </trkpt>
      <trkpt lat="47.00686" lon="-0.75735">
        <ele>137</ele>
        <time>2016-09-14T15:05:32.008Z</time>
      </trkpt>
      <trkpt lat="47.00683" lon="-0.75734">
        <ele>137</ele>
        <time>2016-09-14T15:05:35.008Z</time>
      </trkpt>
      <trkpt lat="47.00679" lon="-0.75738">
        <ele>137</ele>
        <time>2016-09-14T15:05:39.008Z</time>
      </trkpt>
      <trkpt lat="47.00678" lon="-0.75733">
        <ele>137</ele>
        <time>2016-09-14T15:06:51.008Z</time>
      </trkpt>
      <trkpt lat="47.00675" lon="-0.75729">
        <ele>137</ele>
        <time>2016-09-14T15:08:09.008Z</time>
      </trkpt>
      <trkpt lat="47.0067" lon="-0.75726">
        <ele>137</ele>
        <time>2016-09-14T15:08:12.008Z</time>
      </trkpt>
      <trkpt lat="47.00667" lon="-0.75722">
        <ele>137</ele>
        <time>2016-09-14T15:08:18.008Z</time>
      </trkpt>
      <trkpt lat="47.0067" lon="-0.75726">
        <ele>137</ele>
        <time>2016-09-14T15:09:07.008Z</time>
      </trkpt>
      <trkpt lat="47.00666" lon="-0.75725">
        <ele>137</ele>
        <time>2016-09-14T15:09:50.008Z</time>
      </trkpt>
      <trkpt lat="47.00662" lon="-0.75724">
        <ele>137</ele>
        <time>2016-09-14T15:09:54.008Z</time>
      </trkpt>
      <trkpt lat="47.00658" lon="-0.75722">
        <ele>137</ele>
        <time>2016-09-14T15:09:58.008Z</time>
      </trkpt>
      <trkpt lat="47.00653" lon="-0.75719">
        <ele>137</ele>
        <time>2016-09-14T15:10:02.008Z</time>
      </trkpt>
      <trkpt lat="47.00649" lon="-0.75717">
        <ele>137</ele>
        <time>2016-09-14T15:10:06.008Z</time>
      </trkpt>
      <trkpt lat="47.00644" lon="-0.75715">
        <ele>137</ele>
        <time>2016-09-14T15:10:10.008Z</time>
      </trkpt>
      <trkpt lat="47.00641" lon="-0.75713">
        <ele>137</ele>
        <time>2016-09-14T15:10:13.008Z</time>
      </trkpt>
      <trkpt lat="47.00637" lon="-0.7571">
        <ele>137</ele>
        <time>2016-09-14T15:10:17.008Z</time>
      </trkpt>
      <trkpt lat="47.00634" lon="-0.75707">
        <ele>137</ele>
        <time>2016-09-14T15:10:20.008Z</time>
      </trkpt>
      <trkpt lat="47.0063" lon="-0.75705">
        <ele>137</ele>
        <time>2016-09-14T15:10:24.008Z</time>
      </trkpt>
      <trkpt lat="47.00626" lon="-0.75703">
        <ele>137</ele>
        <time>2016-09-14T15:10:28.008Z</time>
      </trkpt>
      <trkpt lat="47.00622" lon="-0.75701">
        <ele>137</ele>
        <time>2016-09-14T15:10:31.008Z</time>
      </trkpt>
      <trkpt lat="47.00618" lon="-0.75699">
        <ele>137</ele>
        <time>2016-09-14T15:10:35.008Z</time>
      </trkpt>
      <trkpt lat="47.00614" lon="-0.75697">
        <ele>137</ele>
        <time>2016-09-14T15:10:38.008Z</time>
      </trkpt>
      <trkpt lat="47.0061" lon="-0.75694">
        <ele>137</ele>
        <time>2016-09-14T15:10:42.008Z</time>
      </trkpt>
      <trkpt lat="47.00606" lon="-0.75691">
        <ele>137</ele>
        <time>2016-09-14T15:10:45.008Z</time>
      </trkpt>
      <trkpt lat="47.00603" lon="-0.75688">
        <ele>137</ele>
        <time>2016-09-14T15:10:48.008Z</time>
      </trkpt>
      <trkpt lat="47.00599" lon="-0.75685">
        <ele>137</ele>
        <time>2016-09-14T15:10:51.008Z</time>
      </trkpt>
      <trkpt lat="47.00595" lon="-0.75682">
        <ele>137</ele>
        <time>2016-09-14T15:10:55.008Z</time>
      </trkpt>
      <trkpt lat="47.00591" lon="-0.75679">
        <ele>137</ele>
        <time>2016-09-14T15:10:58.008Z</time>
      </trkpt>
      <trkpt lat="47.00588" lon="-0.75677">
        <ele>137</ele>
        <time>2016-09-14T15:11:02.008Z</time>
      </trkpt>
      <trkpt lat="47.00583" lon="-0.75674">
        <ele>137</ele>
        <time>2016-09-14T15:11:06.008Z</time>
      </trkpt>
      <trkpt lat="47.00579" lon="-0.7567">
        <ele>137</ele>
        <time>2016-09-14T15:11:09.008Z</time>
      </trkpt>
      <trkpt lat="47.00576" lon="-0.75668">
        <ele>137</ele>
        <time>2016-09-14T15:11:12.008Z</time>
      </trkpt>
      <trkpt lat="47.00572" lon="-0.75664">
        <ele>137</ele>
        <time>2016-09-14T15:11:16.008Z</time>
      </trkpt>
      <trkpt lat="47.00568" lon="-0.7566">
        <ele>137</ele>
        <time>2016-09-14T15:11:21.008Z</time>
      </trkpt>
      <trkpt lat="47.00563" lon="-0.75656">
        <ele>137</ele>
        <time>2016-09-14T15:11:25.008Z</time>
      </trkpt>
      <trkpt lat="47.00559" lon="-0.75655">
        <ele>137</ele>
        <time>2016-09-14T15:11:28.008Z</time>
      </trkpt>
      <trkpt lat="47.00556" lon="-0.75653">
        <ele>137</ele>
        <time>2016-09-14T15:11:31.008Z</time>
      </trkpt>
      <trkpt lat="47.00552" lon="-0.75651">
        <ele>137</ele>
        <time>2016-09-14T15:11:35.008Z</time>
      </trkpt>
      <trkpt lat="47.00549" lon="-0.75648">
        <ele>137</ele>
        <time>2016-09-14T15:11:39.008Z</time>
      </trkpt>
      <trkpt lat="47.00545" lon="-0.75645">
        <ele>137</ele>
        <time>2016-09-14T15:11:43.008Z</time>
      </trkpt>
      <trkpt lat="47.00541" lon="-0.75643">
        <ele>137</ele>
        <time>2016-09-14T15:11:46.008Z</time>
      </trkpt>
      <trkpt lat="47.00537" lon="-0.75641">
        <ele>137</ele>
        <time>2016-09-14T15:11:49.008Z</time>
      </trkpt>
      <trkpt lat="47.00533" lon="-0.75639">
        <ele>137</ele>
        <time>2016-09-14T15:11:52.008Z</time>
      </trkpt>
      <trkpt lat="47.00528" lon="-0.75637">
        <ele>137</ele>
        <time>2016-09-14T15:11:56.008Z</time>
      </trkpt>
      <trkpt lat="47.00525" lon="-0.75633">
        <ele>137</ele>
        <time>2016-09-14T15:12:00.008Z</time>
      </trkpt>
      <trkpt lat="47.00521" lon="-0.75631">
        <ele>137</ele>
        <time>2016-09-14T15:12:03.008Z</time>
      </trkpt>
      <trkpt lat="47.00518" lon="-0.75628">
        <ele>137</ele>
        <time>2016-09-14T15:12:06.008Z</time>
      </trkpt>
      <trkpt lat="47.00514" lon="-0.75625">
        <ele>137</ele>
        <time>2016-09-14T15:12:09.008Z</time>
      </trkpt>
      <trkpt lat="47.0051" lon="-0.75623">
        <ele>137</ele>
        <time>2016-09-14T15:12:12.008Z</time>
      </trkpt>
      <trkpt lat="47.00506" lon="-0.7562">
        <ele>137</ele>
        <time>2016-09-14T15:12:15.008Z</time>
      </trkpt>
      <trkpt lat="47.00502" lon="-0.75617">
        <ele>137</ele>
        <time>2016-09-14T15:12:19.008Z</time>
      </trkpt>
      <trkpt lat="47.00498" lon="-0.75615">
        <ele>137</ele>
        <time>2016-09-14T15:12:23.008Z</time>
      </trkpt>
      <trkpt lat="47.00494" lon="-0.75612">
        <ele>137</ele>
        <time>2016-09-14T15:12:26.008Z</time>
      </trkpt>
      <trkpt lat="47.0049" lon="-0.75609">
        <ele>137</ele>
        <time>2016-09-14T15:12:29.008Z</time>
      </trkpt>
      <trkpt lat="47.00486" lon="-0.75606">
        <ele>137</ele>
        <time>2016-09-14T15:12:32.008Z</time>
      </trkpt>
      <trkpt lat="47.00482" lon="-0.75602">
        <ele>137</ele>
        <time>2016-09-14T15:12:36.008Z</time>
      </trkpt>
      <trkpt lat="47.00479" lon="-0.756">
        <ele>137</ele>
        <time>2016-09-14T15:12:39.008Z</time>
      </trkpt>
      <trkpt lat="47.00475" lon="-0.75598">
        <ele>137</ele>
        <time>2016-09-14T15:12:42.008Z</time>
      </trkpt>
      <trkpt lat="47.00472" lon="-0.75595">
        <ele>137</ele>
        <time>2016-09-14T15:12:45.008Z</time>
      </trkpt>
      <trkpt lat="47.00468" lon="-0.75593">
        <ele>137</ele>
        <time>2016-09-14T15:12:48.008Z</time>
      </trkpt>
      <trkpt lat="47.00465" lon="-0.7559">
        <ele>137</ele>
        <time>2016-09-14T15:12:51.008Z</time>
      </trkpt>
      <trkpt lat="47.00461" lon="-0.75587">
        <ele>137</ele>
        <time>2016-09-14T15:12:54.008Z</time>
      </trkpt>
      <trkpt lat="47.00458" lon="-0.75585">
        <ele>137</ele>
        <time>2016-09-14T15:12:57.008Z</time>
      </trkpt>
      <trkpt lat="47.00454" lon="-0.75581">
        <ele>137</ele>
        <time>2016-09-14T15:13:01.008Z</time>
      </trkpt>
      <trkpt lat="47.00449" lon="-0.75577">
        <ele>137</ele>
        <time>2016-09-14T15:13:04.008Z</time>
      </trkpt>
      <trkpt lat="47.00445" lon="-0.75575">
        <ele>137</ele>
        <time>2016-09-14T15:13:07.008Z</time>
      </trkpt>
      <trkpt lat="47.00441" lon="-0.75571">
        <ele>137</ele>
        <time>2016-09-14T15:13:11.008Z</time>
      </trkpt>
      <trkpt lat="47.00437" lon="-0.75569">
        <ele>137</ele>
        <time>2016-09-14T15:13:15.008Z</time>
      </trkpt>
      <trkpt lat="47.00433" lon="-0.75567">
        <ele>137</ele>
        <time>2016-09-14T15:13:18.008Z</time>
      </trkpt>
      <trkpt lat="47.0043" lon="-0.75563">
        <ele>137</ele>
        <time>2016-09-14T15:13:23.008Z</time>
      </trkpt>
      <trkpt lat="47.00428" lon="-0.75558">
        <ele>137</ele>
        <time>2016-09-14T15:13:29.008Z</time>
      </trkpt>
      <trkpt lat="47.00427" lon="-0.75552">
        <ele>137</ele>
        <time>2016-09-14T15:13:34.008Z</time>
      </trkpt>
      <trkpt lat="47.00425" lon="-0.75547">
        <ele>137</ele>
        <time>2016-09-14T15:13:37.008Z</time>
      </trkpt>
      <trkpt lat="47.00423" lon="-0.75541">
        <ele>137</ele>
        <time>2016-09-14T15:13:41.008Z</time>
      </trkpt>
      <trkpt lat="47.00421" lon="-0.75536">
        <ele>137</ele>
        <time>2016-09-14T15:13:45.008Z</time>
      </trkpt>
      <trkpt lat="47.00418" lon="-0.75533">
        <ele>137</ele>
        <time>2016-09-14T15:13:48.008Z</time>
      </trkpt>
      <trkpt lat="47.00414" lon="-0.75531">
        <ele>133.7999791019</ele>
        <time>2016-09-14T15:13:51.008Z</time>
      </trkpt>
      <trkpt lat="47.0041" lon="-0.75529">
        <ele>129</ele>
        <time>2016-09-14T15:13:54.008Z</time>
      </trkpt>
      <trkpt lat="47.00406" lon="-0.75527">
        <ele>129</ele>
        <time>2016-09-14T15:13:57.008Z</time>
      </trkpt>
      <trkpt lat="47.00397" lon="-0.7552">
        <ele>128</ele>
        <time>2016-09-14T15:14:06.008Z</time>
      </trkpt>
      <trkpt lat="47.00395" lon="-0.75515">
        <ele>128</ele>
        <time>2016-09-14T15:14:09.008Z</time>
      </trkpt>
      <trkpt lat="47.00392" lon="-0.7551">
        <ele>127</ele>
        <time>2016-09-14T15:14:13.008Z</time>
      </trkpt>
      <trkpt lat="47.00388" lon="-0.75507">
        <ele>127</ele>
        <time>2016-09-14T15:14:16.008Z</time>
      </trkpt>
      <trkpt lat="47.00383" lon="-0.75505">
        <ele>127</ele>
        <time>2016-09-14T15:14:19.008Z</time>
      </trkpt>
      <trkpt lat="47.00381" lon="-0.75501">
        <ele>125</ele>
        <time>2016-09-14T15:14:24.008Z</time>
      </trkpt>
      <trkpt lat="47.00381" lon="-0.75494">
        <ele>122</ele>
        <time>2016-09-14T15:14:32.008Z</time>
      </trkpt>
      <trkpt lat="47.00378" lon="-0.75489">
        <ele>122</ele>
        <time>2016-09-14T15:14:37.008Z</time>
      </trkpt>
      <trkpt lat="47.00374" lon="-0.75486">
        <ele>122</ele>
        <time>2016-09-14T15:14:40.008Z</time>
      </trkpt>
      <trkpt lat="47.0037" lon="-0.75484">
        <ele>121</ele>
        <time>2016-09-14T15:14:45.008Z</time>
      </trkpt>
      <trkpt lat="47.00368" lon="-0.7548">
        <ele>121</ele>
        <time>2016-09-14T15:14:50.008Z</time>
      </trkpt>
      <trkpt lat="47.00366" lon="-0.75474">
        <ele>118</ele>
        <time>2016-09-14T15:14:56.008Z</time>
      </trkpt>
      <trkpt lat="47.00363" lon="-0.75473">
        <ele>116</ele>
        <time>2016-09-14T15:15:00.008Z</time>
      </trkpt>
      <trkpt lat="47.00361" lon="-0.75468">
        <ele>114</ele>
        <time>2016-09-14T15:15:12.008Z</time>
      </trkpt>
      <trkpt lat="47.00362" lon="-0.75473">
        <ele>113</ele>
        <time>2016-09-14T15:15:22.008Z</time>
      </trkpt>
      <trkpt lat="47.00364" lon="-0.75469">
        <ele>112</ele>
        <time>2016-09-14T15:15:27.008Z</time>
      </trkpt>
      <trkpt lat="47.00367" lon="-0.75465">
        <ele>112</ele>
        <time>2016-09-14T15:15:30.008Z</time>
      </trkpt>
      <trkpt lat="47.0037" lon="-0.75461">
        <ele>112</ele>
        <time>2016-09-14T15:15:34.008Z</time>
      </trkpt>
      <trkpt lat="47.00373" lon="-0.75456">
        <ele>112</ele>
        <time>2016-09-14T15:15:38.008Z</time>
      </trkpt>
      <trkpt lat="47.00375" lon="-0.75451">
        <ele>112</ele>
        <time>2016-09-14T15:15:42.008Z</time>
      </trkpt>
      <trkpt lat="47.00378" lon="-0.75445">
        <ele>112</ele>
        <time>2016-09-14T15:15:47.008Z</time>
      </trkpt>
      <trkpt lat="47.00381" lon="-0.75438">
        <ele>112</ele>
        <time>2016-09-14T15:15:52.008Z</time>
      </trkpt>
      <trkpt lat="47.00389" lon="-0.75426">
        <ele>112</ele>
        <time>2016-09-14T15:16:00.008Z</time>
      </trkpt>
      <trkpt lat="47.00391" lon="-0.75421">
        <ele>111</ele>
        <time>2016-09-14T15:16:03.008Z</time>
      </trkpt>
      <trkpt lat="47.00394" lon="-0.75417">
        <ele>111</ele>
        <time>2016-09-14T15:16:06.008Z</time>
      </trkpt>
      <trkpt lat="47.00396" lon="-0.75412">
        <ele>111</ele>
        <time>2016-09-14T15:16:09.008Z</time>
      </trkpt>
      <trkpt lat="47.00396" lon="-0.75406">
        <ele>111</ele>
        <time>2016-09-14T15:16:13.008Z</time>
      </trkpt>
      <trkpt lat="47.00398" lon="-0.754">
        <ele>111</ele>
        <time>2016-09-14T15:16:17.008Z</time>
      </trkpt>
      <trkpt lat="47.004" lon="-0.75395">
        <ele>111.84036356804</ele>
        <time>2016-09-14T15:16:21.008Z</time>
      </trkpt>
      <trkpt lat="47.00403" lon="-0.7539">
        <ele>113</ele>
        <time>2016-09-14T15:16:25.008Z</time>
      </trkpt>
      <trkpt lat="47.00406" lon="-0.75385">
        <ele>113</ele>
        <time>2016-09-14T15:16:29.008Z</time>
      </trkpt>
      <trkpt lat="47.00409" lon="-0.7538">
        <ele>115</ele>
        <time>2016-09-14T15:16:33.008Z</time>
      </trkpt>
      <trkpt lat="47.00412" lon="-0.75375">
        <ele>115</ele>
        <time>2016-09-14T15:16:37.008Z</time>
      </trkpt>
      <trkpt lat="47.00415" lon="-0.75371">
        <ele>115</ele>
        <time>2016-09-14T15:16:41.008Z</time>
      </trkpt>
      <trkpt lat="47.00418" lon="-0.75366">
        <ele>116</ele>
        <time>2016-09-14T15:16:45.008Z</time>
      </trkpt>
      <trkpt lat="47.0042" lon="-0.75361">
        <ele>116</ele>
        <time>2016-09-14T15:16:49.008Z</time>
      </trkpt>
      <trkpt lat="47.00422" lon="-0.75356">
        <ele>116</ele>
        <time>2016-09-14T15:16:53.008Z</time>
      </trkpt>
      <trkpt lat="47.00424" lon="-0.75351">
        <ele>116</ele>
        <time>2016-09-14T15:16:57.008Z</time>
      </trkpt>
      <trkpt lat="47.00426" lon="-0.75345">
        <ele>116.46799959039</ele>
        <time>2016-09-14T15:17:01.008Z</time>
      </trkpt>
      <trkpt lat="47.00428" lon="-0.7534">
        <ele>117</ele>
        <time>2016-09-14T15:17:05.008Z</time>
      </trkpt>
      <trkpt lat="47.00431" lon="-0.75336">
        <ele>117</ele>
        <time>2016-09-14T15:17:08.008Z</time>
      </trkpt>
      <trkpt lat="47.00434" lon="-0.75331">
        <ele>117</ele>
        <time>2016-09-14T15:17:11.008Z</time>
      </trkpt>
      <trkpt lat="47.00437" lon="-0.75327">
        <ele>117</ele>
        <time>2016-09-14T15:17:15.008Z</time>
      </trkpt>
      <trkpt lat="47.0044" lon="-0.75323">
        <ele>117</ele>
        <time>2016-09-14T15:17:18.008Z</time>
      </trkpt>
      <trkpt lat="47.00443" lon="-0.7532">
        <ele>117.43618875791</ele>
        <time>2016-09-14T15:17:21.008Z</time>
      </trkpt>
      <trkpt lat="47.00446" lon="-0.75316">
        <ele>118</ele>
        <time>2016-09-14T15:17:25.008Z</time>
      </trkpt>
      <trkpt lat="47.00449" lon="-0.75312">
        <ele>118</ele>
        <time>2016-09-14T15:17:28.008Z</time>
      </trkpt>
      <trkpt lat="47.00452" lon="-0.75307">
        <ele>119</ele>
        <time>2016-09-14T15:17:32.008Z</time>
      </trkpt>
      <trkpt lat="47.00455" lon="-0.75303">
        <ele>119</ele>
        <time>2016-09-14T15:17:36.008Z</time>
      </trkpt>
      <trkpt lat="47.00458" lon="-0.75299">
        <ele>119</ele>
        <time>2016-09-14T15:17:39.008Z</time>
      </trkpt>
      <trkpt lat="47.0046" lon="-0.75295">
        <ele>120</ele>
        <time>2016-09-14T15:17:43.008Z</time>
      </trkpt>
      <trkpt lat="47.00464" lon="-0.75292">
        <ele>120</ele>
        <time>2016-09-14T15:17:47.008Z</time>
      </trkpt>
      <trkpt lat="47.00468" lon="-0.75289">
        <ele>120</ele>
        <time>2016-09-14T15:17:50.008Z</time>
      </trkpt>
      <trkpt lat="47.00471" lon="-0.75286">
        <ele>122</ele>
        <time>2016-09-14T15:17:53.008Z</time>
      </trkpt>
      <trkpt lat="47.00473" lon="-0.75282">
        <ele>122</ele>
        <time>2016-09-14T15:17:58.008Z</time>
      </trkpt>
      <trkpt lat="47.00477" lon="-0.75278">
        <ele>122</ele>
        <time>2016-09-14T15:18:03.008Z</time>
      </trkpt>
      <trkpt lat="47.00478" lon="-0.75272">
        <ele>122</ele>
        <time>2016-09-14T15:18:06.008Z</time>
      </trkpt>
      <trkpt lat="47.00481" lon="-0.75266">
        <ele>122</ele>
        <time>2016-09-14T15:18:10.008Z</time>
      </trkpt>
      <trkpt lat="47.00483" lon="-0.75262">
        <ele>122</ele>
        <time>2016-09-14T15:18:13.008Z</time>
      </trkpt>
      <trkpt lat="47.00485" lon="-0.75257">
        <ele>122</ele>
        <time>2016-09-14T15:18:17.008Z</time>
      </trkpt>
      <trkpt lat="47.00487" lon="-0.75251">
        <ele>122</ele>
        <time>2016-09-14T15:18:20.008Z</time>
      </trkpt>
      <trkpt lat="47.00489" lon="-0.75246">
        <ele>122</ele>
        <time>2016-09-14T15:18:23.008Z</time>
      </trkpt>
      <trkpt lat="47.00491" lon="-0.75241">
        <ele>122</ele>
        <time>2016-09-14T15:18:26.008Z</time>
      </trkpt>
      <trkpt lat="47.00492" lon="-0.75236">
        <ele>122</ele>
        <time>2016-09-14T15:18:29.008Z</time>
      </trkpt>
      <trkpt lat="47.00495" lon="-0.75231">
        <ele>124</ele>
        <time>2016-09-14T15:18:32.008Z</time>
      </trkpt>
      <trkpt lat="47.00496" lon="-0.75226">
        <ele>124</ele>
        <time>2016-09-14T15:18:35.008Z</time>
      </trkpt>
      <trkpt lat="47.00497" lon="-0.7522">
        <ele>124</ele>
        <time>2016-09-14T15:18:38.008Z</time>
      </trkpt>
      <trkpt lat="47.00499" lon="-0.75215">
        <ele>124</ele>
        <time>2016-09-14T15:18:41.008Z</time>
      </trkpt>
      <trkpt lat="47.00501" lon="-0.7521">
        <ele>124</ele>
        <time>2016-09-14T15:18:44.008Z</time>
      </trkpt>
      <trkpt lat="47.00502" lon="-0.75205">
        <ele>124</ele>
        <time>2016-09-14T15:18:47.008Z</time>
      </trkpt>
      <trkpt lat="47.00504" lon="-0.75199">
        <ele>124</ele>
        <time>2016-09-14T15:18:51.008Z</time>
      </trkpt>
      <trkpt lat="47.00507" lon="-0.75194">
        <ele>124</ele>
        <time>2016-09-14T15:18:54.008Z</time>
      </trkpt>
      <trkpt lat="47.00509" lon="-0.75188">
        <ele>124</ele>
        <time>2016-09-14T15:18:58.008Z</time>
      </trkpt>
      <trkpt lat="47.00511" lon="-0.75182">
        <ele>125</ele>
        <time>2016-09-14T15:19:02.008Z</time>
      </trkpt>
      <trkpt lat="47.00514" lon="-0.75177">
        <ele>125</ele>
        <time>2016-09-14T15:19:05.008Z</time>
      </trkpt>
      <trkpt lat="47.00517" lon="-0.75172">
        <ele>125</ele>
        <time>2016-09-14T15:19:08.008Z</time>
      </trkpt>
      <trkpt lat="47.0052" lon="-0.75167">
        <ele>126</ele>
        <time>2016-09-14T15:19:12.008Z</time>
      </trkpt>
      <trkpt lat="47.00524" lon="-0.75163">
        <ele>126</ele>
        <time>2016-09-14T15:19:16.008Z</time>
      </trkpt>
      <trkpt lat="47.00527" lon="-0.75159">
        <ele>126</ele>
        <time>2016-09-14T15:19:19.008Z</time>
      </trkpt>
      <trkpt lat="47.0053" lon="-0.75156">
        <ele>127</ele>
        <time>2016-09-14T15:19:23.008Z</time>
      </trkpt>
      <trkpt lat="47.00533" lon="-0.75151">
        <ele>127</ele>
        <time>2016-09-14T15:19:27.008Z</time>
      </trkpt>
      <trkpt lat="47.00534" lon="-0.75146">
        <ele>127.83570285714</ele>
        <time>2016-09-14T15:19:31.008Z</time>
      </trkpt>
      <trkpt lat="47.00536" lon="-0.7514">
        <ele>129</ele>
        <time>2016-09-14T15:19:35.008Z</time>
      </trkpt>
      <trkpt lat="47.00538" lon="-0.75135">
        <ele>131</ele>
        <time>2016-09-14T15:19:39.008Z</time>
      </trkpt>
      <trkpt lat="47.0054" lon="-0.7513">
        <ele>131</ele>
        <time>2016-09-14T15:19:42.008Z</time>
      </trkpt>
      <trkpt lat="47.00542" lon="-0.75126">
        <ele>131</ele>
        <time>2016-09-14T15:19:45.008Z</time>
      </trkpt>
      <trkpt lat="47.00545" lon="-0.75123">
        <ele>131</ele>
        <time>2016-09-14T15:19:49.008Z</time>
      </trkpt>
      <trkpt lat="47.00549" lon="-0.75124">
        <ele>131</ele>
        <time>2016-09-14T15:20:37.008Z</time>
      </trkpt>
      <trkpt lat="47.00551" lon="-0.75118">
        <ele>131</ele>
        <time>2016-09-14T15:20:43.008Z</time>
      </trkpt>
      <trkpt lat="47.00553" lon="-0.75113">
        <ele>131</ele>
        <time>2016-09-14T15:20:46.008Z</time>
      </trkpt>
      <trkpt lat="47.00555" lon="-0.75108">
        <ele>131</ele>
        <time>2016-09-14T15:20:49.008Z</time>
      </trkpt>
      <trkpt lat="47.00558" lon="-0.75104">
        <ele>132</ele>
        <time>2016-09-14T15:20:54.008Z</time>
      </trkpt>
      <trkpt lat="47.00561" lon="-0.751">
        <ele>132</ele>
        <time>2016-09-14T15:20:58.008Z</time>
      </trkpt>
      <trkpt lat="47.00564" lon="-0.75097">
        <ele>132</ele>
        <time>2016-09-14T15:21:02.008Z</time>
      </trkpt>
      <trkpt lat="47.00567" lon="-0.75092">
        <ele>132</ele>
        <time>2016-09-14T15:21:07.008Z</time>
      </trkpt>
      <trkpt lat="47.0057" lon="-0.75087">
        <ele>132</ele>
        <time>2016-09-14T15:21:11.008Z</time>
      </trkpt>
      <trkpt lat="47.00573" lon="-0.75082">
        <ele>133</ele>
        <time>2016-09-14T15:21:15.008Z</time>
      </trkpt>
      <trkpt lat="47.00575" lon="-0.75077">
        <ele>133</ele>
        <time>2016-09-14T15:21:19.008Z</time>
      </trkpt>
      <trkpt lat="47.00577" lon="-0.75073">
        <ele>133</ele>
        <time>2016-09-14T15:21:22.008Z</time>
      </trkpt>
      <trkpt lat="47.0058" lon="-0.75068">
        <ele>133</ele>
        <time>2016-09-14T15:21:26.008Z</time>
      </trkpt>
      <trkpt lat="47.00583" lon="-0.75064">
        <ele>133</ele>
        <time>2016-09-14T15:21:29.008Z</time>
      </trkpt>
      <trkpt lat="47.00585" lon="-0.75059">
        <ele>133</ele>
        <time>2016-09-14T15:21:32.008Z</time>
      </trkpt>
      <trkpt lat="47.00588" lon="-0.75054">
        <ele>133</ele>
        <time>2016-09-14T15:21:36.008Z</time>
      </trkpt>
      <trkpt lat="47.0059" lon="-0.75049">
        <ele>133</ele>
        <time>2016-09-14T15:21:39.008Z</time>
      </trkpt>
      <trkpt lat="47.00593" lon="-0.75045">
        <ele>133</ele>
        <time>2016-09-14T15:21:43.008Z</time>
      </trkpt>
      <trkpt lat="47.00596" lon="-0.75039">
        <ele>133</ele>
        <time>2016-09-14T15:21:47.008Z</time>
      </trkpt>
      <trkpt lat="47.00598" lon="-0.75033">
        <ele>134</ele>
        <time>2016-09-14T15:21:52.008Z</time>
      </trkpt>
      <trkpt lat="47.006" lon="-0.75029">
        <ele>134</ele>
        <time>2016-09-14T15:21:55.008Z</time>
      </trkpt>
      <trkpt lat="47.00602" lon="-0.75023">
        <ele>134</ele>
        <time>2016-09-14T15:22:00.008Z</time>
      </trkpt>
      <trkpt lat="47.00603" lon="-0.75018">
        <ele>134</ele>
        <time>2016-09-14T15:22:04.008Z</time>
      </trkpt>
      <trkpt lat="47.00605" lon="-0.75012">
        <ele>134</ele>
        <time>2016-09-14T15:22:09.008Z</time>
      </trkpt>
      <trkpt lat="47.00606" lon="-0.75007">
        <ele>135</ele>
        <time>2016-09-14T15:22:13.008Z</time>
      </trkpt>
      <trkpt lat="47.00609" lon="-0.75002">
        <ele>135</ele>
        <time>2016-09-14T15:22:16.008Z</time>
      </trkpt>
      <trkpt lat="47.00611" lon="-0.74997">
        <ele>135</ele>
        <time>2016-09-14T15:22:19.008Z</time>
      </trkpt>
      <trkpt lat="47.00615" lon="-0.74992">
        <ele>135</ele>
        <time>2016-09-14T15:22:22.008Z</time>
      </trkpt>
      <trkpt lat="47.00618" lon="-0.74987">
        <ele>135</ele>
        <time>2016-09-14T15:22:25.008Z</time>
      </trkpt>
      <trkpt lat="47.00622" lon="-0.74985">
        <ele>135</ele>
        <time>2016-09-14T15:22:29.008Z</time>
      </trkpt>
      <trkpt lat="47.00626" lon="-0.74983">
        <ele>135</ele>
        <time>2016-09-14T15:22:32.008Z</time>
      </trkpt>
      <trkpt lat="47.00629" lon="-0.74981">
        <ele>135</ele>
        <time>2016-09-14T15:22:35.008Z</time>
      </trkpt>
      <trkpt lat="47.00633" lon="-0.74978">
        <ele>135</ele>
        <time>2016-09-14T15:22:38.008Z</time>
      </trkpt>
      <trkpt lat="47.00637" lon="-0.74974">
        <ele>135</ele>
        <time>2016-09-14T15:22:41.008Z</time>
      </trkpt>
      <trkpt lat="47.00641" lon="-0.7497">
        <ele>135</ele>
        <time>2016-09-14T15:22:44.008Z</time>
      </trkpt>
      <trkpt lat="47.00644" lon="-0.74967">
        <ele>135</ele>
        <time>2016-09-14T15:22:47.008Z</time>
      </trkpt>
      <trkpt lat="47.00647" lon="-0.74963">
        <ele>135</ele>
        <time>2016-09-14T15:22:51.008Z</time>
      </trkpt>
      <trkpt lat="47.0065" lon="-0.7496">
        <ele>135</ele>
        <time>2016-09-14T15:22:54.008Z</time>
      </trkpt>
      <trkpt lat="47.00654" lon="-0.74958">
        <ele>135</ele>
        <time>2016-09-14T15:22:58.008Z</time>
      </trkpt>
      <trkpt lat="47.00657" lon="-0.74954">
        <ele>136</ele>
        <time>2016-09-14T15:23:03.008Z</time>
      </trkpt>
      <trkpt lat="47.0066" lon="-0.7495">
        <ele>136</ele>
        <time>2016-09-14T15:23:06.008Z</time>
      </trkpt>
      <trkpt lat="47.00664" lon="-0.74948">
        <ele>136</ele>
        <time>2016-09-14T15:23:09.008Z</time>
      </trkpt>
      <trkpt lat="47.00668" lon="-0.74945">
        <ele>136</ele>
        <time>2016-09-14T15:23:13.008Z</time>
      </trkpt>
      <trkpt lat="47.00672" lon="-0.74941">
        <ele>136</ele>
        <time>2016-09-14T15:23:16.008Z</time>
      </trkpt>
      <trkpt lat="47.00676" lon="-0.74937">
        <ele>136</ele>
        <time>2016-09-14T15:23:19.008Z</time>
      </trkpt>
      <trkpt lat="47.00681" lon="-0.74934">
        <ele>136</ele>
        <time>2016-09-14T15:23:22.008Z</time>
      </trkpt>
      <trkpt lat="47.00684" lon="-0.74931">
        <ele>136</ele>
        <time>2016-09-14T15:23:25.008Z</time>
      </trkpt>
      <trkpt lat="47.00687" lon="-0.74929">
        <ele>136</ele>
        <time>2016-09-14T15:23:29.008Z</time>
      </trkpt>
      <trkpt lat="47.0069" lon="-0.74925">
        <ele>136</ele>
        <time>2016-09-14T15:23:32.008Z</time>
      </trkpt>
      <trkpt lat="47.00694" lon="-0.74921">
        <ele>136</ele>
        <time>2016-09-14T15:23:36.008Z</time>
      </trkpt>
      <trkpt lat="47.00697" lon="-0.74917">
        <ele>136</ele>
        <time>2016-09-14T15:23:39.008Z</time>
      </trkpt>
      <trkpt lat="47.007" lon="-0.74913">
        <ele>136</ele>
        <time>2016-09-14T15:23:42.008Z</time>
      </trkpt>
      <trkpt lat="47.00704" lon="-0.7491">
        <ele>136</ele>
        <time>2016-09-14T15:23:45.008Z</time>
      </trkpt>
      <trkpt lat="47.00708" lon="-0.74907">
        <ele>136</ele>
        <time>2016-09-14T15:23:49.008Z</time>
      </trkpt>
      <trkpt lat="47.00711" lon="-0.74902">
        <ele>136</ele>
        <time>2016-09-14T15:23:53.008Z</time>
      </trkpt>
      <trkpt lat="47.00714" lon="-0.74898">
        <ele>136</ele>
        <time>2016-09-14T15:23:57.008Z</time>
      </trkpt>
      <trkpt lat="47.00717" lon="-0.74895">
        <ele>136</ele>
        <time>2016-09-14T15:24:00.008Z</time>
      </trkpt>
      <trkpt lat="47.00721" lon="-0.74892">
        <ele>135</ele>
        <time>2016-09-14T15:24:04.008Z</time>
      </trkpt>
      <trkpt lat="47.00724" lon="-0.74889">
        <ele>135</ele>
        <time>2016-09-14T15:24:08.008Z</time>
      </trkpt>
      <trkpt lat="47.00727" lon="-0.74885">
        <ele>135</ele>
        <time>2016-09-14T15:24:11.008Z</time>
      </trkpt>
      <trkpt lat="47.00731" lon="-0.74883">
        <ele>135</ele>
        <time>2016-09-14T15:24:14.008Z</time>
      </trkpt>
      <trkpt lat="47.00735" lon="-0.74879">
        <ele>135</ele>
        <time>2016-09-14T15:24:17.008Z</time>
      </trkpt>
      <trkpt lat="47.00739" lon="-0.74877">
        <ele>135</ele>
        <time>2016-09-14T15:24:20.008Z</time>
      </trkpt>
      <trkpt lat="47.00742" lon="-0.74875">
        <ele>135</ele>
        <time>2016-09-14T15:24:23.008Z</time>
      </trkpt>
      <trkpt lat="47.00747" lon="-0.74872">
        <ele>135</ele>
        <time>2016-09-14T15:24:29.008Z</time>
      </trkpt>
      <trkpt lat="47.00751" lon="-0.74871">
        <ele>135</ele>
        <time>2016-09-14T15:24:33.008Z</time>
      </trkpt>
      <trkpt lat="47.00756" lon="-0.7487">
        <ele>135</ele>
        <time>2016-09-14T15:24:36.008Z</time>
      </trkpt>
      <trkpt lat="47.00759" lon="-0.74868">
        <ele>135</ele>
        <time>2016-09-14T15:24:40.008Z</time>
      </trkpt>
      <trkpt lat="47.00763" lon="-0.74864">
        <ele>134</ele>
        <time>2016-09-14T15:24:44.008Z</time>
      </trkpt>
      <trkpt lat="47.00766" lon="-0.74868">
        <ele>134</ele>
        <time>2016-09-14T15:24:50.008Z</time>
      </trkpt>
      <trkpt lat="47.0077" lon="-0.74866">
        <ele>133</ele>
        <time>2016-09-14T15:24:55.008Z</time>
      </trkpt>
      <trkpt lat="47.00772" lon="-0.74862">
        <ele>133</ele>
        <time>2016-09-14T15:24:58.008Z</time>
      </trkpt>
      <trkpt lat="47.00776" lon="-0.74859">
        <ele>133</ele>
        <time>2016-09-14T15:25:01.008Z</time>
      </trkpt>
      <trkpt lat="47.00778" lon="-0.74852">
        <ele>133</ele>
        <time>2016-09-14T15:25:04.008Z</time>
      </trkpt>
      <trkpt lat="47.00789" lon="-0.74847">
        <ele>134</ele>
        <time>2016-09-14T15:25:14.008Z</time>
      </trkpt>
      <trkpt lat="47.00793" lon="-0.74848">
        <ele>134</ele>
        <time>2016-09-14T15:25:17.008Z</time>
      </trkpt>
      <trkpt lat="47.00799" lon="-0.74845">
        <ele>134</ele>
        <time>2016-09-14T15:25:21.008Z</time>
      </trkpt>
      <trkpt lat="47.00798" lon="-0.7484">
        <ele>134</ele>
        <time>2016-09-14T15:25:24.008Z</time>
      </trkpt>
      <trkpt lat="47.00797" lon="-0.74834">
        <ele>134</ele>
        <time>2016-09-14T15:25:28.008Z</time>
      </trkpt>
      <trkpt lat="47.00796" lon="-0.74828">
        <ele>133</ele>
        <time>2016-09-14T15:25:33.008Z</time>
      </trkpt>
      <trkpt lat="47.00794" lon="-0.74822">
        <ele>133</ele>
        <time>2016-09-14T15:25:37.008Z</time>
      </trkpt>
      <trkpt lat="47.00792" lon="-0.74815">
        <ele>132.55429045117</ele>
        <time>2016-09-14T15:25:41.008Z</time>
      </trkpt>
      <trkpt lat="47.0079" lon="-0.7481">
        <ele>132</ele>
        <time>2016-09-14T15:25:44.008Z</time>
      </trkpt>
    </trkseg>
  </trk>
</gpx>